Provisional Data: East Fork First Fork Sinnemahoning Creek near Logue, PA


Please select a monitoring station.
Please select start date.
Please select start date.

Toggle Unit: C/F Toggle Unit: C/F
Sample Time Temperature (C) Temperature (F) Specific Conductivity (mS/cm) pH   Turbidity (NTU+) DO (mg/L)
12/11/2021 12:00:00 AM 5.05 41.09 0.041 6.45 2.47 12.28
12/11/2021 12:15:00 AM 5.04 41.072 0.041 6.45 2.29 12.29
12/11/2021 12:30:00 AM 5.04 41.072 0.041 6.44 2.36 12.28
12/11/2021 12:45:00 AM 5.04 41.072 0.041 6.27 2.44 12.28
12/11/2021 1:00:00 AM 5.04 41.072 0.041 6.45 2.28 12.27
12/11/2021 1:15:00 AM 5.04 41.072 0.041 6.46 2.31 12.28
12/11/2021 1:30:00 AM 5.05 41.09 0.041 6.45 2.41 12.27
12/11/2021 1:45:00 AM 5.06 41.108 0.041 6.45 2.59 12.27
12/11/2021 2:00:00 AM 5.07 41.126 0.041 6.47 3.26 12.25
12/11/2021 2:15:00 AM 5.08 41.144 0.041 6.46 2.41 12.25
12/11/2021 2:30:00 AM 5.09 41.162 0.041 6.46 2.48 12.25
12/11/2021 2:45:00 AM 5.1 41.18 0.041 6.45 2.6 12.23
12/11/2021 3:00:00 AM 5.12 41.216 0.041 6.46 2.57 12.23
12/11/2021 3:15:00 AM 5.14 41.252 0.041 6.47 2.41 12.22
12/11/2021 3:30:00 AM 5.15 41.27 0.041 6.46 2.3 12.21
12/11/2021 3:45:00 AM 5.17 41.306 0.041 6.46 2.3 12.2
12/11/2021 4:00:00 AM 5.17 41.306 0.041 6.47 2.73 12.2
12/11/2021 4:15:00 AM 5.18 41.324 0.041 6.46 2.51 12.19
12/11/2021 4:30:00 AM 5.2 41.36 0.041 6.46 2.53 12.18
12/11/2021 4:45:00 AM 5.21 41.378 0.04 6.45 2.72 12.17
12/11/2021 5:00:00 AM 5.22 41.396 0.04 6.45 2.79 12.16
12/11/2021 5:15:00 AM 5.23 41.414 0.04 6.39 2.77 12.14
12/11/2021 5:30:00 AM 5.25 41.45 0.04 6.45 2.63 12.13
12/11/2021 5:45:00 AM 5.26 41.468 0.04 6.44 2.7 12.13
12/11/2021 6:00:00 AM 5.28 41.504 0.04 6.45 3.09 12.12
12/11/2021 6:15:00 AM 5.3 41.54 0.04 6.45 3.12 12.11
12/11/2021 6:30:00 AM 5.31 41.558 0.04 6.45 3.23 12.1
12/11/2021 6:45:00 AM 5.32 41.576 0.04 6.44 3.5 12.1
12/11/2021 7:00:00 AM 5.34 41.612 0.041 6.44 3.5 12.09
12/11/2021 7:15:00 AM 5.36 41.648 0.041 6.45 4.33 12.09
12/11/2021 7:30:00 AM 5.38 41.684 0.041 6.46 4.56 12.08
12/11/2021 7:45:00 AM 5.4 41.72 0.041 6.45 5.97 12.07
12/11/2021 8:00:00 AM 5.42 41.756 0.041 6.46 6.15 12.07
12/11/2021 8:15:00 AM 5.44 41.792 0.042 6.45 6.17 12.07
12/11/2021 8:30:00 AM 5.47 41.846 0.042 6.48 7.08 12.06
12/11/2021 8:45:00 AM 5.5 41.9 0.042 6.48 7.77 12.07
12/11/2021 9:00:00 AM 5.53 41.954 0.042 6.49 8.01 12.08
12/11/2021 9:15:00 AM 5.57 42.026 0.042 6.49 7.84 12.08
12/11/2021 9:30:00 AM 5.61 42.098 0.042 6.49 7.59 12.08
12/11/2021 9:45:00 AM 5.65 42.17 0.042 6.5 6.36 12.08
12/11/2021 10:00:00 AM 5.69 42.242 0.042 6.51 8.36 12.08
12/11/2021 10:15:00 AM 5.73 42.314 0.042 6.51 5.93 12.08
12/11/2021 10:30:00 AM 5.77 42.386 0.042 6.51 5.47 12.06
12/11/2021 10:45:00 AM 5.82 42.476 0.043 6.52 5.38 12.06
12/11/2021 11:00:00 AM 5.86 42.548 0.043 6.51 5.3 12.03
12/11/2021 11:15:00 AM 5.9 42.62 0.043 6.53 5.52 12.03
12/11/2021 11:30:00 AM 5.95 42.71 0.043 6.52 4.67 12.02
12/11/2021 11:45:00 AM 5.99 42.782 0.043 6.53 4.86 11.99
12/11/2021 12:00:00 PM 6.04 42.872 0.043 6.52 4.58 11.96
12/11/2021 12:15:00 PM 6.09 42.962 0.041 6.5 6.27 11.94
12/11/2021 12:30:00 PM 6.15 43.07 0.043 6.53 4.48 11.94
12/11/2021 12:45:00 PM 6.21 43.178 0.043 6.52 4.3 11.94
12/11/2021 1:00:00 PM 6.27 43.286 0.043 6.53 4.07 11.93
12/11/2021 1:15:00 PM 6.34 43.412 0.043 6.53 3.99 11.89
12/11/2021 1:30:00 PM 6.41 43.538 0.043 6.52 3.78 11.86
12/11/2021 1:45:00 PM 6.47 43.646 0.043 6.54 3.78 11.84
12/11/2021 2:00:00 PM 6.53 43.754 0.043 6.54 3.77 11.81
12/11/2021 2:15:00 PM 6.59 43.862 0.043 6.54 3.51 11.78
12/11/2021 2:30:00 PM 6.65 43.97 0.043 6.53 3.46 11.75
12/11/2021 2:45:00 PM 6.71 44.078 0.043 6.52 4.11 11.71
12/11/2021 3:00:00 PM 6.75 44.15 0.043 6.52 3.68 11.68
12/11/2021 3:15:00 PM 6.8 44.24 0.043 6.51 3.5 11.66
12/11/2021 3:30:00 PM 6.85 44.33 0.043 6.51 3.6 11.62
12/11/2021 3:45:00 PM 6.9 44.42 0.043 6.5 3.72 11.59
12/11/2021 4:00:00 PM 6.95 44.51 0.043 6.5 3.7 11.56
12/11/2021 4:15:00 PM 7 44.6 0.043 6.5 3.34 11.54
12/11/2021 4:30:00 PM 7.06 44.708 0.043 6.5 3.61 11.51
12/11/2021 4:45:00 PM 7.11 44.798 0.043 6.49 3.61 11.48
12/11/2021 5:00:00 PM 7.18 44.924 0.043 6.48 3.78 11.46
12/11/2021 5:15:00 PM 7.22 44.996 0.043 6.48 3.86 11.44
12/11/2021 5:30:00 PM 7.26 45.068 0.043 6.48 3.78 11.42
12/11/2021 5:45:00 PM 7.28 45.104 0.043 6.48 3.86 11.42
12/11/2021 6:00:00 PM 7.28 45.104 0.043 6.48 4.79 11.42
12/11/2021 6:15:00 PM 7.27 45.086 0.043 6.47 3.9 11.42
12/11/2021 6:30:00 PM 7.24 45.032 0.043 6.47 3.9 11.43
12/11/2021 6:45:00 PM 7.19 44.942 0.043 6.45 3.84 11.44
12/11/2021 7:00:00 PM 7.14 44.852 0.043 6.45 3.84 11.46
12/11/2021 7:15:00 PM 7.1 44.78 0.043 6.46 4.02 11.48
12/11/2021 7:30:00 PM 7.05 44.69 0.043 6.45 4.04 11.5
12/11/2021 7:45:00 PM 7 44.6 0.043 6.44 3.74 11.53
12/11/2021 8:00:00 PM 6.95 44.51 0.043 6.45 3.61 11.55
12/11/2021 8:15:00 PM 6.88 44.384 0.043 6.45 3.64 11.58
12/11/2021 8:30:00 PM 6.81 44.258 0.043 6.44 3.94 11.6
12/11/2021 8:45:00 PM 6.75 44.15 0.041 6.42 5.23 11.63
12/11/2021 9:00:00 PM 6.69 44.042 0.041 6.41 5.63 11.66
12/11/2021 9:15:00 PM 6.63 43.934 0.043 6.43 3.69 11.68
12/11/2021 9:30:00 PM 6.57 43.826 0.043 6.44 3.6 11.7
12/11/2021 9:45:00 PM 6.52 43.736 0.043 6.44 3.5 11.73
12/11/2021 10:00:00 PM 6.47 43.646 0.043 6.46 3.78 11.74
12/11/2021 10:15:00 PM 6.42 43.556 0.043 6.43 3.47 11.77
12/11/2021 10:30:00 PM 6.37 43.466 0.043 6.42 3.8 11.79
12/11/2021 10:45:00 PM 6.28 43.304 0.043 6.43 3.56 11.81
12/11/2021 11:00:00 PM 6.23 43.214 0.043 6.44 3.44 11.83
12/11/2021 11:15:00 PM 6.19 43.142 0.043 6.44 3.59 11.85
12/11/2021 11:30:00 PM 6.15 43.07 0.043 6.43 3.64 11.87
12/11/2021 11:45:00 PM 6.11 42.998 0.043 6.44 3.57 11.89
12/12/2021 12:00:00 AM 6.06 42.908 0.043 6.44 3.58 11.91
12/12/2021 12:15:00 AM 6.02 42.836 0.043 6.45 3.62 11.92
12/12/2021 12:30:00 AM 5.99 42.782 0.043 6.45 3.55 11.94
12/12/2021 12:45:00 AM 5.95 42.71 0.043 6.45 3.6 11.95
12/12/2021 1:00:00 AM 5.93 42.674 0.043 6.45 3.59 11.96
12/12/2021 1:15:00 AM 5.87 42.566 0.043 6.45 3.87 11.98
12/12/2021 1:30:00 AM 5.82 42.476 0.043 6.45 3.51 12
12/12/2021 1:45:00 AM 5.78 42.404 0.043 6.46 3.65 12.01
12/12/2021 2:00:00 AM 5.76 42.368 0.043 6.45 3.61 12.03
12/12/2021 2:15:00 AM 5.74 42.332 0.043 6.45 3.84 12.04
12/12/2021 2:30:00 AM 5.72 42.296 0.043 6.45 3.52 12.05
12/12/2021 2:45:00 AM 5.7 42.26 0.043 6.46 4.78 12.07
12/12/2021 3:00:00 AM 5.66 42.188 0.043 6.44 3.62 12.08
12/12/2021 3:15:00 AM 5.63 42.134 0.043 6.45 3.66 12.09
12/12/2021 3:30:00 AM 5.59 42.062 0.043 6.45 3.8 12.11
12/12/2021 3:45:00 AM 5.56 42.008 0.043 6.45 3.71 12.12
12/12/2021 4:00:00 AM 5.53 41.954 0.043 6.45 3.32 12.14
12/12/2021 4:15:00 AM 5.5 41.9 0.043 6.46 3.65 12.14
12/12/2021 4:30:00 AM 5.47 41.846 0.043 6.46 4.1 12.16
12/12/2021 4:45:00 AM 5.44 41.792 0.043 6.45 3.56 12.17
12/12/2021 5:00:00 AM 5.41 41.738 0.043 6.45 4.13 12.19
12/12/2021 5:15:00 AM 5.4 41.72 0.043 6.45 4.12 12.2
12/12/2021 5:30:00 AM 5.38 41.684 0.043 6.46 3.69 12.21
12/12/2021 5:45:00 AM 5.36 41.648 0.043 6.45 3.77 12.21
12/12/2021 6:00:00 AM 5.32 41.576 0.043 6.46 3.88 12.23
12/12/2021 6:15:00 AM 5.31 41.558 0.043 6.45 4.39 12.24
12/12/2021 6:30:00 AM 5.31 41.558 0.042 6.43 4.12 12.24
12/12/2021 6:45:00 AM 5.3 41.54 0.042 6.43 3.79 12.24
12/12/2021 7:00:00 AM 5.28 41.504 0.042 6.43 3.95 12.25
12/12/2021 7:15:00 AM 5.25 41.45 0.042 6.43 3.56 12.26
12/12/2021 7:30:00 AM 5.23 41.414 0.042 6.42 3.51 12.27
12/12/2021 7:45:00 AM 5.21 41.378 0.042 6.43 3.67 12.29
12/12/2021 8:00:00 AM 5.19 41.342 0.042 6.44 3.39 12.31
12/12/2021 8:15:00 AM 5.18 41.324 0.042 6.44 3.27 12.34
12/12/2021 8:30:00 AM 5.18 41.324 0.042 6.46 3.18 12.36
12/12/2021 8:45:00 AM 5.17 41.306 0.042 6.46 3.28 12.4
12/12/2021 9:00:00 AM 5.18 41.324 0.042 6.5 3.75 12.42
12/12/2021 9:15:00 AM 5.19 41.342 0.042 6.48 3.73 12.43
12/12/2021 9:30:00 AM 5.2 41.36 0.042 6.48 3.72 12.45
12/12/2021 9:45:00 AM 5.22 41.396 0.042 6.49 3.76 12.47
12/12/2021 10:00:00 AM 5.24 41.432 0.042 6.5 3.58 12.49
12/12/2021 10:15:00 AM 5.24 41.432 0.042 6.51 3.46 12.5
12/12/2021 10:30:00 AM 5.25 41.45 0.042 6.52 3.39 12.5
12/12/2021 10:45:00 AM 5.29 41.522 0.042 6.51 3.49 12.49
12/12/2021 11:00:00 AM 5.32 41.576 0.042 6.52 4.51 12.48
12/12/2021 11:15:00 AM 5.34 41.612 0.042 6.51 3.55 12.48
12/12/2021 11:30:00 AM 5.36 41.648 0.042 6.51 3.54 12.47
12/12/2021 11:45:00 AM 5.41 41.738 0.042 6.51 4.06 12.47
12/12/2021 12:00:00 PM 5.46 41.828 0.039 6.5 4.91 12.46
12/12/2021 12:15:00 PM 5.51 41.918 0.041 6.52 3.86 12.45
12/12/2021 12:30:00 PM 5.56 42.008 0.039 6.51 5.59 12.44
12/12/2021 12:45:00 PM 5.6 42.08 0.041 6.53 3.24 12.42
12/12/2021 1:00:00 PM 5.64 42.152 0.041 6.53 3.14 12.42
12/12/2021 1:15:00 PM 5.68 42.224 0.041 6.53 3.2 12.4
12/12/2021 1:30:00 PM 5.72 42.296 0.041 6.52 4.46 12.39
12/12/2021 1:45:00 PM 5.74 42.332 0.039 6.5 5.49 12.39
12/12/2021 2:00:00 PM 5.76 42.368 0.041 6.52 3.55 12.38
12/12/2021 2:15:00 PM 5.77 42.386 0.041 6.52 3.73 12.36
12/12/2021 2:30:00 PM 5.77 42.386 0.041 6.52 3.43 12.36
12/12/2021 2:45:00 PM 5.76 42.368 0.041 6.5 3.17 12.35
12/12/2021 3:00:00 PM 5.75 42.35 0.041 6.52 3.37 12.34
12/12/2021 3:15:00 PM 5.73 42.314 0.041 6.5 3.54 12.34
12/12/2021 3:30:00 PM 5.71 42.278 0.041 6.5 3.39 12.33
12/12/2021 3:45:00 PM 5.68 42.224 0.041 6.49 3.3 12.32
12/12/2021 4:00:00 PM 5.66 42.188 0.041 6.49 3.23 12.31
12/12/2021 4:15:00 PM 5.63 42.134 0.041 6.47 3.31 12.3
12/12/2021 4:30:00 PM 5.6 42.08 0.041 6.46 3.41 12.28
12/12/2021 4:45:00 PM 5.56 42.008 0.041 6.46 3.39 12.27
12/12/2021 5:00:00 PM 5.53 41.954 0.039 6.43 4.95 12.26
12/12/2021 5:15:00 PM 5.5 41.9 0.041 6.45 3.39 12.25
12/12/2021 5:30:00 PM 5.47 41.846 0.041 6.44 3.64 12.25
12/12/2021 5:45:00 PM 5.43 41.774 0.041 6.43 3.66 12.26
12/12/2021 6:00:00 PM 5.4 41.72 0.041 6.41 3.52 12.26
12/12/2021 6:15:00 PM 5.38 41.684 0.041 6.44 3.35 12.27
12/12/2021 6:30:00 PM 5.35 41.63 0.041 6.44 3.89 12.27
12/12/2021 6:45:00 PM 5.32 41.576 0.041 6.43 3.94 12.28
12/12/2021 7:00:00 PM 5.29 41.522 0.041 6.43 3.91 12.29
12/12/2021 7:15:00 PM 5.26 41.468 0.041 6.41 3.9 12.31
12/12/2021 7:30:00 PM 5.23 41.414 0.041 6.41 3.73 12.33
12/12/2021 7:45:00 PM 5.2 41.36 0.041 6.43 3.83 12.33
12/12/2021 8:00:00 PM 5.17 41.306 0.041 6.42 3.48 12.34
12/12/2021 8:15:00 PM 5.14 41.252 0.041 6.42 3.51 12.35
12/12/2021 8:30:00 PM 5.11 41.198 0.041 6.42 3.74 12.36
12/12/2021 8:45:00 PM 5.07 41.126 0.041 6.42 3.91 12.38
12/12/2021 9:00:00 PM 5.04 41.072 0.041 6.42 3.89 12.38
12/12/2021 9:15:00 PM 5.01 41.018 0.041 6.41 4.04 12.39
12/12/2021 9:30:00 PM 4.99 40.982 0.041 6.42 4.06 12.41
12/12/2021 9:45:00 PM 4.96 40.928 0.041 6.43 3.64 12.43
12/12/2021 10:00:00 PM 4.93 40.874 0.04 6.4 5.31 12.42
12/12/2021 10:15:00 PM 4.9 40.82 0.041 6.42 3.77 12.44
12/12/2021 10:30:00 PM 4.87 40.766 0.041 6.41 4.16 12.45
12/12/2021 10:45:00 PM 4.85 40.73 0.039 6.39 5.19 12.46
12/12/2021 11:00:00 PM 4.83 40.694 0.041 6.43 3.67 12.46
12/12/2021 11:15:00 PM 4.81 40.658 0.041 6.44 4.44 12.46
12/12/2021 11:30:00 PM 4.79 40.622 0.041 6.42 4.71 12.46
12/12/2021 11:45:00 PM 4.78 40.604 0.039 6.39 5.65 12.47
12/13/2021 12:00:00 AM 4.77 40.586 0.041 6.35 3.83 12.48
12/13/2021 12:15:00 AM 4.75 40.55 0.041 6.44 4.03 12.49
12/13/2021 12:30:00 AM 4.74 40.532 0.041 6.43 3.8 12.49
12/13/2021 12:45:00 AM 4.73 40.514 0.041 6.33 3.93 12.49
12/13/2021 1:00:00 AM 4.72 40.496 0.04 6.36 5.24 12.5
12/13/2021 1:15:00 AM 4.71 40.478 0.041 6.34 3.81 12.51
12/13/2021 1:30:00 AM 4.69 40.442 0.041 6.41 3.6 12.52
12/13/2021 1:45:00 AM 4.68 40.424 0.041 6.42 3.61 12.51
12/13/2021 2:00:00 AM 4.67 40.406 0.041 6.41 3.56 12.52
12/13/2021 2:15:00 AM 4.66 40.388 0.041 6.37 3.64 12.53
12/13/2021 2:30:00 AM 4.65 40.37 0.041 6.41 3.59 12.54
12/13/2021 2:45:00 AM 4.65 40.37 0.041 6.39 3.62 12.54
12/13/2021 3:00:00 AM 4.65 40.37 0.041 6.41 3.54 12.54
12/13/2021 3:15:00 AM 4.65 40.37 0.041 6.42 4.05 12.54
12/13/2021 3:30:00 AM 4.66 40.388 0.041 6.43 4.01 12.54
12/13/2021 3:45:00 AM 4.67 40.406 0.041 6.36 3.82 12.54
12/13/2021 4:00:00 AM 4.67 40.406 0.04 6.41 3.79 12.54
12/13/2021 4:15:00 AM 4.68 40.424 0.04 6.36 3.87 12.53
12/13/2021 4:30:00 AM 4.69 40.442 0.04 6.38 3.74 12.53
12/13/2021 4:45:00 AM 4.7 40.46 0.04 6.37 3.95 12.53
12/13/2021 5:00:00 AM 4.71 40.478 0.04 6.42 3.88 12.53
12/13/2021 5:15:00 AM 4.71 40.478 0.04 6.34 3.56 12.53
12/13/2021 5:30:00 AM 4.7 40.46 0.04 6.43 3.89 12.52
12/13/2021 5:45:00 AM 4.7 40.46 0.04 6.43 4.42 12.53
12/13/2021 6:00:00 AM 4.7 40.46 0.04 6.41 3.8 12.53
12/13/2021 6:15:00 AM 4.7 40.46 0.038 6.35 5.16 12.53
12/13/2021 6:30:00 AM 4.69 40.442 0.04 6.34 4.39 12.53
12/13/2021 6:45:00 AM 4.68 40.424 0.04 6.43 3.56 12.53
12/13/2021 7:00:00 AM 4.67 40.406 0.04 6.44 3.76 12.54
12/13/2021 7:15:00 AM 4.66 40.388 0.04 6.42 3.38 12.54
12/13/2021 7:30:00 AM 4.65 40.37 0.04 6.41 3.31 12.55
12/13/2021 7:45:00 AM 4.65 40.37 0.04 6.41 3.66 12.55
12/13/2021 8:00:00 AM 4.64 40.352 0.04 6.39 3.67 12.57
12/13/2021 8:15:00 AM 4.63 40.334 0.04 6.42 3.25 12.58
12/13/2021 8:30:00 AM 4.64 40.352 0.04 6.42 3.91 12.6
12/13/2021 8:45:00 AM 4.64 40.352 0.04 6.41 3.31 12.62
12/13/2021 9:00:00 AM 4.64 40.352 0.04 6.38 3.48 12.63
12/13/2021 9:15:00 AM 4.65 40.37 0.04 6.45 5.38 12.64
12/13/2021 9:30:00 AM 4.65 40.37 0.04 6.44 3.25 12.65
12/13/2021 9:45:00 AM 4.67 40.406 0.04 6.44 3.3 12.65
12/13/2021 10:00:00 AM 4.7 40.46 0.04 6.45 3.41 12.66
12/13/2021 10:15:00 AM 4.73 40.514 0.04 6.46 3.32 12.66
12/13/2021 10:30:00 AM 4.79 40.622 0.04 6.47 3.26 12.64
12/13/2021 10:45:00 AM 4.86 40.748 0.04 6.47 3.24 12.65
12/13/2021 11:00:00 AM 4.93 40.874 0.04 6.48 3.09 12.64
12/13/2021 11:15:00 AM 5.01 41.018 0.04 6.49 3.11 12.62
12/13/2021 11:30:00 AM 5.08 41.144 0.04 6.5 3.19 12.6
12/13/2021 11:45:00 AM 5.15 41.27 0.04 6.51 3.16 12.59
12/13/2021 12:00:00 PM 5.23 41.414 0.04 6.49 3.59 12.57
12/13/2021 12:15:00 PM 5.3 41.54 0.04 6.51 3.1 12.54
12/13/2021 12:30:00 PM 5.37 41.666 0.04 6.52 3.3 12.53
12/13/2021 12:45:00 PM 5.44 41.792 0.04 6.5 3.05 12.51
12/13/2021 1:00:00 PM 5.51 41.918 0.04 6.52 3.01 12.49
12/13/2021 1:15:00 PM 5.57 42.026 0.039 6.46 5.08 12.47
12/13/2021 1:30:00 PM 5.63 42.134 0.04 6.53 3.15 12.44
12/13/2021 1:45:00 PM 5.68 42.224 0.04 6.5 3.21 12.43
12/13/2021 2:00:00 PM 5.72 42.296 0.04 6.51 3.1 12.41
12/13/2021 2:15:00 PM 5.75 42.35 0.04 6.47 3.04 12.39
12/13/2021 2:30:00 PM 5.78 42.404 0.039 6.52 3.09 12.38
12/13/2021 2:45:00 PM 5.8 42.44 0.039 6.51 3.17 12.36
12/13/2021 3:00:00 PM 5.81 42.458 0.039 6.49 3.09 12.35
12/13/2021 3:15:00 PM 5.81 42.458 0.039 6.51 3.03 12.33
12/13/2021 3:30:00 PM 5.81 42.458 0.039 6.49 2.98 12.31
12/13/2021 3:45:00 PM 5.81 42.458 0.039 6.43 3.05 12.3
12/13/2021 4:00:00 PM 5.81 42.458 0.04 6.48 3.09 12.29
12/13/2021 4:15:00 PM 5.8 42.44 0.04 6.45 3.06 12.27
12/13/2021 4:30:00 PM 5.78 42.404 0.04 6.46 3.32 12.24
12/13/2021 4:45:00 PM 5.75 42.35 0.04 6.46 3.94 12.24
12/13/2021 5:00:00 PM 5.72 42.296 0.04 6.4 3.27 12.22
12/13/2021 5:15:00 PM 5.7 42.26 0.04 6.44 3.27 12.21
12/13/2021 5:30:00 PM 5.68 42.224 0.04 6.44 3.24 12.21
12/13/2021 5:45:00 PM 5.65 42.17 0.04 6.42 3.33 12.2
12/13/2021 6:00:00 PM 5.62 42.116 0.04 6.42 3.31 12.22
12/13/2021 6:15:00 PM 5.6 42.08 0.04 6.41 3.21 12.22
12/13/2021 6:30:00 PM 5.57 42.026 0.04 6.42 3.4 12.23
12/13/2021 6:45:00 PM 5.54 41.972 0.04 6.42 3.33 12.24
12/13/2021 7:00:00 PM 5.51 41.918 0.04 6.41 4.72 12.24
12/13/2021 7:15:00 PM 5.49 41.882 0.04 6.41 3.24 12.26
12/13/2021 7:30:00 PM 5.46 41.828 0.04 6.34 3.53 12.27
12/13/2021 7:45:00 PM 5.43 41.774 0.04 6.4 3.89 12.27
12/13/2021 8:00:00 PM 5.4 41.72 0.04 6.41 3.77 12.29
12/13/2021 8:15:00 PM 5.36 41.648 0.04 6.41 3.27 12.3
12/13/2021 8:30:00 PM 5.33 41.594 0.04 6.41 3.29 12.31
12/13/2021 8:45:00 PM 5.3 41.54 0.04 6.39 3.4 12.33
12/13/2021 9:00:00 PM 5.26 41.468 0.04 6.4 3.23 12.34
12/13/2021 9:15:00 PM 5.23 41.414 0.04 6.41 3.22 12.35
12/13/2021 9:30:00 PM 5.2 41.36 0.04 6.4 3.2 12.37
12/13/2021 9:45:00 PM 5.17 41.306 0.04 6.41 3.4 12.39
12/13/2021 10:00:00 PM 5.14 41.252 0.04 6.41 3.31 12.38
12/13/2021 10:15:00 PM 5.11 41.198 0.04 6.41 3.24 12.4
12/13/2021 10:30:00 PM 5.08 41.144 0.04 6.41 3.15 12.41
12/13/2021 10:45:00 PM 5.05 41.09 0.04 6.41 3.14 12.43
12/13/2021 11:00:00 PM 5.02 41.036 0.04 6.4 3.26 12.44
12/13/2021 11:15:00 PM 4.99 40.982 0.04 6.41 3.14 12.45
12/13/2021 11:30:00 PM 4.96 40.928 0.04 6.4 3.33 12.46
12/13/2021 11:45:00 PM 4.94 40.892 0.04 6.41 2.95 12.48
12/14/2021 12:00:00 AM 4.91 40.838 0.04 6.4 3.18 12.49
12/14/2021 12:15:00 AM 4.88 40.784 0.04 6.41 3.09 12.49
12/14/2021 12:30:00 AM 4.86 40.748 0.04 6.41 2.94 12.5
12/14/2021 12:45:00 AM 4.83 40.694 0.039 6.36 5.04 12.52
12/14/2021 1:00:00 AM 4.81 40.658 0.04 6.41 3.24 12.52
12/14/2021 1:15:00 AM 4.78 40.604 0.04 6.39 3.25 12.53
12/14/2021 1:30:00 AM 4.76 40.568 0.04 6.42 3.06 12.54
12/14/2021 1:45:00 AM 4.74 40.532 0.04 6.39 2.99 12.55
12/14/2021 2:00:00 AM 4.71 40.478 0.04 6.31 3.15 12.56
12/14/2021 2:15:00 AM 4.69 40.442 0.04 6.42 3.66 12.57
12/14/2021 2:30:00 AM 4.67 40.406 0.04 6.41 3.02 12.58
12/14/2021 2:45:00 AM 4.65 40.37 0.04 6.4 2.98 12.59
12/14/2021 3:00:00 AM 4.62 40.316 0.04 6.41 2.97 12.6
12/14/2021 3:15:00 AM 4.6 40.28 0.04 6.38 2.98 12.62
12/14/2021 3:30:00 AM 4.58 40.244 0.04 6.41 3.14 12.61
12/14/2021 3:45:00 AM 4.56 40.208 0.04 6.38 3.13 12.63
12/14/2021 4:00:00 AM 4.54 40.172 0.04 6.41 3.08 12.64
12/14/2021 4:15:00 AM 4.51 40.118 0.04 6.41 3.09 12.64
12/14/2021 4:30:00 AM 4.49 40.082 0.04 6.4 3.05 12.65
12/14/2021 4:45:00 AM 4.47 40.046 0.04 6.41 3.08 12.65
12/14/2021 5:00:00 AM 4.45 40.01 0.04 6.4 2.92 12.67
12/14/2021 5:15:00 AM 4.43 39.974 0.04 6.36 3.01 12.67
12/14/2021 5:30:00 AM 4.41 39.938 0.04 6.43 2.96 12.68
12/14/2021 5:45:00 AM 4.39 39.902 0.04 6.37 2.87 12.69
12/14/2021 6:00:00 AM 4.37 39.866 0.039 6.32 4.3 12.7
12/14/2021 6:15:00 AM 4.35 39.83 0.04 6.44 3.27 12.71
12/14/2021 6:30:00 AM 4.33 39.794 0.04 6.42 2.91 12.72
12/14/2021 6:45:00 AM 4.31 39.758 0.04 6.44 3.9 12.73
12/14/2021 7:00:00 AM 4.29 39.722 0.04 6.42 2.84 12.74
12/14/2021 7:15:00 AM 4.27 39.686 0.038 6.41 4.57 12.74
12/14/2021 7:30:00 AM 4.26 39.668 0.04 6.42 2.91 12.76
12/14/2021 7:45:00 AM 4.24 39.632 0.04 6.41 3.04 12.78
12/14/2021 8:00:00 AM 4.23 39.614 0.038 6.42 4.33 12.8
12/14/2021 8:15:00 AM 4.21 39.578 0.04 6.42 2.97 12.82
12/14/2021 8:30:00 AM 4.21 39.578 0.04 6.44 2.95 12.84
12/14/2021 8:45:00 AM 4.2 39.56 0.04 6.44 2.85 12.86
12/14/2021 9:00:00 AM 4.2 39.56 0.04 6.45 2.73 12.88
12/14/2021 9:15:00 AM 4.2 39.56 0.04 6.45 2.89 12.9
12/14/2021 9:30:00 AM 4.2 39.56 0.04 6.44 2.8 12.91
12/14/2021 9:45:00 AM 4.22 39.596 0.039 6.43 4.13 12.92
12/14/2021 10:00:00 AM 4.24 39.632 0.04 6.48 2.8 12.94
12/14/2021 10:15:00 AM 4.27 39.686 0.04 6.47 2.81 12.94
12/14/2021 10:30:00 AM 4.32 39.776 0.04 6.47 2.65 12.93
12/14/2021 10:45:00 AM 4.38 39.884 0.037 6.42 4.18 12.93
12/14/2021 11:00:00 AM 4.46 40.028 0.039 6.49 2.7 12.92
12/14/2021 11:15:00 AM 4.55 40.19 0.039 6.51 2.66 12.9
12/14/2021 11:30:00 AM 4.65 40.37 0.039 6.45 2.85 12.88
12/14/2021 11:45:00 AM 4.74 40.532 0.039 6.52 2.74 12.85
12/14/2021 12:00:00 PM 4.82 40.676 0.039 6.51 2.7 12.83
12/14/2021 12:15:00 PM 4.92 40.856 0.038 6.44 4.05 12.81
12/14/2021 12:30:00 PM 5.02 41.036 0.039 6.54 2.84 12.78
12/14/2021 12:45:00 PM 5.12 41.216 0.039 6.53 2.68 12.75
12/14/2021 1:00:00 PM 5.21 41.378 0.039 6.53 2.6 12.73
12/14/2021 1:15:00 PM 5.3 41.54 0.039 6.53 2.58 12.69
12/14/2021 1:30:00 PM 5.37 41.666 0.039 6.53 2.59 12.67
12/14/2021 1:45:00 PM 5.43 41.774 0.039 6.52 2.57 12.65
12/14/2021 2:00:00 PM 5.47 41.846 0.039 6.53 2.56 12.62
12/14/2021 2:15:00 PM 5.52 41.936 0.038 6.48 4.35 12.6
12/14/2021 2:30:00 PM 5.56 42.008 0.039 6.53 2.81 12.59
12/14/2021 2:45:00 PM 5.59 42.062 0.039 6.51 2.68 12.57
12/14/2021 3:00:00 PM 5.61 42.098 0.039 6.52 2.93 12.54
12/14/2021 3:15:00 PM 5.62 42.116 0.039 6.51 2.65 12.54
12/14/2021 3:30:00 PM 5.62 42.116 0.039 6.51 2.7 12.51
12/14/2021 3:45:00 PM 5.62 42.116 0.039 6.48 2.72 12.5
12/14/2021 4:00:00 PM 5.6 42.08 0.039 6.49 2.61 12.47
12/14/2021 4:15:00 PM 5.58 42.044 0.039 6.47 2.85 12.46
12/14/2021 4:30:00 PM 5.56 42.008 0.039 6.47 2.91 12.43
12/14/2021 4:45:00 PM 5.53 41.954 0.039 6.46 2.76 12.43
12/14/2021 5:00:00 PM 5.51 41.918 0.039 6.43 2.72 12.41
12/14/2021 5:15:00 PM 5.49 41.882 0.04 6.44 2.77 12.4
12/14/2021 5:30:00 PM 5.47 41.846 0.039 6.4 4 12.39
12/14/2021 5:45:00 PM 5.45 41.81 0.037 6.39 4.28 12.39
12/14/2021 6:00:00 PM 5.43 41.774 0.037 6.38 4.24 12.4
12/14/2021 6:15:00 PM 5.4 41.72 0.04 6.41 2.96 12.4
12/14/2021 6:30:00 PM 5.38 41.684 0.04 6.42 2.94 12.41
12/14/2021 6:45:00 PM 5.36 41.648 0.04 6.42 2.92 12.42
12/14/2021 7:00:00 PM 5.34 41.612 0.04 6.41 2.86 12.42
12/14/2021 7:15:00 PM 5.32 41.576 0.04 6.39 2.96 12.42
12/14/2021 7:30:00 PM 5.3 41.54 0.04 6.4 2.98 12.44
12/14/2021 7:45:00 PM 5.28 41.504 0.04 6.42 3.94 12.44
12/14/2021 8:00:00 PM 5.25 41.45 0.04 6.42 2.95 12.46
12/14/2021 8:15:00 PM 5.23 41.414 0.04 6.33 2.83 12.46
12/14/2021 8:30:00 PM 5.21 41.378 0.04 6.39 2.81 12.47
12/14/2021 8:45:00 PM 5.18 41.324 0.04 6.44 2.93 12.48
12/14/2021 9:00:00 PM 5.15 41.27 0.04 6.42 2.84 12.49
12/14/2021 9:15:00 PM 5.12 41.216 0.04 6.41 2.88 12.5
12/14/2021 9:30:00 PM 5.09 41.162 0.04 6.4 2.97 12.5
12/14/2021 9:45:00 PM 5.06 41.108 0.04 6.33 2.94 12.52
12/14/2021 10:00:00 PM 5.03 41.054 0.04 6.41 3.21 12.53
12/14/2021 10:15:00 PM 5 41 0.04 6.32 3 12.54
12/14/2021 10:30:00 PM 4.97 40.946 0.04 6.43 2.89 12.55
12/14/2021 10:45:00 PM 4.95 40.91 0.04 6.43 2.91 12.55
12/14/2021 11:00:00 PM 4.93 40.874 0.04 6.42 2.73 12.57
12/14/2021 11:15:00 PM 4.91 40.838 0.04 6.43 2.88 12.57
12/14/2021 11:30:00 PM 4.9 40.82 0.04 6.43 2.95 12.58
12/14/2021 11:45:00 PM 4.88 40.784 0.039 6.39 4.07 12.59
12/15/2021 12:00:00 AM 4.85 40.73 0.04 6.42 2.92 12.59
12/15/2021 12:15:00 AM 4.83 40.694 0.04 6.42 2.77 12.6
12/15/2021 12:30:00 AM 4.81 40.658 0.039 6.34 4.25 12.61
12/15/2021 12:45:00 AM 4.78 40.604 0.038 6.35 4.04 12.61
12/15/2021 1:00:00 AM 4.75 40.55 0.04 6.41 2.72 12.62
12/15/2021 1:15:00 AM 4.73 40.514 0.04 6.42 2.78 12.63
12/15/2021 1:30:00 AM 4.7 40.46 0.04 6.42 2.93 12.63
12/15/2021 1:45:00 AM 4.68 40.424 0.04 6.36 2.82 12.64
12/15/2021 2:00:00 AM 4.65 40.37 0.039 6.35 4.32 12.65
12/15/2021 2:15:00 AM 4.62 40.316 0.04 6.39 2.8 12.66
12/15/2021 2:30:00 AM 4.6 40.28 0.04 6.44 2.75 12.66
12/15/2021 2:45:00 AM 4.57 40.226 0.04 6.41 2.93 12.68
12/15/2021 3:00:00 AM 4.55 40.19 0.04 6.43 2.67 12.68
12/15/2021 3:15:00 AM 4.53 40.154 0.04 6.43 2.83 12.69
12/15/2021 3:30:00 AM 4.51 40.118 0.04 6.42 2.75 12.69
12/15/2021 3:45:00 AM 4.49 40.082 0.04 6.4 2.7 12.7
12/15/2021 4:00:00 AM 4.47 40.046 0.04 6.42 2.72 12.71
12/15/2021 4:15:00 AM 4.45 40.01 0.04 6.42 2.85 12.71
12/15/2021 4:30:00 AM 4.43 39.974 0.04 6.36 2.54 12.72
12/15/2021 4:45:00 AM 4.42 39.956 0.04 6.32 2.71 12.73
12/15/2021 5:00:00 AM 4.41 39.938 0.04 6.44 2.84 12.73
12/15/2021 5:15:00 AM 4.4 39.92 0.04 6.39 2.74 12.73
12/15/2021 5:30:00 AM 4.39 39.902 0.04 6.43 2.62 12.73
12/15/2021 5:45:00 AM 4.38 39.884 0.04 6.42 2.53 12.73
12/15/2021 6:00:00 AM 4.37 39.866 0.04 6.33 2.63 12.74
12/15/2021 6:15:00 AM 4.36 39.848 0.04 6.44 2.59 12.75
12/15/2021 6:30:00 AM 4.35 39.83 0.04 6.39 2.8 12.74
12/15/2021 6:45:00 AM 4.35 39.83 0.04 6.42 2.7 12.74
12/15/2021 7:00:00 AM 4.34 39.812 0.04 6.42 2.6 12.74
12/15/2021 7:15:00 AM 4.33 39.794 0.04 6.39 2.7 12.74
12/15/2021 7:30:00 AM 4.34 39.812 0.04 6.44 2.59 12.75
12/15/2021 7:45:00 AM 4.35 39.83 0.04 6.44 2.46 12.76
12/15/2021 8:00:00 AM 4.36 39.848 0.04 6.43 2.6 12.77
12/15/2021 8:15:00 AM 4.38 39.884 0.04 6.45 2.53 12.78
12/15/2021 8:30:00 AM 4.4 39.92 0.04 6.43 2.75 12.79
12/15/2021 8:45:00 AM 4.44 39.992 0.04 6.45 2.83 12.82
12/15/2021 9:00:00 AM 4.48 40.064 0.04 6.48 2.63 12.83
12/15/2021 9:15:00 AM 4.54 40.172 0.04 6.49 2.6 12.85
12/15/2021 9:30:00 AM 4.6 40.28 0.04 6.46 2.65 12.84
12/15/2021 9:45:00 AM 4.66 40.388 0.04 6.52 2.55 12.84
12/15/2021 10:00:00 AM 4.73 40.514 0.04 6.53 2.46 12.83
12/15/2021 10:15:00 AM 4.8 40.64 0.038 6.48 4.12 12.81
12/15/2021 10:30:00 AM 4.86 40.748 0.04 6.52 2.57 12.8
12/15/2021 10:45:00 AM 4.93 40.874 0.039 6.37 3.93 12.79
12/15/2021 11:00:00 AM 4.99 40.982 0.039 6.53 2.47 12.79
12/15/2021 11:15:00 AM 5.06 41.108 0.039 6.53 2.46 12.75
12/15/2021 11:30:00 AM 5.12 41.216 0.039 6.53 2.54 12.75
12/15/2021 11:45:00 AM 5.18 41.324 0.039 6.53 2.38 12.71
12/15/2021 12:00:00 PM 5.22 41.396 0.039 6.54 2.54 12.67
12/15/2021 12:15:00 PM 5.26 41.468 0.039 6.53 2.3 12.65
12/15/2021 12:30:00 PM 5.3 41.54 0.039 6.5 2.33 12.63
12/15/2021 12:45:00 PM 5.34 41.612 0.039 6.54 2.51 12.61
12/15/2021 1:00:00 PM 5.39 41.702 0.039 6.43 2.43 12.6
12/15/2021 1:15:00 PM 5.44 41.792 0.039 6.49 2.42 12.57
12/15/2021 1:30:00 PM 5.49 41.882 0.039 6.54 2.36 12.56
12/15/2021 1:45:00 PM 5.53 41.954 0.039 6.53 2.43 12.54
12/15/2021 2:00:00 PM 5.57 42.026 0.039 6.53 2.45 12.5
12/15/2021 2:15:00 PM 5.61 42.098 0.039 6.52 2.71 12.48
12/15/2021 2:30:00 PM 5.65 42.17 0.039 6.43 2.44 12.46
12/15/2021 2:45:00 PM 5.68 42.224 0.039 6.46 2.39 12.43
12/15/2021 3:00:00 PM 5.72 42.296 0.039 6.51 2.46 12.41
12/15/2021 3:15:00 PM 5.76 42.368 0.039 6.5 2.52 12.39
12/15/2021 3:30:00 PM 5.79 42.422 0.039 6.43 3.25 12.37
12/15/2021 3:45:00 PM 5.82 42.476 0.039 6.45 2.42 12.34
12/15/2021 4:00:00 PM 5.85 42.53 0.039 6.5 2.46 12.31
12/15/2021 4:15:00 PM 5.87 42.566 0.04 6.49 2.5 12.28
12/15/2021 4:30:00 PM 5.89 42.602 0.04 6.47 2.56 12.25
12/15/2021 4:45:00 PM 5.91 42.638 0.04 6.46 3.22 12.22
12/15/2021 5:00:00 PM 5.92 42.656 0.04 6.4 2.7 12.2
12/15/2021 5:15:00 PM 5.94 42.692 0.04 6.36 2.5 12.18
12/15/2021 5:30:00 PM 5.96 42.728 0.04 6.39 2.64 12.16
12/15/2021 5:45:00 PM 5.97 42.746 0.04 6.37 2.63 12.15
12/15/2021 6:00:00 PM 5.99 42.782 0.04 6.44 2.75 12.14
12/15/2021 6:15:00 PM 6 42.8 0.04 6.44 2.65 12.13
12/15/2021 6:30:00 PM 6.02 42.836 0.04 6.45 2.79 12.12
12/15/2021 6:45:00 PM 6.04 42.872 0.04 6.34 2.82 12.11
12/15/2021 7:00:00 PM 6.06 42.908 0.04 6.43 2.88 12.1
12/15/2021 7:15:00 PM 6.07 42.926 0.04 6.44 3.03 12.08
12/15/2021 7:30:00 PM 6.08 42.944 0.04 6.43 2.59 12.08
12/15/2021 7:45:00 PM 6.09 42.962 0.04 6.43 2.62 12.09
12/15/2021 8:00:00 PM 6.1 42.98 0.04 6.36 2.69 12.07
12/15/2021 8:15:00 PM 6.12 43.016 0.04 6.43 2.71 12.07
12/15/2021 8:30:00 PM 6.13 43.034 0.04 6.32 2.68 12.06
12/15/2021 8:45:00 PM 6.14 43.052 0.04 6.36 2.62 12.05
12/15/2021 9:00:00 PM 6.16 43.088 0.04 6.36 2.73 12.04
12/15/2021 9:15:00 PM 6.17 43.106 0.04 6.44 2.65 12.04
12/15/2021 9:30:00 PM 6.19 43.142 0.04 6.43 2.61 12.04
12/15/2021 9:45:00 PM 6.2 43.16 0.04 6.43 2.68 12.02
12/15/2021 10:00:00 PM 6.22 43.196 0.039 6.41 3.9 12.01
12/15/2021 10:15:00 PM 6.23 43.214 0.04 6.41 2.78 12.02
12/15/2021 10:30:00 PM 6.25 43.25 0.04 6.37 2.79 12.01
12/15/2021 10:45:00 PM 6.26 43.268 0.04 6.37 2.9 12
12/15/2021 11:00:00 PM 6.27 43.286 0.04 6.4 2.72 11.99
12/15/2021 11:15:00 PM 6.28 43.304 0.04 6.43 2.66 11.98
12/15/2021 11:30:00 PM 6.29 43.322 0.04 6.42 2.61 11.98
12/15/2021 11:45:00 PM 6.3 43.34 0.04 6.32 2.67 11.97
12/16/2021 12:00:00 AM 6.31 43.358 0.04 6.43 2.69 11.96
12/16/2021 12:15:00 AM 6.32 43.376 0.04 6.38 2.59 11.96
12/16/2021 12:30:00 AM 6.33 43.394 0.04 6.39 2.58 11.95
12/16/2021 12:45:00 AM 6.34 43.412 0.04 6.42 2.64 11.95
12/16/2021 1:00:00 AM 6.34 43.412 0.04 6.41 2.63 11.94
12/16/2021 1:15:00 AM 6.35 43.43 0.04 6.4 2.55 11.96
12/16/2021 1:30:00 AM 6.35 43.43 0.04 6.33 2.61 11.95
12/16/2021 1:45:00 AM 6.36 43.448 0.04 6.43 2.55 11.94
12/16/2021 2:00:00 AM 6.37 43.466 0.04 6.41 2.6 11.92
12/16/2021 2:15:00 AM 6.38 43.484 0.04 6.42 2.71 11.93
12/16/2021 2:30:00 AM 6.39 43.502 0.04 6.31 2.68 11.93
12/16/2021 2:45:00 AM 6.4 43.52 0.04 6.4 2.81 11.92
12/16/2021 3:00:00 AM 6.41 43.538 0.04 6.39 3.21 11.92
12/16/2021 3:15:00 AM 6.42 43.556 0.04 6.35 2.8 11.92
12/16/2021 3:30:00 AM 6.42 43.556 0.04 6.42 2.47 11.91
12/16/2021 3:45:00 AM 6.43 43.574 0.04 6.39 2.64 11.9
12/16/2021 4:00:00 AM 6.42 43.556 0.04 6.41 2.67 11.9
12/16/2021 4:15:00 AM 6.42 43.556 0.04 6.43 2.61 11.9
12/16/2021 4:30:00 AM 6.41 43.538 0.04 6.38 2.69 11.89
12/16/2021 4:45:00 AM 6.4 43.52 0.04 6.41 2.63 11.9
12/16/2021 5:00:00 AM 6.39 43.502 0.04 6.41 2.59 11.9
12/16/2021 5:15:00 AM 6.38 43.484 0.04 6.41 2.62 11.91
12/16/2021 5:30:00 AM 6.36 43.448 0.04 6.4 2.69 11.9
12/16/2021 5:45:00 AM 6.34 43.412 0.04 6.4 2.88 11.9
12/16/2021 6:00:00 AM 6.31 43.358 0.04 6.41 2.66 11.91
12/16/2021 6:15:00 AM 6.28 43.304 0.04 6.37 2.68 11.92
12/16/2021 6:30:00 AM 6.25 43.25 0.04 6.41 2.67 11.93
12/16/2021 6:45:00 AM 6.22 43.196 0.04 6.41 2.67 11.94
12/16/2021 7:00:00 AM 6.19 43.142 0.04 6.4 2.53 11.95
12/16/2021 7:15:00 AM 6.16 43.088 0.04 6.41 2.76 11.95
12/16/2021 7:30:00 AM 6.13 43.034 0.038 6.29 4.2 11.97
12/16/2021 7:45:00 AM 6.1 42.98 0.038 6.28 3.97 11.97
12/16/2021 8:00:00 AM 6.07 42.926 0.04 6.42 2.59 12
12/16/2021 8:15:00 AM 6.05 42.89 0.04 6.42 2.66 12.03
12/16/2021 8:30:00 AM 6.03 42.854 0.04 6.35 2.58 12.07
12/16/2021 8:45:00 AM 6.02 42.836 0.04 6.45 2.58 12.09
12/16/2021 9:00:00 AM 6.01 42.818 0.04 6.36 2.68 12.12
12/16/2021 9:15:00 AM 6.01 42.818 0.04 6.42 2.73 12.14
12/16/2021 9:30:00 AM 6.01 42.818 0.04 6.49 2.62 12.15
12/16/2021 9:45:00 AM 6.01 42.818 0.04 6.48 2.68 12.17
12/16/2021 10:00:00 AM 6.01 42.818 0.04 6.47 2.63 12.18
12/16/2021 10:15:00 AM 6.03 42.854 0.04 6.5 2.53 12.19
12/16/2021 10:30:00 AM 6.06 42.908 0.04 6.5 2.53 12.19
12/16/2021 10:45:00 AM 6.16 43.088 0.04 6.45 2.46 12.18
12/16/2021 11:00:00 AM 6.29 43.322 0.04 6.49 2.43 12.2
12/16/2021 11:15:00 AM 6.42 43.556 0.04 6.56 2.48 12.17
12/16/2021 11:30:00 AM 6.5 43.7 0.04 6.57 2.41 12.15
12/16/2021 11:45:00 AM 6.58 43.844 0.04 6.57 2.47 12.13
12/16/2021 12:00:00 PM 6.67 44.006 0.04 6.55 2.42 12.1
12/16/2021 12:15:00 PM 6.77 44.186 0.04 6.51 2.62 12.08
12/16/2021 12:30:00 PM 6.88 44.384 0.04 6.52 2.5 12.05
12/16/2021 12:45:00 PM 6.97 44.546 0.04 6.59 2.44 12.02
12/16/2021 1:00:00 PM 7.05 44.69 0.04 6.6 2.43 11.99
12/16/2021 1:15:00 PM 7.12 44.816 0.04 6.56 2.51 11.96
12/16/2021 1:30:00 PM 7.19 44.942 0.04 6.56 2.41 11.92
12/16/2021 1:45:00 PM 7.26 45.068 0.04 6.58 2.47 11.89
12/16/2021 2:00:00 PM 7.32 45.176 0.04 6.57 2.42 11.84
12/16/2021 2:15:00 PM 7.38 45.284 0.04 6.56 2.31 11.79
12/16/2021 2:30:00 PM 7.43 45.374 0.04 6.53 2.4 11.77
12/16/2021 2:45:00 PM 7.47 45.446 0.04 6.54 2.42 11.72
12/16/2021 3:00:00 PM 7.51 45.518 0.04 6.55 2.6 11.69
12/16/2021 3:15:00 PM 7.56 45.608 0.04 6.52 2.46 11.66
12/16/2021 3:30:00 PM 7.61 45.698 0.04 6.5 2.4 11.64
12/16/2021 3:45:00 PM 7.65 45.77 0.04 6.5 2.48 11.61
12/16/2021 4:00:00 PM 7.7 45.86 0.04 6.47 2.64 11.57
12/16/2021 4:15:00 PM 7.75 45.95 0.04 6.49 2.36 11.53
12/16/2021 4:30:00 PM 7.78 46.004 0.04 6.48 2.52 11.5
12/16/2021 4:45:00 PM 7.82 46.076 0.04 6.46 2.31 11.47
12/16/2021 5:00:00 PM 7.87 46.166 0.04 6.48 2.52 11.44
12/16/2021 5:15:00 PM 7.91 46.238 0.04 6.48 2.63 11.42
12/16/2021 5:30:00 PM 7.95 46.31 0.04 6.45 2.59 11.39
12/16/2021 5:45:00 PM 8.01 46.418 0.04 6.45 2.6 11.37
12/16/2021 6:00:00 PM 8.07 46.526 0.04 6.44 2.59 11.36
12/16/2021 6:15:00 PM 8.12 46.616 0.04 6.36 2.58 11.33
12/16/2021 6:30:00 PM 8.17 46.706 0.04 6.44 2.71 11.31
12/16/2021 6:45:00 PM 8.21 46.778 0.04 6.45 2.66 11.3
12/16/2021 7:00:00 PM 8.25 46.85 0.04 6.45 2.79 11.29
12/16/2021 7:15:00 PM 8.3 46.94 0.04 6.46 2.82 11.27
12/16/2021 7:30:00 PM 8.34 47.012 0.04 6.45 2.72 11.26
12/16/2021 7:45:00 PM 8.37 47.066 0.04 6.45 2.65 11.25
12/16/2021 8:00:00 PM 8.42 47.156 0.04 6.45 2.64 11.24
12/16/2021 8:15:00 PM 8.47 47.246 0.04 6.44 2.61 11.23
12/16/2021 8:30:00 PM 8.52 47.336 0.04 6.44 2.93 11.2
12/16/2021 8:45:00 PM 8.56 47.408 0.04 6.45 2.55 11.19
12/16/2021 9:00:00 PM 8.6 47.48 0.04 6.46 2.51 11.19
12/16/2021 9:15:00 PM 8.63 47.534 0.04 6.44 2.71 11.18
12/16/2021 9:30:00 PM 8.66 47.588 0.04 6.31 2.68 11.15
12/16/2021 9:45:00 PM 8.68 47.624 0.04 6.48 2.6 11.14
12/16/2021 10:00:00 PM 8.71 47.678 0.04 6.44 2.67 11.14
12/16/2021 10:15:00 PM 8.73 47.714 0.04 6.41 2.64 11.14
12/16/2021 10:30:00 PM 8.73 47.714 0.04 6.43 2.7 11.13
12/16/2021 10:45:00 PM 8.72 47.696 0.04 6.44 2.64 11.13
12/16/2021 11:00:00 PM 8.7 47.66 0.04 6.44 2.64 11.13
12/16/2021 11:15:00 PM 8.66 47.588 0.04 6.43 2.59 11.15
12/16/2021 11:30:00 PM 8.61 47.498 0.04 6.37 2.73 11.15
12/16/2021 11:45:00 PM 8.56 47.408 0.04 6.42 2.79 11.16
12/17/2021 12:00:00 AM 8.5 47.3 0.04 6.3 2.65 11.18
12/17/2021 12:15:00 AM 8.45 47.21 0.04 6.41 2.54 11.19
12/17/2021 12:30:00 AM 8.4 47.12 0.04 6.33 2.61 11.21
12/17/2021 12:45:00 AM 8.34 47.012 0.04 6.38 2.9 11.23
12/17/2021 1:00:00 AM 8.27 46.886 0.04 6.4 2.58 11.26
12/17/2021 1:15:00 AM 8.2 46.76 0.04 6.41 2.72 11.28
12/17/2021 1:30:00 AM 8.13 46.634 0.04 6.39 2.63 11.3
12/17/2021 1:45:00 AM 8.05 46.49 0.041 6.42 2.78 11.32
12/17/2021 2:00:00 AM 7.97 46.346 0.041 6.4 2.67 11.35
12/17/2021 2:15:00 AM 7.89 46.202 0.041 6.41 2.77 11.37
12/17/2021 2:30:00 AM 7.81 46.058 0.041 6.4 2.65 11.4
12/17/2021 2:45:00 AM 7.74 45.932 0.041 6.39 2.62 11.42
12/17/2021 3:00:00 AM 7.67 45.806 0.041 6.39 2.7 11.44
12/17/2021 3:15:00 AM 7.59 45.662 0.041 6.29 2.72 11.47
12/17/2021 3:30:00 AM 7.52 45.536 0.041 6.39 2.76 11.5
12/17/2021 3:45:00 AM 7.43 45.374 0.041 6.4 2.69 11.53
12/17/2021 4:00:00 AM 7.35 45.23 0.041 6.32 2.84 11.55
12/17/2021 4:15:00 AM 7.27 45.086 0.041 6.43 2.65 11.58
12/17/2021 4:30:00 AM 7.19 44.942 0.041 6.42 2.73 11.6
12/17/2021 4:45:00 AM 7.11 44.798 0.041 6.42 2.74 11.63
12/17/2021 5:00:00 AM 7.03 44.654 0.041 6.42 2.68 11.66
12/17/2021 5:15:00 AM 6.96 44.528 0.041 6.44 3 11.69
12/17/2021 5:30:00 AM 6.88 44.384 0.041 6.44 2.63 11.71
12/17/2021 5:45:00 AM 6.8 44.24 0.041 6.42 2.75 11.74
12/17/2021 6:00:00 AM 6.72 44.096 0.041 6.42 2.63 11.77
12/17/2021 6:15:00 AM 6.65 43.97 0.041 6.43 2.58 11.79
12/17/2021 6:30:00 AM 6.57 43.826 0.041 6.43 2.66 11.82
12/17/2021 6:45:00 AM 6.5 43.7 0.041 6.41 2.62 11.84
12/17/2021 7:00:00 AM 6.42 43.556 0.041 6.44 2.64 11.87
12/17/2021 7:15:00 AM 6.35 43.43 0.041 6.43 2.63 11.89
12/17/2021 7:30:00 AM 6.27 43.286 0.041 6.34 2.9 11.92
12/17/2021 7:45:00 AM 6.21 43.178 0.04 6.37 4.41 11.95
12/17/2021 8:00:00 AM 6.15 43.07 0.041 6.44 2.66 11.99
12/17/2021 8:15:00 AM 6.09 42.962 0.041 6.46 2.6 12.03
12/17/2021 8:30:00 AM 6.03 42.854 0.041 6.36 2.51 12.07
12/17/2021 8:45:00 AM 5.98 42.764 0.041 6.5 2.8 12.11
12/17/2021 9:00:00 AM 5.93 42.674 0.041 6.47 2.66 12.14
12/17/2021 9:15:00 AM 5.87 42.566 0.041 6.49 2.47 12.19
12/17/2021 9:30:00 AM 5.83 42.494 0.041 6.49 2.58 12.22
12/17/2021 9:45:00 AM 5.79 42.422 0.041 6.5 2.43 12.24
12/17/2021 10:00:00 AM 5.77 42.386 0.041 6.42 2.51 12.27
12/17/2021 10:15:00 AM 5.75 42.35 0.04 6.54 2.56 12.29
12/17/2021 10:30:00 AM 5.75 42.35 0.04 6.55 2.43 12.31
12/17/2021 10:45:00 AM 5.76 42.368 0.04 6.55 2.43 12.32
12/17/2021 11:00:00 AM 5.8 42.44 0.04 6.54 2.43 12.33
12/17/2021 11:15:00 AM 5.83 42.494 0.04 6.57 2.44 12.34
12/17/2021 11:30:00 AM 5.87 42.566 0.04 6.59 2.51 12.34
12/17/2021 11:45:00 AM 5.92 42.656 0.04 6.57 2.54 12.34
12/17/2021 12:00:00 PM 5.97 42.746 0.04 6.58 2.42 12.32
12/17/2021 12:15:00 PM 6.02 42.836 0.04 6.49 2.68 12.32
12/17/2021 12:30:00 PM 6.06 42.908 0.04 6.6 2.41 12.32
12/17/2021 12:45:00 PM 6.1 42.98 0.04 6.58 2.45 12.3
12/17/2021 1:00:00 PM 6.14 43.052 0.04 6.59 2.39 12.3
12/17/2021 1:15:00 PM 6.16 43.088 0.04 6.61 2.52 12.29
12/17/2021 1:30:00 PM 6.19 43.142 0.04 6.6 2.45 12.31
12/17/2021 1:45:00 PM 6.21 43.178 0.04 6.58 2.44 12.31
12/17/2021 2:00:00 PM 6.23 43.214 0.04 6.59 2.32 12.31
12/17/2021 2:15:00 PM 6.24 43.232 0.04 6.59 2.47 12.3
12/17/2021 2:30:00 PM 6.24 43.232 0.04 6.6 2.38 12.3
12/17/2021 2:45:00 PM 6.25 43.25 0.04 6.59 2.34 12.3
12/17/2021 3:00:00 PM 6.24 43.232 0.04 6.6 2.55 12.3
12/17/2021 3:15:00 PM 6.23 43.214 0.04 6.58 2.45 12.29
12/17/2021 3:30:00 PM 6.22 43.196 0.04 6.6 2.43 12.28
12/17/2021 3:45:00 PM 6.2 43.16 0.04 6.58 2.45 12.26
12/17/2021 4:00:00 PM 6.19 43.142 0.04 6.48 2.42 12.24
12/17/2021 4:15:00 PM 6.16 43.088 0.04 6.53 2.46 12.23
12/17/2021 4:30:00 PM 6.14 43.052 0.038 6.44 3.82 12.19
12/17/2021 4:45:00 PM 6.1 42.98 0.04 6.45 2.42 12.16
12/17/2021 5:00:00 PM 6.08 42.944 0.038 6.5 3.78 12.14
12/17/2021 5:15:00 PM 6.05 42.89 0.04 6.5 2.48 12.11
12/17/2021 5:30:00 PM 6.02 42.836 0.04 6.51 2.43 12.1
12/17/2021 5:45:00 PM 5.99 42.782 0.041 6.5 2.65 12.08
12/17/2021 6:00:00 PM 5.96 42.728 0.041 6.48 2.54 12.09
12/17/2021 6:15:00 PM 5.94 42.692 0.041 6.48 2.87 12.09
12/17/2021 6:30:00 PM 5.9 42.62 0.041 6.47 2.58 12.09
12/17/2021 6:45:00 PM 5.87 42.566 0.041 6.38 2.87 12.1
12/17/2021 7:00:00 PM 5.84 42.512 0.041 6.47 2.69 12.1
12/17/2021 7:15:00 PM 5.81 42.458 0.041 6.47 2.56 12.11
12/17/2021 7:30:00 PM 5.77 42.386 0.041 6.37 2.5 12.12
12/17/2021 7:45:00 PM 5.74 42.332 0.041 6.47 2.57 12.13
12/17/2021 8:00:00 PM 5.71 42.278 0.041 6.47 2.61 12.15
12/17/2021 8:15:00 PM 5.68 42.224 0.041 6.47 2.53 12.16
12/17/2021 8:30:00 PM 5.65 42.17 0.041 6.48 2.46 12.17
12/17/2021 8:45:00 PM 5.63 42.134 0.041 6.46 2.53 12.18
12/17/2021 9:00:00 PM 5.6 42.08 0.041 6.47 2.55 12.18
12/17/2021 9:15:00 PM 5.57 42.026 0.041 6.47 2.46 12.19
12/17/2021 9:30:00 PM 5.55 41.99 0.041 6.46 2.56 12.2
12/17/2021 9:45:00 PM 5.52 41.936 0.041 6.48 2.63 12.21
12/17/2021 10:00:00 PM 5.5 41.9 0.041 6.47 2.66 12.21
12/17/2021 10:15:00 PM 5.48 41.864 0.041 6.47 2.54 12.22
12/17/2021 10:30:00 PM 5.46 41.828 0.041 6.48 2.64 12.23
12/17/2021 10:45:00 PM 5.45 41.81 0.04 6.45 3.66 12.23
12/17/2021 11:00:00 PM 5.43 41.774 0.041 6.48 2.71 12.24
12/17/2021 11:15:00 PM 5.42 41.756 0.04 6.39 3.94 12.25
12/17/2021 11:30:00 PM 5.4 41.72 0.041 6.41 2.43 12.25
12/17/2021 11:45:00 PM 5.39 41.702 0.041 6.49 2.58 12.25
12/18/2021 12:00:00 AM 5.38 41.684 0.04 6.42 3.91 12.26
12/18/2021 12:15:00 AM 5.36 41.648 0.041 6.49 72.52 12.26
12/18/2021 12:30:00 AM 5.35 41.63 0.041 6.48 2.62 12.27
12/18/2021 12:45:00 AM 5.34 41.612 0.041 6.42 2.63 12.27
12/18/2021 1:00:00 AM 5.33 41.594 0.041 6.39 2.58 12.27
12/18/2021 1:15:00 AM 5.32 41.576 0.041 6.48 2.79 12.28
12/18/2021 1:30:00 AM 5.3 41.54 0.041 6.43 2.58 12.27
12/18/2021 1:45:00 AM 5.29 41.522 0.041 6.49 2.61 12.28
12/18/2021 2:00:00 AM 5.29 41.522 0.041 6.49 2.73 12.28
12/18/2021 2:15:00 AM 5.28 41.504 0.041 6.48 2.8 12.29
12/18/2021 2:30:00 AM 5.28 41.504 0.041 6.49 2.78 12.28
12/18/2021 2:45:00 AM 5.27 41.486 0.041 6.43 2.66 12.28
12/18/2021 3:00:00 AM 5.27 41.486 0.041 6.5 2.59 12.29
12/18/2021 3:15:00 AM 5.27 41.486 0.041 6.48 2.6 12.29
12/18/2021 3:30:00 AM 5.27 41.486 0.041 6.48 2.61 12.29
12/18/2021 3:45:00 AM 5.27 41.486 0.041 6.47 2.71 12.29
12/18/2021 4:00:00 AM 5.26 41.468 0.041 6.49 3.09 12.28
12/18/2021 4:15:00 AM 5.26 41.468 0.041 6.49 2.77 12.29
12/18/2021 4:30:00 AM 5.26 41.468 0.041 6.47 2.79 12.29
12/18/2021 4:45:00 AM 5.26 41.468 0.041 6.48 2.58 12.29
12/18/2021 5:00:00 AM 5.26 41.468 0.041 6.49 2.53 12.28
12/18/2021 5:15:00 AM 5.25 41.45 0.041 6.48 2.56 12.29
12/18/2021 5:30:00 AM 5.24 41.432 0.041 6.5 2.59 12.29
12/18/2021 5:45:00 AM 5.24 41.432 0.041 6.4 2.61 12.29
12/18/2021 6:00:00 AM 5.23 41.414 0.041 6.51 2.55 12.28
12/18/2021 6:15:00 AM 5.23 41.414 0.041 6.42 2.51 12.28
12/18/2021 6:30:00 AM 5.23 41.414 0.041 6.43 2.53 12.28
12/18/2021 6:45:00 AM 5.23 41.414 0.041 6.51 2.67 12.28
12/18/2021 7:00:00 AM 5.22 41.396 0.041 6.48 2.87 12.29
12/18/2021 7:15:00 AM 5.21 41.378 0.041 6.44 2.72 12.28
12/18/2021 7:30:00 AM 5.21 41.378 0.041 6.5 2.76 12.29
12/18/2021 7:45:00 AM 5.2 41.36 0.041 6.49 2.46 12.29
12/18/2021 8:00:00 AM 5.2 41.36 0.041 6.5 2.49 12.29
12/18/2021 8:15:00 AM 5.19 41.342 0.041 6.5 2.47 12.31
12/18/2021 8:30:00 AM 5.18 41.324 0.041 6.51 4.04 12.31
12/18/2021 8:45:00 AM 5.17 41.306 0.041 6.52 2.91 12.33
12/18/2021 9:00:00 AM 5.17 41.306 0.041 6.52 2.89 12.35
12/18/2021 9:15:00 AM 5.17 41.306 0.041 6.53 2.75 12.36
12/18/2021 9:30:00 AM 5.18 41.324 0.041 6.52 2.67 12.38
12/18/2021 9:45:00 AM 5.18 41.324 0.041 6.43 2.66 12.39
12/18/2021 10:00:00 AM 5.19 41.342 0.041 6.46 2.62 12.4
12/18/2021 10:15:00 AM 5.2 41.36 0.041 6.56 2.7 12.42
12/18/2021 10:30:00 AM 5.21 41.378 0.041 6.45 2.8 12.41
12/18/2021 10:45:00 AM 5.21 41.378 0.041 6.5 2.81 12.41
12/18/2021 11:00:00 AM 5.22 41.396 0.041 6.5 2.86 12.44
12/18/2021 11:15:00 AM 5.24 41.432 0.041 6.56 2.67 12.44
12/18/2021 11:30:00 AM 5.25 41.45 0.041 6.57 2.76 12.44
12/18/2021 11:45:00 AM 5.27 41.486 0.041 6.57 3.25 12.43
12/18/2021 12:00:00 PM 5.28 41.504 0.041 6.55 3.07 12.43
12/18/2021 12:15:00 PM 5.29 41.522 0.041 6.47 3.02 12.41
12/18/2021 12:30:00 PM 5.29 41.522 0.04 6.58 2.88 12.41
12/18/2021 12:45:00 PM 5.3 41.54 0.04 6.56 2.63 12.4
12/18/2021 1:00:00 PM 5.31 41.558 0.04 6.57 2.83 12.4
12/18/2021 1:15:00 PM 5.33 41.594 0.04 6.56 2.83 12.39
12/18/2021 1:30:00 PM 5.35 41.63 0.04 6.56 3.13 12.38
12/18/2021 1:45:00 PM 5.36 41.648 0.04 6.57 2.74 12.37
12/18/2021 2:00:00 PM 5.37 41.666 0.04 6.57 2.63 12.36
12/18/2021 2:15:00 PM 5.38 41.684 0.04 6.53 2.52 12.35
12/18/2021 2:30:00 PM 5.39 41.702 0.04 6.57 2.54 12.34
12/18/2021 2:45:00 PM 5.4 41.72 0.04 6.51 2.63 12.33
12/18/2021 3:00:00 PM 5.41 41.738 0.04 6.57 2.6 12.31
12/18/2021 3:15:00 PM 5.42 41.756 0.04 6.51 2.68 12.28
12/18/2021 3:30:00 PM 5.43 41.774 0.041 6.55 2.68 12.26
12/18/2021 3:45:00 PM 5.44 41.792 0.041 6.56 2.97 12.24
12/18/2021 4:00:00 PM 5.45 41.81 0.041 6.54 2.98 12.21
12/18/2021 4:15:00 PM 5.46 41.828 0.041 6.45 3.01 12.19
12/18/2021 4:30:00 PM 5.47 41.846 0.041 6.53 2.94 12.17
12/18/2021 4:45:00 PM 5.48 41.864 0.041 6.54 2.74 12.15
12/18/2021 5:00:00 PM 5.48 41.864 0.041 6.5 2.9 12.13
12/18/2021 5:15:00 PM 5.49 41.882 0.041 6.51 2.75 12.11
12/18/2021 5:30:00 PM 5.5 41.9 0.039 6.45 4.2 12.1
12/18/2021 5:45:00 PM 5.51 41.918 0.041 6.5 2.96 12.09
12/18/2021 6:00:00 PM 5.52 41.936 0.041 6.49 3.02 12.08
12/18/2021 6:15:00 PM 5.53 41.954 0.041 6.51 2.89 12.07
12/18/2021 6:30:00 PM 5.54 41.972 0.041 6.49 3.49 12.06
12/18/2021 6:45:00 PM 5.56 42.008 0.041 6.49 3.02 12.06
12/18/2021 7:00:00 PM 5.57 42.026 0.041 6.38 3 12.05
12/18/2021 7:15:00 PM 5.58 42.044 0.041 6.51 2.8 12.05
12/18/2021 7:30:00 PM 5.6 42.08 0.041 6.5 3.08 12.04
12/18/2021 7:45:00 PM 5.61 42.098 0.041 6.48 3.02 12.04
12/18/2021 8:00:00 PM 5.62 42.116 0.041 6.46 3.01 12.04
12/18/2021 8:15:00 PM 5.63 42.134 0.042 6.51 3 12.03
12/18/2021 8:30:00 PM 5.64 42.152 0.042 6.49 2.98 12.03
12/18/2021 8:45:00 PM 5.65 42.17 0.042 6.5 3.09 12.02
12/18/2021 9:00:00 PM 5.67 42.206 0.042 6.43 3.26 12.02
12/18/2021 9:15:00 PM 5.68 42.224 0.042 6.5 5.15 12.01
12/18/2021 9:30:00 PM 5.68 42.224 0.042 6.36 2.69 12.02
12/18/2021 9:45:00 PM 5.69 42.242 0.042 6.48 2.71 12.02
12/18/2021 10:00:00 PM 5.7 42.26 0.042 6.45 2.71 12.01
12/18/2021 10:15:00 PM 5.71 42.278 0.042 6.49 2.88 12.01
12/18/2021 10:30:00 PM 5.7 42.26 0.042 6.49 2.75 12.02
12/18/2021 10:45:00 PM 5.7 42.26 0.042 6.42 2.8 12.02
12/18/2021 11:00:00 PM 5.71 42.278 0.042 6.5 2.74 12.02
12/18/2021 11:15:00 PM 5.7 42.26 0.042 6.47 2.7 12.02
12/18/2021 11:30:00 PM 5.7 42.26 0.042 6.49 2.84 12.02
12/18/2021 11:45:00 PM 5.7 42.26 0.042 6.48 2.78 12.03
12/19/2021 12:00:00 AM 5.69 42.242 0.04 6.46 4.12 12.04
12/19/2021 12:15:00 AM 5.66 42.188 0.042 6.49 2.94 12.04
12/19/2021 12:30:00 AM 5.65 42.17 0.042 6.49 2.83 12.05
12/19/2021 12:45:00 AM 5.63 42.134 0.042 6.49 2.9 12.06
12/19/2021 1:00:00 AM 5.6 42.08 0.042 6.48 2.82 12.07
12/19/2021 1:15:00 AM 5.59 42.062 0.04 6.43 3.91 12.08
12/19/2021 1:30:00 AM 5.56 42.008 0.042 6.5 2.75 12.09
12/19/2021 1:45:00 AM 5.51 41.918 0.042 6.49 2.61 12.1
12/19/2021 2:00:00 AM 5.48 41.864 0.042 6.5 2.79 12.12
12/19/2021 2:15:00 AM 5.45 41.81 0.042 6.51 2.61 12.14
12/19/2021 2:30:00 AM 5.42 41.756 0.042 6.47 2.62 12.15
12/19/2021 2:45:00 AM 5.39 41.702 0.042 6.48 2.66 12.17
12/19/2021 3:00:00 AM 5.36 41.648 0.042 6.48 2.72 12.18
12/19/2021 3:15:00 AM 5.33 41.594 0.041 6.43 3.86 12.19
12/19/2021 3:30:00 AM 5.3 41.54 0.042 6.49 2.59 12.21
12/19/2021 3:45:00 AM 5.27 41.486 0.042 6.47 2.6 12.22
12/19/2021 4:00:00 AM 5.24 41.432 0.042 6.49 3.03 12.22
12/19/2021 4:15:00 AM 5.21 41.378 0.042 6.49 2.75 12.24
12/19/2021 4:30:00 AM 5.18 41.324 0.042 6.5 2.62 12.25
12/19/2021 4:45:00 AM 5.14 41.252 0.042 6.51 2.76 12.26
12/19/2021 5:00:00 AM 5.11 41.198 0.042 6.51 2.62 12.28
12/19/2021 5:15:00 AM 5.08 41.144 0.042 6.48 2.54 12.29
12/19/2021 5:30:00 AM 5.07 41.126 0.042 6.5 2.68 12.29
12/19/2021 5:45:00 AM 5.03 41.054 0.042 6.51 2.55 12.31
12/19/2021 6:00:00 AM 5 41 0.042 6.47 2.57 12.32
12/19/2021 6:15:00 AM 4.96 40.928 0.042 6.51 2.56 12.33
12/19/2021 6:30:00 AM 4.92 40.856 0.042 6.5 2.74 12.36
12/19/2021 6:45:00 AM 4.9 40.82 0.042 6.5 2.65 12.37
12/19/2021 7:00:00 AM 4.86 40.748 0.041 6.46 3.8 12.38
12/19/2021 7:15:00 AM 4.81 40.658 0.042 6.43 2.83 12.4
12/19/2021 7:30:00 AM 4.76 40.568 0.041 6.45 4.07 12.42
12/19/2021 7:45:00 AM 4.72 40.496 0.042 6.5 2.54 12.44
12/19/2021 8:00:00 AM 4.68 40.424 0.042 6.52 2.47 12.46
12/19/2021 8:15:00 AM 4.66 40.388 0.042 6.52 2.5 12.47
12/19/2021 8:30:00 AM 4.63 40.334 0.042 6.51 2.55 12.5
12/19/2021 8:45:00 AM 4.59 40.262 0.042 6.48 2.46 12.54
12/19/2021 9:00:00 AM 4.57 40.226 0.042 6.53 2.47 12.59
12/19/2021 9:15:00 AM 4.54 40.172 0.042 6.45 2.52 12.63
12/19/2021 9:30:00 AM 4.53 40.154 0.042 6.56 2.4 12.68
12/19/2021 9:45:00 AM 4.51 40.118 0.042 6.56 2.41 12.73
12/19/2021 10:00:00 AM 4.51 40.118 0.042 6.58 2.52 12.76
12/19/2021 10:15:00 AM 4.51 40.118 0.042 6.59 2.57 12.79
12/19/2021 10:30:00 AM 4.51 40.118 0.042 6.6 2.44 12.81
12/19/2021 10:45:00 AM 4.51 40.118 0.042 6.6 2.33 12.83
12/19/2021 11:00:00 AM 4.51 40.118 0.042 6.59 2.32 12.84
12/19/2021 11:15:00 AM 4.51 40.118 0.042 6.6 2.43 12.84
12/19/2021 11:30:00 AM 4.51 40.118 0.042 6.62 2.24 12.84
12/19/2021 11:45:00 AM 4.51 40.118 0.042 6.61 2.37 12.83
12/19/2021 12:00:00 PM 4.52 40.136 0.042 6.63 2.35 12.84
12/19/2021 12:15:00 PM 4.56 40.208 0.042 6.6 2.34 12.83
12/19/2021 12:30:00 PM 4.6 40.28 0.042 6.62 2.32 12.81
12/19/2021 12:45:00 PM 4.63 40.334 0.042 6.62 2.3 12.82
12/19/2021 1:00:00 PM 4.64 40.352 0.042 6.63 2.37 12.81
12/19/2021 1:15:00 PM 4.74 40.532 0.042 6.64 2.33 12.8
12/19/2021 1:30:00 PM 4.79 40.622 0.042 6.64 2.35 12.79
12/19/2021 1:45:00 PM 4.76 40.568 0.042 6.64 2.27 12.78
12/19/2021 2:00:00 PM 4.71 40.478 0.042 6.63 2.52 12.78
12/19/2021 2:15:00 PM 4.69 40.442 0.042 6.61 2.35 12.77
12/19/2021 2:30:00 PM 4.72 40.496 0.041 6.63 2.5 12.77
12/19/2021 2:45:00 PM 4.76 40.568 0.041 6.61 2.29 12.74
12/19/2021 3:00:00 PM 4.78 40.604 0.041 6.64 2.33 12.72
12/19/2021 3:15:00 PM 4.76 40.568 0.042 6.62 2.24 12.7
12/19/2021 3:30:00 PM 4.73 40.514 0.042 6.62 2.29 12.69
12/19/2021 3:45:00 PM 4.69 40.442 0.042 6.59 2.31 12.7
12/19/2021 4:00:00 PM 4.66 40.388 0.042 6.6 2.35 12.69
12/19/2021 4:15:00 PM 4.61 40.298 0.042 6.58 2.37 12.68
12/19/2021 4:30:00 PM 4.54 40.172 0.042 6.58 2.43 12.69
12/19/2021 4:45:00 PM 4.47 40.046 0.042 6.58 2.44 12.68
12/19/2021 5:00:00 PM 4.39 39.902 0.042 6.55 2.33 12.68
12/19/2021 5:15:00 PM 4.31 39.758 0.042 6.52 2.35 12.68
12/19/2021 5:30:00 PM 4.25 39.65 0.042 6.52 2.42 12.69
12/19/2021 5:45:00 PM 4.19 39.542 0.042 6.53 2.48 12.7
12/19/2021 6:00:00 PM 4.15 39.47 0.042 6.53 2.37 12.7
12/19/2021 6:15:00 PM 4.1 39.38 0.042 6.52 2.41 12.71
12/19/2021 6:30:00 PM 4.06 39.308 0.042 6.51 2.53 12.72
12/19/2021 6:45:00 PM 4.03 39.254 0.042 6.5 2.54 12.74
12/19/2021 7:00:00 PM 3.99 39.182 0.042 6.53 2.55 12.75
12/19/2021 7:15:00 PM 3.96 39.128 0.042 6.52 2.45 12.76
12/19/2021 7:30:00 PM 3.93 39.074 0.042 6.51 2.57 12.77
12/19/2021 7:45:00 PM 3.89 39.002 0.042 6.52 2.49 12.79
12/19/2021 8:00:00 PM 3.83 38.894 0.042 6.49 2.46 12.8
12/19/2021 8:15:00 PM 3.79 38.822 0.042 6.51 2.42 12.82
12/19/2021 8:30:00 PM 3.74 38.732 0.041 6.49 3.71 12.83
12/19/2021 8:45:00 PM 3.7 38.66 0.042 6.51 2.47 12.85
12/19/2021 9:00:00 PM 3.66 38.588 0.042 6.53 2.4 12.87
12/19/2021 9:15:00 PM 3.61 38.498 0.042 6.35 4.19 12.88
12/19/2021 9:30:00 PM 3.56 38.408 0.042 6.52 2.45 12.9
12/19/2021 9:45:00 PM 3.52 38.336 0.04 6.47 3.66 12.91
12/19/2021 10:00:00 PM 3.48 38.264 0.043 6.51 2.49 12.93
12/19/2021 10:15:00 PM 3.43 38.174 0.043 6.51 2.4 12.95
12/19/2021 10:30:00 PM 3.38 38.084 0.043 6.5 2.73 12.97
12/19/2021 10:45:00 PM 3.33 37.994 0.043 6.52 2.52 12.98
12/19/2021 11:00:00 PM 3.28 37.904 0.043 6.5 2.48 13
12/19/2021 11:15:00 PM 3.23 37.814 0.043 6.48 2.48 13.02
12/19/2021 11:30:00 PM 3.18 37.724 0.043 6.51 2.4 13.04
12/19/2021 11:45:00 PM 3.14 37.652 0.043 6.47 2.39 13.05
12/20/2021 12:00:00 AM 3.09 37.562 0.043 6.53 2.42 13.06
12/20/2021 12:15:00 AM 3.04 37.472 0.043 6.52 2.41 13.08
12/20/2021 12:30:00 AM 3 37.4 0.043 6.53 2.4 13.1
12/20/2021 12:45:00 AM 2.95 37.31 0.043 6.52 2.39 13.12
12/20/2021 1:00:00 AM 2.9 37.22 0.043 6.49 2.45 13.14
12/20/2021 1:15:00 AM 2.86 37.148 0.043 6.53 2.45 13.15
12/20/2021 1:30:00 AM 2.82 37.076 0.043 6.43 2.55 13.17
12/20/2021 1:45:00 AM 2.78 37.004 0.043 6.41 2.36 13.18
12/20/2021 2:00:00 AM 2.73 36.914 0.043 6.54 2.45 13.2
12/20/2021 2:15:00 AM 2.69 36.842 0.043 6.52 2.42 13.22
12/20/2021 2:30:00 AM 2.65 36.77 0.043 6.53 2.41 13.23
12/20/2021 2:45:00 AM 2.61 36.698 0.043 6.53 3.94 13.25
12/20/2021 3:00:00 AM 2.57 36.626 0.043 6.53 2.4 13.26
12/20/2021 3:15:00 AM 2.53 36.554 0.043 6.44 2.41 13.27
12/20/2021 3:30:00 AM 2.49 36.482 0.043 6.52 2.39 13.3
12/20/2021 3:45:00 AM 2.44 36.392 0.043 6.55 2.49 13.31
12/20/2021 4:00:00 AM 2.41 36.338 0.043 6.52 2.45 13.33
12/20/2021 4:15:00 AM 2.36 36.248 0.043 6.53 2.46 13.35
12/20/2021 4:30:00 AM 2.32 36.176 0.043 6.53 2.48 13.36
12/20/2021 4:45:00 AM 2.29 36.122 0.043 6.54 2.4 13.38
12/20/2021 5:00:00 AM 2.25 36.05 0.043 6.53 2.35 13.39
12/20/2021 5:15:00 AM 2.21 35.978 0.043 6.53 2.44 13.41
12/20/2021 5:30:00 AM 2.17 35.906 0.043 6.53 2.31 13.42
12/20/2021 5:45:00 AM 2.14 35.852 0.043 6.53 2.45 13.44
12/20/2021 6:00:00 AM 2.1 35.78 0.043 6.53 2.45 13.45
12/20/2021 6:15:00 AM 2.07 35.726 0.043 6.5 2.36 13.46
12/20/2021 6:30:00 AM 2.03 35.654 0.043 6.55 2.36 13.47
12/20/2021 6:45:00 AM 1.99 35.582 0.043 6.53 2.45 13.49
12/20/2021 7:00:00 AM 1.96 35.528 0.043 6.54 2.39 13.5
12/20/2021 7:15:00 AM 1.92 35.456 0.043 6.54 2.37 13.53
12/20/2021 7:30:00 AM 1.89 35.402 0.043 6.54 2.37 13.54
12/20/2021 7:45:00 AM 1.87 35.366 0.043 6.55 2.35 13.56
12/20/2021 8:00:00 AM 1.86 35.348 0.043 6.55 5.43 13.58
12/20/2021 8:15:00 AM 1.86 35.348 0.043 6.55 2.35 13.61
12/20/2021 8:30:00 AM 1.86 35.348 0.043 6.47 2.43 13.65
12/20/2021 8:45:00 AM 1.88 35.384 0.043 6.51 2.37 13.69
12/20/2021 9:00:00 AM 1.9 35.42 0.042 6.58 2.36 13.72
12/20/2021 9:15:00 AM 1.93 35.474 0.042 6.6 2.29 13.74
12/20/2021 9:30:00 AM 1.95 35.51 0.042 6.6 2.3 13.74
12/20/2021 9:45:00 AM 1.99 35.582 0.042 6.59 2.4 13.76
12/20/2021 10:00:00 AM 2.03 35.654 0.042 6.62 2.33 13.76
12/20/2021 10:15:00 AM 2.08 35.744 0.042 6.63 2.28 13.76
12/20/2021 10:30:00 AM 2.14 35.852 0.042 6.63 2.38 13.75
12/20/2021 10:45:00 AM 2.2 35.96 0.042 6.63 2.26 13.73
12/20/2021 11:00:00 AM 2.25 36.05 0.042 6.65 2.34 13.72
12/20/2021 11:15:00 AM 2.32 36.176 0.042 6.65 2.32 13.7
12/20/2021 11:30:00 AM 2.37 36.266 0.042 6.64 2.28 13.67
12/20/2021 11:45:00 AM 2.44 36.392 0.042 6.65 2.26 13.63
12/20/2021 12:00:00 PM 2.52 36.536 0.042 6.65 2.23 13.59
12/20/2021 12:15:00 PM 2.6 36.68 0.042 6.65 2.32 13.55
12/20/2021 12:30:00 PM 2.7 36.86 0.042 6.65 2.19 13.52
12/20/2021 12:45:00 PM 2.79 37.022 0.042 6.62 2.53 13.48
12/20/2021 1:00:00 PM 2.88 37.184 0.042 6.63 2.22 13.45
12/20/2021 1:15:00 PM 2.97 37.346 0.042 6.63 2.27 13.42
12/20/2021 1:30:00 PM 3.07 37.526 0.042 6.63 2.3 13.37
12/20/2021 1:45:00 PM 3.16 37.688 0.042 6.64 2.19 13.34
12/20/2021 2:00:00 PM 3.24 37.832 0.042 6.64 2.24 13.3
12/20/2021 2:15:00 PM 3.31 37.958 0.042 6.63 2.22 13.27
12/20/2021 2:30:00 PM 3.35 38.03 0.042 6.63 2.29 13.24
12/20/2021 2:45:00 PM 3.37 38.066 0.042 6.62 2.26 13.22
12/20/2021 3:00:00 PM 3.38 38.084 0.042 6.62 2.24 13.2
12/20/2021 3:15:00 PM 3.38 38.084 0.042 6.61 2.19 13.19
12/20/2021 3:30:00 PM 3.36 38.048 0.042 6.49 2.22 13.18
12/20/2021 3:45:00 PM 3.33 37.994 0.042 6.61 2.2 13.17
12/20/2021 4:00:00 PM 3.3 37.94 0.042 6.6 2.32 13.16
12/20/2021 4:15:00 PM 3.27 37.886 0.042 6.58 2.27 13.14
12/20/2021 4:30:00 PM 3.24 37.832 0.042 6.48 2.22 13.13
12/20/2021 4:45:00 PM 3.22 37.796 0.042 6.6 2.26 13.11
12/20/2021 5:00:00 PM 3.19 37.742 0.042 6.57 2.33 13.09
12/20/2021 5:15:00 PM 3.15 37.67 0.042 6.55 2.29 13.07
12/20/2021 5:30:00 PM 3.12 37.616 0.042 6.55 2.27 13.07
12/20/2021 5:45:00 PM 3.09 37.562 0.042 6.55 2.29 13.06
12/20/2021 6:00:00 PM 3.07 37.526 0.042 6.54 2.27 13.06
12/20/2021 6:15:00 PM 3.05 37.49 0.042 6.54 2.32 13.05
12/20/2021 6:30:00 PM 3.03 37.454 0.042 6.53 2.32 13.06
12/20/2021 6:45:00 PM 3.01 37.418 0.042 6.53 2.36 13.06
12/20/2021 7:00:00 PM 3 37.4 0.042 6.49 2.34 13.06
12/20/2021 7:15:00 PM 2.98 37.364 0.042 6.51 2.36 13.06
12/20/2021 7:30:00 PM 2.96 37.328 0.042 6.52 2.37 13.06
12/20/2021 7:45:00 PM 2.94 37.292 0.042 6.42 2.38 13.07
12/20/2021 8:00:00 PM 2.92 37.256 0.042 6.47 2.4 13.07
12/20/2021 8:15:00 PM 2.9 37.22 0.042 6.51 2.31 13.09
12/20/2021 8:30:00 PM 2.88 37.184 0.042 6.44 2.38 13.09
12/20/2021 8:45:00 PM 2.86 37.148 0.042 6.52 2.4 13.09
12/20/2021 9:00:00 PM 2.84 37.112 0.042 6.53 2.38 13.1
12/20/2021 9:15:00 PM 2.82 37.076 0.042 6.5 2.34 13.1
12/20/2021 9:30:00 PM 2.79 37.022 0.042 6.53 2.4 13.11
12/20/2021 9:45:00 PM 2.78 37.004 0.042 6.52 2.38 13.12
12/20/2021 10:00:00 PM 2.75 36.95 0.042 6.51 2.34 13.13
12/20/2021 10:15:00 PM 2.73 36.914 0.042 6.52 2.42 13.13
12/20/2021 10:30:00 PM 2.71 36.878 0.042 6.52 2.4 13.14
12/20/2021 10:45:00 PM 2.69 36.842 0.042 6.51 2.4 13.14
12/20/2021 11:00:00 PM 2.66 36.788 0.042 6.5 2.36 13.16
12/20/2021 11:15:00 PM 2.63 36.734 0.042 6.52 2.54 13.17
12/20/2021 11:30:00 PM 2.6 36.68 0.042 6.51 2.34 13.17
12/20/2021 11:45:00 PM 2.58 36.644 0.042 6.49 2.4 13.18
12/21/2021 12:00:00 AM 2.55 36.59 0.042 6.52 2.31 13.19
12/21/2021 12:15:00 AM 2.53 36.554 0.042 6.5 2.33 13.2
12/21/2021 12:30:00 AM 2.5 36.5 0.042 6.5 2.36 13.2
12/21/2021 12:45:00 AM 2.47 36.446 0.042 6.53 2.29 13.22
12/21/2021 1:00:00 AM 2.44 36.392 0.042 6.52 2.46 13.22
12/21/2021 1:15:00 AM 2.41 36.338 0.042 6.52 2.39 13.24
12/21/2021 1:30:00 AM 2.39 36.302 0.042 6.48 2.28 13.25
12/21/2021 1:45:00 AM 2.35 36.23 0.042 6.52 2.33 13.26
12/21/2021 2:00:00 AM 2.33 36.194 0.042 6.52 2.29 13.26
12/21/2021 2:15:00 AM 2.3 36.14 0.04 6.47 3.65 13.28
12/21/2021 2:30:00 AM 2.28 36.104 0.042 6.52 2.35 13.3
12/21/2021 2:45:00 AM 2.25 36.05 0.042 6.52 2.41 13.3
12/21/2021 3:00:00 AM 2.22 35.996 0.042 6.52 2.44 13.31
12/21/2021 3:15:00 AM 2.2 35.96 0.042 6.5 2.38 13.32
12/21/2021 3:30:00 AM 2.17 35.906 0.042 6.53 2.46 13.33
12/21/2021 3:45:00 AM 2.15 35.87 0.042 6.47 2.38 13.35
12/21/2021 4:00:00 AM 2.13 35.834 0.042 6.51 2.44 13.35
12/21/2021 4:15:00 AM 2.11 35.798 0.042 6.51 2.31 13.35
12/21/2021 4:30:00 AM 2.09 35.762 0.041 6.47 3.65 13.36
12/21/2021 4:45:00 AM 2.07 35.726 0.042 6.52 2.29 13.37
12/21/2021 5:00:00 AM 2.07 35.726 0.041 6.49 3.55 13.38
12/21/2021 5:15:00 AM 2.07 35.726 0.042 6.53 2.32 13.37
12/21/2021 5:30:00 AM 2.08 35.744 0.04 6.47 3.71 13.38
12/21/2021 5:45:00 AM 2.1 35.78 0.04 6.46 3.69 13.37
12/21/2021 6:00:00 AM 2.13 35.834 0.04 6.49 3.64 13.37
12/21/2021 6:15:00 AM 2.15 35.87 0.042 6.54 2.35 13.37
12/21/2021 6:30:00 AM 2.17 35.906 0.041 6.42 4.35 13.36
12/21/2021 6:45:00 AM 2.19 35.942 0.042 6.53 2.44 13.36
12/21/2021 7:00:00 AM 2.21 35.978 0.042 6.52 2.35 13.35
12/21/2021 7:15:00 AM 2.23 36.014 0.042 6.53 2.38 13.34
12/21/2021 7:30:00 AM 2.26 36.068 0.042 6.49 2.37 13.34
12/21/2021 7:45:00 AM 2.28 36.104 0.042 6.52 2.32 13.33
12/21/2021 8:00:00 AM 2.31 36.158 0.042 6.54 2.37 13.33
12/21/2021 8:15:00 AM 2.34 36.212 0.042 6.55 2.25 13.34
12/21/2021 8:30:00 AM 2.38 36.284 0.042 6.53 5.85 13.32
12/21/2021 8:45:00 AM 2.41 36.338 0.042 6.44 2.25 13.35
12/21/2021 9:00:00 AM 2.46 36.428 0.042 6.56 2.24 13.38
12/21/2021 9:15:00 AM 2.5 36.5 0.042 6.56 2.17 13.39
12/21/2021 9:30:00 AM 2.55 36.59 0.042 6.49 2.21 13.39
12/21/2021 9:45:00 AM 2.61 36.698 0.042 6.5 2.17 13.41
12/21/2021 10:00:00 AM 2.66 36.788 0.042 6.53 2.23 13.41
12/21/2021 10:15:00 AM 2.73 36.914 0.042 6.59 2.16 13.4
12/21/2021 10:30:00 AM 2.8 37.04 0.042 6.58 2.16 13.39
12/21/2021 10:45:00 AM 2.89 37.202 0.042 6.63 2.23 13.38
12/21/2021 11:00:00 AM 2.97 37.346 0.042 6.61 2.63 13.36
12/21/2021 11:15:00 AM 3.05 37.49 0.042 6.62 2.14 13.33
12/21/2021 11:30:00 AM 3.14 37.652 0.041 6.61 2.18 13.31
12/21/2021 11:45:00 AM 3.21 37.778 0.041 6.59 2.17 13.28
12/21/2021 12:00:00 PM 3.29 37.922 0.041 6.63 2.17 13.25
12/21/2021 12:15:00 PM 3.37 38.066 0.041 6.62 2.09 13.22
12/21/2021 12:30:00 PM 3.43 38.174 0.041 6.63 2.14 13.19
12/21/2021 12:45:00 PM 3.5 38.3 0.041 6.56 2.14 13.17
12/21/2021 1:00:00 PM 3.55 38.39 0.041 6.62 2.18 13.14
12/21/2021 1:15:00 PM 3.62 38.516 0.041 6.62 2.09 13.11
12/21/2021 1:30:00 PM 3.72 38.696 0.041 6.62 2.39 13.08
12/21/2021 1:45:00 PM 3.81 38.858 0.041 6.63 2.12 13.04
12/21/2021 2:00:00 PM 3.87 38.966 0.041 6.63 2.17 13.01
12/21/2021 2:15:00 PM 3.9 39.02 0.041 6.63 2.11 12.98
12/21/2021 2:30:00 PM 3.92 39.056 0.041 6.61 2.1 12.96
12/21/2021 2:45:00 PM 3.96 39.128 0.041 6.45 2.14 12.93
12/21/2021 3:00:00 PM 3.99 39.182 0.041 6.62 2.18 12.9
12/21/2021 3:15:00 PM 4.01 39.218 0.041 6.59 2.18 12.88
12/21/2021 3:30:00 PM 4.01 39.218 0.041 6.59 2.21 12.86
12/21/2021 3:45:00 PM 4.01 39.218 0.041 6.59 2.23 12.85
12/21/2021 4:00:00 PM 4 39.2 0.041 6.59 2.18 12.82
12/21/2021 4:15:00 PM 3.98 39.164 0.041 6.58 2.17 12.8
12/21/2021 4:30:00 PM 3.95 39.11 0.041 6.58 2.41 12.79
12/21/2021 4:45:00 PM 3.91 39.038 0.041 6.57 2.38 12.76
12/21/2021 5:00:00 PM 3.87 38.966 0.041 6.55 2.2 12.74
12/21/2021 5:15:00 PM 3.83 38.894 0.041 6.53 2.33 12.72
12/21/2021 5:30:00 PM 3.78 38.804 0.041 6.54 2.24 12.71
12/21/2021 5:45:00 PM 3.75 38.75 0.041 6.5 2.27 12.7
12/21/2021 6:00:00 PM 3.73 38.714 0.042 6.51 2.33 12.7
12/21/2021 6:15:00 PM 3.7 38.66 0.042 6.52 2.33 12.69
12/21/2021 6:30:00 PM 3.68 38.624 0.042 6.47 2.27 12.69
12/21/2021 6:45:00 PM 3.65 38.57 0.042 6.46 2.37 12.69
12/21/2021 7:00:00 PM 3.62 38.516 0.042 6.5 2.38 12.7
12/21/2021 7:15:00 PM 3.59 38.462 0.042 6.44 2.67 12.71
12/21/2021 7:30:00 PM 3.56 38.408 0.042 6.48 2.44 12.72
12/21/2021 7:45:00 PM 3.53 38.354 0.042 6.43 2.32 12.72
12/21/2021 8:00:00 PM 3.49 38.282 0.042 6.48 2.37 12.74
12/21/2021 8:15:00 PM 3.46 38.228 0.042 6.5 2.29 12.74
12/21/2021 8:30:00 PM 3.42 38.156 0.042 6.46 2.4 12.75
12/21/2021 8:45:00 PM 3.39 38.102 0.042 6.5 2.38 12.76
12/21/2021 9:00:00 PM 3.36 38.048 0.042 6.5 2.35 12.77
12/21/2021 9:15:00 PM 3.33 37.994 0.042 6.39 2.32 12.78
12/21/2021 9:30:00 PM 3.3 37.94 0.042 6.44 2.32 12.79
12/21/2021 9:45:00 PM 3.26 37.868 0.042 6.49 2.33 12.8
12/21/2021 10:00:00 PM 3.24 37.832 0.042 6.5 2.31 12.81
12/21/2021 10:15:00 PM 3.21 37.778 0.042 6.39 2.3 12.81
12/21/2021 10:30:00 PM 3.18 37.724 0.042 6.5 2.37 12.82
12/21/2021 10:45:00 PM 3.16 37.688 0.042 6.51 2.49 12.83
12/21/2021 11:00:00 PM 3.13 37.634 0.042 6.5 2.37 12.84
12/21/2021 11:15:00 PM 3.1 37.58 0.042 6.5 2.38 12.85
12/21/2021 11:30:00 PM 3.07 37.526 0.042 6.47 2.31 12.85
12/21/2021 11:45:00 PM 3.04 37.472 0.042 6.5 2.26 12.86
12/22/2021 12:00:00 AM 3.02 37.436 0.042 6.5 2.3 12.86
12/22/2021 12:15:00 AM 2.99 37.382 0.042 6.39 2.3 12.87
12/22/2021 12:30:00 AM 2.96 37.328 0.042 6.51 2.41 12.88
12/22/2021 12:45:00 AM 2.93 37.274 0.042 6.49 2.4 12.88
12/22/2021 1:00:00 AM 2.91 37.238 0.042 6.52 2.32 12.89
12/22/2021 1:15:00 AM 2.88 37.184 0.042 6.5 2.34 12.9
12/22/2021 1:30:00 AM 2.85 37.13 0.042 6.51 2.38 12.91
12/22/2021 1:45:00 AM 2.83 37.094 0.042 6.47 2.71 12.91
12/22/2021 2:00:00 AM 2.8 37.04 0.042 6.42 2.39 12.92
12/22/2021 2:15:00 AM 2.78 37.004 0.042 6.52 2.33 12.92
12/22/2021 2:30:00 AM 2.75 36.95 0.042 6.43 2.37 12.93
12/22/2021 2:45:00 AM 2.73 36.914 0.042 6.5 2.31 12.94
12/22/2021 3:00:00 AM 2.71 36.878 0.042 6.5 2.32 12.95
12/22/2021 3:15:00 AM 2.71 36.878 0.042 6.44 2.32 12.95
12/22/2021 3:30:00 AM 2.71 36.878 0.042 6.52 2.35 12.95
12/22/2021 3:45:00 AM 2.72 36.896 0.042 6.51 2.35 12.95
12/22/2021 4:00:00 AM 2.73 36.914 0.042 6.53 2.32 12.95
12/22/2021 4:15:00 AM 2.75 36.95 0.042 6.52 2.36 12.95
12/22/2021 4:30:00 AM 2.75 36.95 0.042 6.4 2.42 12.94
12/22/2021 4:45:00 AM 2.77 36.986 0.042 6.53 2.37 12.94
12/22/2021 5:00:00 AM 2.78 37.004 0.042 6.52 2.31 12.93
12/22/2021 5:15:00 AM 2.79 37.022 0.042 6.53 2.26 12.93
12/22/2021 5:30:00 AM 2.8 37.04 0.042 6.53 2.26 12.93
12/22/2021 5:45:00 AM 2.82 37.076 0.042 6.52 2.26 12.92
12/22/2021 6:00:00 AM 2.83 37.094 0.042 6.53 2.4 12.91
12/22/2021 6:15:00 AM 2.84 37.112 0.042 6.53 2.34 12.9
12/22/2021 6:30:00 AM 2.86 37.148 0.042 6.52 2.24 12.9
12/22/2021 6:45:00 AM 2.88 37.184 0.042 6.52 2.25 12.89
12/22/2021 7:00:00 AM 2.9 37.22 0.042 6.52 2.29 12.89
12/22/2021 7:15:00 AM 2.93 37.274 0.042 6.51 2.28 12.89
12/22/2021 7:30:00 AM 2.95 37.31 0.042 6.51 2.25 12.87
12/22/2021 7:45:00 AM 2.98 37.364 0.042 6.42 2.19 12.87
12/22/2021 8:00:00 AM 3.01 37.418 0.042 6.52 2.37 12.87
12/22/2021 8:15:00 AM 3.04 37.472 0.042 6.54 2.22 12.86
12/22/2021 8:30:00 AM 3.08 37.544 0.042 6.54 2.34 12.87
12/22/2021 8:45:00 AM 3.11 37.598 0.042 6.54 2.24 12.86
12/22/2021 9:00:00 AM 3.13 37.634 0.042 6.54 2.22 12.88
12/22/2021 9:15:00 AM 3.17 37.706 0.042 6.56 2.36 12.92
12/22/2021 9:30:00 AM 3.2 37.76 0.042 6.44 2.2 12.94
12/22/2021 9:45:00 AM 3.23 37.814 0.042 6.58 2.21 12.95
12/22/2021 10:00:00 AM 3.27 37.886 0.041 6.51 2.2 12.97
12/22/2021 10:15:00 AM 3.29 37.922 0.041 6.52 2.26 12.98
12/22/2021 10:30:00 AM 3.3 37.94 0.041 6.61 2.28 12.97
12/22/2021 10:45:00 AM 3.31 37.958 0.041 6.59 2.17 12.98
12/22/2021 11:00:00 AM 3.34 38.012 0.041 6.6 2.21 12.99
12/22/2021 11:15:00 AM 3.37 38.066 0.041 6.6 2.17 12.98
12/22/2021 11:30:00 AM 3.41 38.138 0.041 6.62 2.15 12.99
12/22/2021 11:45:00 AM 3.43 38.174 0.041 6.61 2.17 13
12/22/2021 12:00:00 PM 3.44 38.192 0.041 6.61 2.22 13
12/22/2021 12:15:00 PM 3.47 38.246 0.041 6.61 2.23 13.01
12/22/2021 12:30:00 PM 3.48 38.264 0.041 6.62 2.16 12.99
12/22/2021 12:45:00 PM 3.5 38.3 0.041 6.61 2.13 12.98
12/22/2021 1:00:00 PM 3.52 38.336 0.041 6.59 2.19 12.99
12/22/2021 1:15:00 PM 3.51 38.318 0.041 6.51 2.2 12.98
12/22/2021 1:30:00 PM 3.47 38.246 0.041 6.61 2.23 13
12/22/2021 1:45:00 PM 3.48 38.264 0.041 6.58 2.15 13
12/22/2021 2:00:00 PM 3.49 38.282 0.041 6.61 2.07 13.01
12/22/2021 2:15:00 PM 3.5 38.3 0.041 6.58 2.13 13
12/22/2021 2:30:00 PM 3.5 38.3 0.041 6.61 2.14 13
12/22/2021 2:45:00 PM 3.47 38.246 0.041 6.61 2.21 13.01
12/22/2021 3:00:00 PM 3.45 38.21 0.041 6.6 2.25 13.01
12/22/2021 3:15:00 PM 3.44 38.192 0.041 6.58 2.18 13.01
12/22/2021 3:30:00 PM 3.41 38.138 0.041 6.59 2.16 13
12/22/2021 3:45:00 PM 3.37 38.066 0.041 6.45 2.23 12.99
12/22/2021 4:00:00 PM 3.35 38.03 0.041 6.59 2.15 12.98
12/22/2021 4:15:00 PM 3.32 37.976 0.041 6.58 2.23 12.97
12/22/2021 4:30:00 PM 3.28 37.904 0.041 6.55 2.27 12.96
12/22/2021 4:45:00 PM 3.24 37.832 0.041 6.56 2.26 12.95
12/22/2021 5:00:00 PM 3.19 37.742 0.041 6.56 2.25 12.94
12/22/2021 5:15:00 PM 3.15 37.67 0.041 6.53 2.24 12.94
12/22/2021 5:30:00 PM 3.14 37.652 0.041 6.53 2.16 12.93
12/22/2021 5:45:00 PM 3.1 37.58 0.041 6.53 2.22 12.94
12/22/2021 6:00:00 PM 3.06 37.508 0.041 6.52 2.3 12.95
12/22/2021 6:15:00 PM 3.02 37.436 0.041 6.48 2.54 12.95
12/22/2021 6:30:00 PM 2.98 37.364 0.041 6.45 2.45 12.97
12/22/2021 6:45:00 PM 2.94 37.292 0.041 6.52 2.29 12.98
12/22/2021 7:00:00 PM 2.92 37.256 0.041 6.5 2.38 12.99
12/22/2021 7:15:00 PM 2.9 37.22 0.041 6.51 2.33 13
12/22/2021 7:30:00 PM 2.89 37.202 0.041 6.48 2.31 13.01
12/22/2021 7:45:00 PM 2.88 37.184 0.041 6.5 2.3 13.02
12/22/2021 8:00:00 PM 2.85 37.13 0.041 6.42 2.33 13.03
12/22/2021 8:15:00 PM 2.83 37.094 0.041 6.53 2.3 13.04
12/22/2021 8:30:00 PM 2.82 37.076 0.041 6.4 2.32 13.04
12/22/2021 8:45:00 PM 2.81 37.058 0.041 6.52 2.31 13.05
12/22/2021 9:00:00 PM 2.79 37.022 0.041 6.41 2.34 13.06
12/22/2021 9:15:00 PM 2.77 36.986 0.042 6.53 2.39 13.07
12/22/2021 9:30:00 PM 2.76 36.968 0.042 6.41 2.86 13.08
12/22/2021 9:45:00 PM 2.75 36.95 0.042 6.44 2.28 13.09
12/22/2021 10:00:00 PM 2.73 36.914 0.042 6.52 2.4 13.09
12/22/2021 10:15:00 PM 2.72 36.896 0.042 6.51 2.25 13.1
12/22/2021 10:30:00 PM 2.71 36.878 0.042 6.53 2.27 13.1
12/22/2021 10:45:00 PM 2.7 36.86 0.042 6.52 2.26 13.1
12/22/2021 11:00:00 PM 2.7 36.86 0.042 6.55 2.32 13.11
12/22/2021 11:15:00 PM 2.69 36.842 0.042 6.41 2.34 13.11
12/22/2021 11:30:00 PM 2.68 36.824 0.042 6.46 2.31 13.12
12/22/2021 11:45:00 PM 2.67 36.806 0.042 6.47 2.31 13.13
12/23/2021 12:00:00 AM 2.65 36.77 0.042 6.54 2.46 13.13
12/23/2021 12:15:00 AM 2.64 36.752 0.042 6.52 2.25 13.14
12/23/2021 12:30:00 AM 2.63 36.734 0.042 6.51 3.25 13.14
12/23/2021 12:45:00 AM 2.61 36.698 0.042 6.52 2.29 13.16
12/23/2021 1:00:00 AM 2.59 36.662 0.042 6.53 2.41 13.16
12/23/2021 1:15:00 AM 2.58 36.644 0.042 6.53 2.37 13.16
12/23/2021 1:30:00 AM 2.58 36.644 0.042 6.52 2.3 13.17
12/23/2021 1:45:00 AM 2.57 36.626 0.042 6.52 2.34 13.18
12/23/2021 2:00:00 AM 2.55 36.59 0.042 6.49 2.33 13.19
12/23/2021 2:15:00 AM 2.53 36.554 0.042 6.52 2.38 13.19
12/23/2021 2:30:00 AM 2.51 36.518 0.042 6.52 2.31 13.2
12/23/2021 2:45:00 AM 2.48 36.464 0.042 6.46 2.68 13.22
12/23/2021 3:00:00 AM 2.46 36.428 0.042 6.53 2.37 13.22
12/23/2021 3:15:00 AM 2.45 36.41 0.042 6.52 2.33 13.23
12/23/2021 3:30:00 AM 2.43 36.374 0.042 6.43 2.41 13.23
12/23/2021 3:45:00 AM 2.41 36.338 0.042 6.52 2.35 13.24
12/23/2021 4:00:00 AM 2.39 36.302 0.042 6.52 2.62 13.25
12/23/2021 4:15:00 AM 2.37 36.266 0.042 6.52 2.29 13.26
12/23/2021 4:30:00 AM 2.35 36.23 0.042 6.52 2.31 13.27
12/23/2021 4:45:00 AM 2.32 36.176 0.042 6.52 2.36 13.28
12/23/2021 5:00:00 AM 2.29 36.122 0.042 6.51 2.3 13.29
12/23/2021 5:15:00 AM 2.25 36.05 0.042 6.51 2.34 13.31
12/23/2021 5:30:00 AM 2.21 35.978 0.042 6.52 2.28 13.32
12/23/2021 5:45:00 AM 2.19 35.942 0.042 6.43 2.34 13.33
12/23/2021 6:00:00 AM 2.15 35.87 0.042 6.52 2.23 13.35
12/23/2021 6:15:00 AM 2.13 35.834 0.042 6.52 2.31 13.36
12/23/2021 6:30:00 AM 2.1 35.78 0.042 6.39 2.31 13.38
12/23/2021 6:45:00 AM 2.07 35.726 0.042 6.53 2.33 13.39
12/23/2021 7:00:00 AM 2.06 35.708 0.042 6.42 2.27 13.4
12/23/2021 7:15:00 AM 2.04 35.672 0.041 6.44 3.72 13.41
12/23/2021 7:30:00 AM 2.02 35.636 0.042 6.54 2.33 13.42
12/23/2021 7:45:00 AM 2.01 35.618 0.042 6.51 2.22 13.44
12/23/2021 8:00:00 AM 1.99 35.582 0.042 6.46 4.87 13.46
12/23/2021 8:15:00 AM 1.99 35.582 0.039 6.5 4.09 13.49
12/23/2021 8:30:00 AM 1.99 35.582 0.039 6.47 4.34 13.53
12/23/2021 8:45:00 AM 2 35.6 0.042 6.57 2.72 13.57
12/23/2021 9:00:00 AM 2.01 35.618 0.041 6.54 4.32 13.59
12/23/2021 9:15:00 AM 2.01 35.618 0.039 6.53 4.07 13.61
12/23/2021 9:30:00 AM 2.02 35.636 0.039 6.57 4.08 13.62
12/23/2021 9:45:00 AM 2.04 35.672 0.039 6.57 3.97 13.64
12/23/2021 10:00:00 AM 2.05 35.69 0.041 6.61 2.72 13.66
12/23/2021 10:15:00 AM 2.09 35.762 0.041 6.62 2.72 13.67
12/23/2021 10:30:00 AM 2.13 35.834 0.041 6.62 2.78 13.67
12/23/2021 10:45:00 AM 2.17 35.906 0.041 6.61 2.74 13.66
12/23/2021 11:00:00 AM 2.22 35.996 0.041 6.63 2.77 13.66
12/23/2021 11:15:00 AM 2.31 36.158 0.041 6.63 2.84 13.65
12/23/2021 11:30:00 AM 2.4 36.32 0.041 6.64 2.79 13.61
12/23/2021 11:45:00 AM 2.46 36.428 0.041 6.64 2.77 13.6
12/23/2021 12:00:00 PM 2.52 36.536 0.041 6.55 2.76 13.57
12/23/2021 12:15:00 PM 2.58 36.644 0.041 6.56 2.85 13.54
12/23/2021 12:30:00 PM 2.68 36.824 0.041 6.65 2.8 13.52
12/23/2021 12:45:00 PM 2.76 36.968 0.041 6.64 2.76 13.49
12/23/2021 1:00:00 PM 2.84 37.112 0.041 6.61 2.75 13.45
12/23/2021 1:15:00 PM 2.9 37.22 0.041 6.64 2.92 13.42
12/23/2021 1:30:00 PM 2.91 37.238 0.041 6.63 2.94 13.41
12/23/2021 1:45:00 PM 2.93 37.274 0.041 6.62 2.94 13.41
12/23/2021 2:00:00 PM 2.96 37.328 0.041 6.63 2.94 13.39
12/23/2021 2:15:00 PM 2.98 37.364 0.041 6.62 2.93 13.38
12/23/2021 2:30:00 PM 2.99 37.382 0.041 6.63 2.95 13.36
12/23/2021 2:45:00 PM 2.99 37.382 0.041 6.59 4.5 13.37
12/23/2021 3:00:00 PM 2.99 37.382 0.041 6.62 3.09 13.36
12/23/2021 3:15:00 PM 2.99 37.382 0.041 6.61 3.08 13.35
12/23/2021 3:30:00 PM 2.99 37.382 0.041 6.61 3.08 13.33
12/23/2021 3:45:00 PM 2.98 37.364 0.041 6.6 3.02 13.32
12/23/2021 4:00:00 PM 2.97 37.346 0.041 6.6 3.06 13.29
12/23/2021 4:15:00 PM 2.97 37.346 0.041 6.6 3 13.25
12/23/2021 4:30:00 PM 2.96 37.328 0.041 6.59 3.1 13.23
12/23/2021 4:45:00 PM 2.95 37.31 0.041 6.58 3.08 13.19
12/23/2021 5:00:00 PM 2.96 37.328 0.041 6.57 3.1 13.16
12/23/2021 5:15:00 PM 2.96 37.328 0.041 6.56 3.17 13.14
12/23/2021 5:30:00 PM 2.96 37.328 0.041 6.56 3.22 13.11
12/23/2021 5:45:00 PM 2.95 37.31 0.041 6.55 3.13 13.1
12/23/2021 6:00:00 PM 2.93 37.274 0.041 6.55 3.19 13.08
12/23/2021 6:15:00 PM 2.92 37.256 0.041 6.55 3.16 13.09
12/23/2021 6:30:00 PM 2.9 37.22 0.041 6.56 3.19 13.08
12/23/2021 6:45:00 PM 2.91 37.238 0.041 6.54 3.18 13.07
12/23/2021 7:00:00 PM 2.9 37.22 0.041 6.54 3.48 13.07
12/23/2021 7:15:00 PM 2.9 37.22 0.041 6.54 3.32 13.07
12/23/2021 7:30:00 PM 2.9 37.22 0.041 6.54 3.09 13.07
12/23/2021 7:45:00 PM 2.9 37.22 0.041 6.54 3.19 13.06
12/23/2021 8:00:00 PM 2.9 37.22 0.041 6.52 3.06 13.06
12/23/2021 8:15:00 PM 2.91 37.238 0.041 6.54 3.06 13.06
12/23/2021 8:30:00 PM 2.91 37.238 0.041 6.54 3.11 13.05
12/23/2021 8:45:00 PM 2.92 37.256 0.042 6.53 3.18 13.05
12/23/2021 9:00:00 PM 2.93 37.274 0.042 6.53 3.16 13.04
12/23/2021 9:15:00 PM 2.94 37.292 0.042 6.54 3.24 13.04
12/23/2021 9:30:00 PM 2.94 37.292 0.042 6.53 3.11 13.03
12/23/2021 9:45:00 PM 2.95 37.31 0.042 6.54 3.13 13.03
12/23/2021 10:00:00 PM 2.95 37.31 0.042 6.54 3.1 13.03
12/23/2021 10:15:00 PM 2.95 37.31 0.042 6.38 3.26 13.02
12/23/2021 10:30:00 PM 2.95 37.31 0.042 6.54 3.07 13.02
12/23/2021 10:45:00 PM 2.95 37.31 0.042 6.55 3.26 13.02
12/23/2021 11:00:00 PM 2.95 37.31 0.042 6.5 2.94 13.01
12/23/2021 11:15:00 PM 2.95 37.31 0.042 6.53 2.92 13
12/23/2021 11:30:00 PM 2.9 37.22 0.042 6.54 2.98 13.01
12/23/2021 11:45:00 PM 2.85 37.13 0.042 6.54 2.83 13.02
12/24/2021 12:00:00 AM 2.81 37.058 0.042 6.53 2.77 13.02
12/24/2021 12:15:00 AM 2.81 37.058 0.042 6.53 2.82 13.04
12/24/2021 12:30:00 AM 2.81 37.058 0.042 6.54 2.78 13.04
12/24/2021 12:45:00 AM 2.8 37.04 0.042 6.53 2.73 13.04
12/24/2021 1:00:00 AM 2.8 37.04 0.041 6.47 4.13 13.05
12/24/2021 1:15:00 AM 2.8 37.04 0.042 6.54 2.74 13.05
12/24/2021 1:30:00 AM 2.8 37.04 0.042 6.51 2.71 13.06
12/24/2021 1:45:00 AM 2.81 37.058 0.042 6.51 2.68 13.06
12/24/2021 2:00:00 AM 2.82 37.076 0.042 6.5 2.77 13.05
12/24/2021 2:15:00 AM 2.83 37.094 0.042 6.44 2.83 13.05
12/24/2021 2:30:00 AM 2.84 37.112 0.042 6.46 2.79 13.05
12/24/2021 2:45:00 AM 2.85 37.13 0.042 6.52 2.7 13.05
12/24/2021 3:00:00 AM 2.86 37.148 0.042 6.44 2.83 13.04
12/24/2021 3:15:00 AM 2.87 37.166 0.042 6.51 3.03 13.04
12/24/2021 3:30:00 AM 2.88 37.184 0.042 6.52 2.71 13.04
12/24/2021 3:45:00 AM 2.88 37.184 0.042 6.49 2.72 13.03
12/24/2021 4:00:00 AM 2.89 37.202 0.042 6.52 2.88 13.03
12/24/2021 4:15:00 AM 2.9 37.22 0.042 6.45 2.78 13.03
12/24/2021 4:30:00 AM 2.91 37.238 0.042 6.47 2.8 13.03
12/24/2021 4:45:00 AM 2.92 37.256 0.042 6.54 2.69 13.02
12/24/2021 5:00:00 AM 2.93 37.274 0.042 6.52 2.71 13.02
12/24/2021 5:15:00 AM 2.94 37.292 0.042 6.52 2.88 13.02
12/24/2021 5:30:00 AM 2.95 37.31 0.042 6.44 2.7 13.02
12/24/2021 5:45:00 AM 2.96 37.328 0.042 6.52 2.8 13.01
12/24/2021 6:00:00 AM 2.96 37.328 0.042 6.53 2.89 13.02
12/24/2021 6:15:00 AM 2.97 37.346 0.042 6.52 2.79 13.01
12/24/2021 6:30:00 AM 2.98 37.364 0.042 6.53 2.79 13.01
12/24/2021 6:45:00 AM 3 37.4 0.042 6.43 2.72 13
12/24/2021 7:00:00 AM 3.01 37.418 0.042 6.5 2.72 13
12/24/2021 7:15:00 AM 3.01 37.418 0.042 6.54 2.7 12.99
12/24/2021 7:30:00 AM 3.02 37.436 0.042 6.53 2.73 13
12/24/2021 7:45:00 AM 3.04 37.472 0.042 6.52 2.81 13
12/24/2021 8:00:00 AM 3.05 37.49 0.042 6.52 2.77 13
12/24/2021 8:15:00 AM 3.06 37.508 0.042 6.54 2.75 13.01
12/24/2021 8:30:00 AM 3.08 37.544 0.042 6.54 2.86 13.03
12/24/2021 8:45:00 AM 3.09 37.562 0.042 6.56 2.77 13.04
12/24/2021 9:00:00 AM 3.11 37.598 0.042 6.56 2.66 13.07
12/24/2021 9:15:00 AM 3.14 37.652 0.042 6.57 2.75 13.09
12/24/2021 9:30:00 AM 3.17 37.706 0.042 6.58 2.75 13.11
12/24/2021 9:45:00 AM 3.21 37.778 0.042 6.59 2.82 13.14
12/24/2021 10:00:00 AM 3.25 37.85 0.041 6.6 2.89 13.15
12/24/2021 10:15:00 AM 3.29 37.922 0.041 6.61 2.79 13.16
12/24/2021 10:30:00 AM 3.35 38.03 0.041 6.49 2.84 13.16
12/24/2021 10:45:00 AM 3.4 38.12 0.041 6.63 2.67 13.16
12/24/2021 11:00:00 AM 3.44 38.192 0.041 6.62 2.67 13.15
12/24/2021 11:15:00 AM 3.48 38.264 0.041 6.62 2.79 13.13
12/24/2021 11:30:00 AM 3.55 38.39 0.041 6.56 2.75 13.11
12/24/2021 11:45:00 AM 3.66 38.588 0.041 6.62 2.71 13.07
12/24/2021 12:00:00 PM 3.75 38.75 0.041 6.62 2.68 13.05
12/24/2021 12:15:00 PM 3.82 38.876 0.041 6.62 2.62 13.01
12/24/2021 12:30:00 PM 3.91 39.038 0.041 6.63 2.85 12.99
12/24/2021 12:45:00 PM 4 39.2 0.041 6.63 2.65 12.96
12/24/2021 1:00:00 PM 4.09 39.362 0.041 6.63 2.73 12.94
12/24/2021 1:15:00 PM 4.18 39.524 0.041 6.62 2.71 12.9
12/24/2021 1:30:00 PM 4.27 39.686 0.041 6.6 2.63 12.87
12/24/2021 1:45:00 PM 4.36 39.848 0.041 6.63 2.63 12.84
12/24/2021 2:00:00 PM 4.43 39.974 0.041 6.54 2.62 12.81
12/24/2021 2:15:00 PM 4.49 40.082 0.041 6.64 2.79 12.8
12/24/2021 2:30:00 PM 4.52 40.136 0.041 6.62 2.76 12.78
12/24/2021 2:45:00 PM 4.54 40.172 0.041 6.61 2.71 12.76
12/24/2021 3:00:00 PM 4.56 40.208 0.041 6.59 2.67 12.74
12/24/2021 3:15:00 PM 4.57 40.226 0.041 6.6 2.64 12.73
12/24/2021 3:30:00 PM 4.58 40.244 0.041 6.6 2.73 12.72
12/24/2021 3:45:00 PM 4.58 40.244 0.041 6.6 2.72 12.7
12/24/2021 4:00:00 PM 4.55 40.19 0.041 6.6 2.73 12.67
12/24/2021 4:15:00 PM 4.52 40.136 0.041 6.45 2.69 12.65
12/24/2021 4:30:00 PM 4.49 40.082 0.041 6.56 2.7 12.62
12/24/2021 4:45:00 PM 4.46 40.028 0.041 6.58 2.69 12.59
12/24/2021 5:00:00 PM 4.43 39.974 0.041 6.54 2.71 12.56
12/24/2021 5:15:00 PM 4.41 39.938 0.041 6.43 2.75 12.54
12/24/2021 5:30:00 PM 4.39 39.902 0.041 6.52 2.75 12.52
12/24/2021 5:45:00 PM 4.39 39.902 0.041 6.52 2.73 12.5
12/24/2021 6:00:00 PM 4.38 39.884 0.041 6.52 2.72 12.5
12/24/2021 6:15:00 PM 4.37 39.866 0.041 6.51 2.8 12.49
12/24/2021 6:30:00 PM 4.37 39.866 0.041 6.51 2.76 12.48
12/24/2021 6:45:00 PM 4.36 39.848 0.041 6.5 2.8 12.48
12/24/2021 7:00:00 PM 4.36 39.848 0.042 6.5 2.79 12.48
12/24/2021 7:15:00 PM 4.36 39.848 0.042 6.46 2.87 12.48
12/24/2021 7:30:00 PM 4.36 39.848 0.042 6.51 2.84 12.47
12/24/2021 7:45:00 PM 4.37 39.866 0.042 6.39 2.83 12.47
12/24/2021 8:00:00 PM 4.37 39.866 0.042 6.49 2.79 12.46
12/24/2021 8:15:00 PM 4.38 39.884 0.042 6.48 2.84 12.46
12/24/2021 8:30:00 PM 4.38 39.884 0.042 6.5 2.87 12.45
12/24/2021 8:45:00 PM 4.39 39.902 0.042 6.49 2.8 12.45
12/24/2021 9:00:00 PM 4.4 39.92 0.042 6.49 2.86 12.44
12/24/2021 9:15:00 PM 4.41 39.938 0.042 6.48 2.73 12.44
12/24/2021 9:30:00 PM 4.42 39.956 0.042 6.5 2.96 12.43
12/24/2021 9:45:00 PM 4.43 39.974 0.042 6.45 2.84 12.43
12/24/2021 10:00:00 PM 4.44 39.992 0.042 6.5 2.81 12.43
12/24/2021 10:15:00 PM 4.44 39.992 0.042 6.46 2.86 12.43
12/24/2021 10:30:00 PM 4.45 40.01 0.042 6.51 2.83 12.42
12/24/2021 10:45:00 PM 4.45 40.01 0.042 6.5 2.85 12.42
12/24/2021 11:00:00 PM 4.46 40.028 0.042 6.5 2.94 12.4
12/24/2021 11:15:00 PM 4.47 40.046 0.042 6.51 3.82 12.41
12/24/2021 11:30:00 PM 4.47 40.046 0.042 6.5 2.88 12.4
12/24/2021 11:45:00 PM 4.48 40.064 0.042 6.49 2.83 12.4
12/25/2021 12:00:00 AM 4.48 40.064 0.042 6.5 2.84 12.39
12/25/2021 12:15:00 AM 4.49 40.082 0.042 6.42 2.82 12.38
12/25/2021 12:30:00 AM 4.49 40.082 0.042 6.51 2.89 12.38
12/25/2021 12:45:00 AM 4.5 40.1 0.042 6.5 2.89 12.38
12/25/2021 1:00:00 AM 4.5 40.1 0.042 6.4 2.9 12.37
12/25/2021 1:15:00 AM 4.51 40.118 0.042 6.5 2.83 12.37
12/25/2021 1:30:00 AM 4.52 40.136 0.042 6.4 2.83 12.36
12/25/2021 1:45:00 AM 4.52 40.136 0.042 6.5 2.81 12.35
12/25/2021 2:00:00 AM 4.53 40.154 0.042 6.51 2.8 12.35
12/25/2021 2:15:00 AM 4.53 40.154 0.042 6.5 2.75 12.35
12/25/2021 2:30:00 AM 4.54 40.172 0.042 6.49 2.79 12.34
12/25/2021 2:45:00 AM 4.54 40.172 0.042 6.51 2.82 12.34
12/25/2021 3:00:00 AM 4.55 40.19 0.042 6.48 2.8 12.33
12/25/2021 3:15:00 AM 4.55 40.19 0.042 6.42 2.87 12.33
12/25/2021 3:30:00 AM 4.56 40.208 0.042 6.49 2.85 12.32
12/25/2021 3:45:00 AM 4.57 40.226 0.042 6.47 2.9 12.32
12/25/2021 4:00:00 AM 4.57 40.226 0.042 6.5 3.16 12.32
12/25/2021 4:15:00 AM 4.58 40.244 0.042 6.51 2.79 12.31
12/25/2021 4:30:00 AM 4.58 40.244 0.042 6.44 2.89 12.31
12/25/2021 4:45:00 AM 4.59 40.262 0.042 6.47 2.86 12.3
12/25/2021 5:00:00 AM 4.59 40.262 0.042 6.51 2.72 12.29
12/25/2021 5:15:00 AM 4.6 40.28 0.042 6.5 2.79 12.29
12/25/2021 5:30:00 AM 4.61 40.298 0.042 6.49 2.87 12.28
12/25/2021 5:45:00 AM 4.61 40.298 0.042 6.5 3.22 12.27
12/25/2021 6:00:00 AM 4.62 40.316 0.042 6.49 3.2 12.28
12/25/2021 6:15:00 AM 4.62 40.316 0.042 6.51 3.24 12.27
12/25/2021 6:30:00 AM 4.62 40.316 0.042 6.51 3.27 12.27
12/25/2021 6:45:00 AM 4.63 40.334 0.042 6.5 3.23 12.26
12/25/2021 7:00:00 AM 4.63 40.334 0.042 6.5 3.3 12.26
12/25/2021 7:15:00 AM 4.63 40.334 0.042 6.47 3.24 12.26
12/25/2021 7:30:00 AM 4.64 40.352 0.042 6.49 3.37 12.25
12/25/2021 7:45:00 AM 4.64 40.352 0.042 6.5 3.27 12.25
12/25/2021 8:00:00 AM 4.64 40.352 0.042 6.5 3.26 12.25
12/25/2021 8:15:00 AM 4.65 40.37 0.042 6.5 3.86 12.25
12/25/2021 8:30:00 AM 4.66 40.388 0.042 6.49 3.32 12.25
12/25/2021 8:45:00 AM 4.67 40.406 0.042 6.49 3.37 12.26
12/25/2021 9:00:00 AM 4.67 40.406 0.042 6.51 3.29 12.27
12/25/2021 9:15:00 AM 4.68 40.424 0.042 6.4 3.29 12.27
12/25/2021 9:30:00 AM 4.69 40.442 0.042 6.48 3.37 12.29
12/25/2021 9:45:00 AM 4.7 40.46 0.041 6.52 3.36 12.31
12/25/2021 10:00:00 AM 4.72 40.496 0.041 6.51 3.39 12.33
12/25/2021 10:15:00 AM 4.74 40.532 0.041 6.54 3.42 12.34
12/25/2021 10:30:00 AM 4.76 40.568 0.041 6.52 3.37 12.35
12/25/2021 10:45:00 AM 4.78 40.604 0.041 6.48 3.34 12.35
12/25/2021 11:00:00 AM 4.8 40.64 0.041 6.55 3.38 12.36
12/25/2021 11:15:00 AM 4.83 40.694 0.039 6.46 4.75 12.37
12/25/2021 11:30:00 AM 4.86 40.748 0.039 6.52 4.59 12.36
12/25/2021 11:45:00 AM 4.88 40.784 0.042 6.55 3.38 12.37
12/25/2021 12:00:00 PM 4.91 40.838 0.042 6.56 3.46 12.36
12/25/2021 12:15:00 PM 4.95 40.91 0.042 6.57 3.57 12.36
12/25/2021 12:30:00 PM 4.98 40.964 0.042 6.58 3.43 12.36
12/25/2021 12:45:00 PM 5.03 41.054 0.042 6.59 3.56 12.36
12/25/2021 1:00:00 PM 5.09 41.162 0.042 6.59 3.57 12.37
12/25/2021 1:15:00 PM 5.13 41.234 0.042 6.59 3.46 12.35
12/25/2021 1:30:00 PM 5.16 41.288 0.042 6.58 3.48 12.31
12/25/2021 1:45:00 PM 5.2 41.36 0.042 6.59 3.6 12.29
12/25/2021 2:00:00 PM 5.23 41.414 0.042 6.58 3.59 12.28
12/25/2021 2:15:00 PM 5.26 41.468 0.042 6.59 3.49 12.27
12/25/2021 2:30:00 PM 5.29 41.522 0.042 6.57 3.55 12.25
12/25/2021 2:45:00 PM 5.34 41.612 0.042 6.56 3.31 12.25
12/25/2021 3:00:00 PM 5.38 41.684 0.042 6.59 3.44 12.24
12/25/2021 3:15:00 PM 5.42 41.756 0.042 6.58 3.44 12.22
12/25/2021 3:30:00 PM 5.45 41.81 0.04 6.57 4.56 12.19
12/25/2021 3:45:00 PM 5.48 41.864 0.042 6.57 3.42 12.17
12/25/2021 4:00:00 PM 5.51 41.918 0.042 6.58 3.39 12.13
12/25/2021 4:15:00 PM 5.53 41.954 0.042 6.56 3.36 12.1
12/25/2021 4:30:00 PM 5.55 41.99 0.042 6.55 3.37 12.08
12/25/2021 4:45:00 PM 5.56 42.008 0.042 6.55 3.41 12.04
12/25/2021 5:00:00 PM 5.58 42.044 0.043 6.53 3.36 12.01
12/25/2021 5:15:00 PM 5.59 42.062 0.043 6.53 3.37 11.99
12/25/2021 5:30:00 PM 5.6 42.08 0.043 6.51 3.42 11.97
12/25/2021 5:45:00 PM 5.61 42.098 0.043 6.5 3.42 11.96
12/25/2021 6:00:00 PM 5.62 42.116 0.043 6.5 3.48 11.95
12/25/2021 6:15:00 PM 5.63 42.134 0.043 6.5 3.49 11.94
12/25/2021 6:30:00 PM 5.64 42.152 0.043 6.5 3.31 11.94
12/25/2021 6:45:00 PM 5.65 42.17 0.043 6.48 3.44 11.94
12/25/2021 7:00:00 PM 5.67 42.206 0.043 6.49 3.48 11.93
12/25/2021 7:15:00 PM 5.69 42.242 0.043 6.48 3.43 11.92
12/25/2021 7:30:00 PM 5.7 42.26 0.043 6.5 3.42 11.92
12/25/2021 7:45:00 PM 5.71 42.278 0.043 6.5 3.57 11.92
12/25/2021 8:00:00 PM 5.72 42.296 0.043 6.49 3.5 11.92
12/25/2021 8:15:00 PM 5.73 42.314 0.043 6.36 3.53 11.92
12/25/2021 8:30:00 PM 5.74 42.332 0.043 6.51 3.51 11.92
12/25/2021 8:45:00 PM 5.76 42.368 0.043 6.5 3.52 11.92
12/25/2021 9:00:00 PM 5.78 42.404 0.043 6.51 3.51 11.92
12/25/2021 9:15:00 PM 5.8 42.44 0.043 6.51 3.45 11.91
12/25/2021 9:30:00 PM 5.82 42.476 0.043 6.49 3.42 11.91
12/25/2021 9:45:00 PM 5.83 42.494 0.043 6.51 3.44 11.91
12/25/2021 10:00:00 PM 5.84 42.512 0.043 6.5 3.46 11.91
12/25/2021 10:15:00 PM 5.85 42.53 0.043 6.41 3.42 11.91
12/25/2021 10:30:00 PM 5.87 42.566 0.043 6.51 4.07 11.91
12/25/2021 10:45:00 PM 5.88 42.584 0.043 6.51 3.35 11.91
12/25/2021 11:00:00 PM 5.88 42.584 0.043 6.5 3.48 11.91
12/25/2021 11:15:00 PM 5.87 42.566 0.043 6.49 3.42 11.91
12/25/2021 11:30:00 PM 5.84 42.512 0.043 6.5 3.46 11.92
12/25/2021 11:45:00 PM 5.82 42.476 0.043 6.51 3.49 11.93
12/26/2021 12:00:00 AM 5.8 42.44 0.043 6.5 3.44 11.94
12/26/2021 12:15:00 AM 5.79 42.422 0.043 6.5 3.35 11.94
12/26/2021 12:30:00 AM 5.79 42.422 0.043 6.39 3.34 11.94
12/26/2021 12:45:00 AM 5.8 42.44 0.043 6.51 3.37 11.94
12/26/2021 1:00:00 AM 5.79 42.422 0.043 6.5 3.43 11.95
12/26/2021 1:15:00 AM 5.77 42.386 0.043 6.46 3.33 11.95
12/26/2021 1:30:00 AM 5.74 42.332 0.043 6.51 3.32 11.96
12/26/2021 1:45:00 AM 5.72 42.296 0.043 6.5 3.46 11.97
12/26/2021 2:00:00 AM 5.69 42.242 0.043 6.49 3.4 11.98
12/26/2021 2:15:00 AM 5.67 42.206 0.043 6.49 3.5 11.99
12/26/2021 2:30:00 AM 5.65 42.17 0.043 6.51 3.37 12
12/26/2021 2:45:00 AM 5.64 42.152 0.043 6.5 3.38 12.01
12/26/2021 3:00:00 AM 5.62 42.116 0.043 6.5 3.44 12.02
12/26/2021 3:15:00 AM 5.6 42.08 0.043 6.48 3.38 12.04
12/26/2021 3:30:00 AM 5.57 42.026 0.043 6.47 3.35 12.05
12/26/2021 3:45:00 AM 5.55 41.99 0.043 6.5 3.39 12.06
12/26/2021 4:00:00 AM 5.52 41.936 0.043 6.49 3.34 12.07
12/26/2021 4:15:00 AM 5.49 41.882 0.043 6.5 3.4 12.08
12/26/2021 4:30:00 AM 5.45 41.81 0.042 6.45 4.6 12.09
12/26/2021 4:45:00 AM 5.42 41.756 0.042 6.45 4.81 12.1
12/26/2021 5:00:00 AM 5.4 41.72 0.043 6.5 3.34 12.11
12/26/2021 5:15:00 AM 5.38 41.684 0.043 6.45 3.36 12.12
12/26/2021 5:30:00 AM 5.35 41.63 0.043 6.52 3.99 12.13
12/26/2021 5:45:00 AM 5.32 41.576 0.043 6.5 3.31 12.14
12/26/2021 6:00:00 AM 5.29 41.522 0.043 6.5 3.41 12.15
12/26/2021 6:15:00 AM 5.27 41.486 0.043 6.51 3.46 12.17
12/26/2021 6:30:00 AM 5.24 41.432 0.043 6.51 3.4 12.17
12/26/2021 6:45:00 AM 5.2 41.36 0.043 6.51 3.42 12.19
12/26/2021 7:00:00 AM 5.16 41.288 0.043 6.51 3.26 12.2
12/26/2021 7:15:00 AM 5.11 41.198 0.043 6.5 3.35 12.22
12/26/2021 7:30:00 AM 5.08 41.144 0.043 6.51 3.4 12.24
12/26/2021 7:45:00 AM 5.05 41.09 0.043 6.51 3.31 12.26
12/26/2021 8:00:00 AM 5 41 0.043 6.51 3.41 12.29
12/26/2021 8:15:00 AM 4.96 40.928 0.043 6.51 3.37 12.32
12/26/2021 8:30:00 AM 4.93 40.874 0.043 6.53 3.5 12.36
12/26/2021 8:45:00 AM 4.9 40.82 0.043 6.53 3.32 12.41
12/26/2021 9:00:00 AM 4.89 40.802 0.042 6.49 4.8 12.47
12/26/2021 9:15:00 AM 4.88 40.784 0.043 6.56 3.54 12.52
12/26/2021 9:30:00 AM 4.88 40.784 0.043 6.58 3.33 12.54
12/26/2021 9:45:00 AM 4.87 40.766 0.043 6.59 3.32 12.55
12/26/2021 10:00:00 AM 4.86 40.748 0.042 6.52 4.48 12.58
12/26/2021 10:15:00 AM 4.85 40.73 0.043 6.56 3.34 12.59
12/26/2021 10:30:00 AM 4.87 40.766 0.043 6.6 3.32 12.63
12/26/2021 10:45:00 AM 4.91 40.838 0.043 6.63 3.27 12.62
12/26/2021 11:00:00 AM 4.97 40.946 0.042 6.6 4.68 12.63
12/26/2021 11:15:00 AM 5.03 41.054 0.043 6.63 3.26 12.62
12/26/2021 11:30:00 AM 5.07 41.126 0.043 6.65 3.22 12.62
12/26/2021 11:45:00 AM 5.15 41.27 0.043 6.65 3.21 12.61
12/26/2021 12:00:00 PM 5.2 41.36 0.042 6.65 3.24 12.6
12/26/2021 12:15:00 PM 5.23 41.414 0.042 6.55 3.24 12.59
12/26/2021 12:30:00 PM 5.26 41.468 0.042 6.66 3.28 12.57
12/26/2021 12:45:00 PM 5.31 41.558 0.042 6.64 3.17 12.55
12/26/2021 1:00:00 PM 5.33 41.594 0.042 6.64 3.36 12.54
12/26/2021 1:15:00 PM 5.35 41.63 0.042 6.65 3.27 12.54
12/26/2021 1:30:00 PM 5.36 41.648 0.042 6.63 3.14 12.54
12/26/2021 1:45:00 PM 5.37 41.666 0.042 6.65 3.2 12.54
12/26/2021 2:00:00 PM 5.38 41.684 0.042 6.63 3.24 12.52
12/26/2021 2:15:00 PM 5.39 41.702 0.042 6.63 3.29 12.52
12/26/2021 2:30:00 PM 5.38 41.684 0.042 6.64 3.35 12.52
12/26/2021 2:45:00 PM 5.37 41.666 0.042 6.62 3.25 12.51
12/26/2021 3:00:00 PM 5.36 41.648 0.042 6.64 3.32 12.5
12/26/2021 3:15:00 PM 5.33 41.594 0.042 6.62 3.41 12.49
12/26/2021 3:30:00 PM 5.32 41.576 0.042 6.62 3.27 12.48
12/26/2021 3:45:00 PM 5.29 41.522 0.042 6.62 3.2 12.47
12/26/2021 4:00:00 PM 5.24 41.432 0.042 6.6 3.28 12.45
12/26/2021 4:15:00 PM 5.18 41.324 0.042 6.59 3.31 12.43
12/26/2021 4:30:00 PM 5.12 41.216 0.042 6.58 3.25 12.41
12/26/2021 4:45:00 PM 5.06 41.108 0.042 6.58 3.52 12.41
12/26/2021 5:00:00 PM 5 41 0.043 6.57 3.35 12.39
12/26/2021 5:15:00 PM 4.95 40.91 0.043 6.51 3.27 12.39
12/26/2021 5:30:00 PM 4.89 40.802 0.043 6.55 3.4 12.39
12/26/2021 5:45:00 PM 4.82 40.676 0.043 6.54 3.36 12.39
12/26/2021 6:00:00 PM 4.76 40.568 0.043 6.54 3.37 12.41
12/26/2021 6:15:00 PM 4.7 40.46 0.043 6.53 3.36 12.42
12/26/2021 6:30:00 PM 4.63 40.334 0.043 6.53 3.54 12.44
12/26/2021 6:45:00 PM 4.57 40.226 0.041 6.47 4.54 12.45
12/26/2021 7:00:00 PM 4.51 40.118 0.043 6.53 3.41 12.48
12/26/2021 7:15:00 PM 4.45 40.01 0.043 6.52 3.42 12.5
12/26/2021 7:30:00 PM 4.4 39.92 0.043 6.52 3.39 12.52
12/26/2021 7:45:00 PM 4.34 39.812 0.043 6.51 3.45 12.54
12/26/2021 8:00:00 PM 4.29 39.722 0.043 6.51 3.38 12.56
12/26/2021 8:15:00 PM 4.24 39.632 0.041 6.5 4.72 12.58
12/26/2021 8:30:00 PM 4.19 39.542 0.043 6.51 3.67 12.59
12/26/2021 8:45:00 PM 4.15 39.47 0.043 6.53 3.51 12.61
12/26/2021 9:00:00 PM 4.11 39.398 0.043 6.52 3.37 12.63
12/26/2021 9:15:00 PM 4.08 39.344 0.043 6.52 3.5 12.64
12/26/2021 9:30:00 PM 4.05 39.29 0.043 6.52 3.43 12.65
12/26/2021 9:45:00 PM 4.03 39.254 0.043 6.53 3.51 12.66
12/26/2021 10:00:00 PM 4.01 39.218 0.043 6.52 3.5 12.67
12/26/2021 10:15:00 PM 4.01 39.218 0.043 6.53 3.43 12.68
12/26/2021 10:30:00 PM 4 39.2 0.043 6.53 3.48 12.68
12/26/2021 10:45:00 PM 3.99 39.182 0.043 6.53 3.56 12.69
12/26/2021 11:00:00 PM 3.98 39.164 0.043 6.52 3.53 12.69
12/26/2021 11:15:00 PM 3.98 39.164 0.043 6.51 3.46 12.69
12/26/2021 11:30:00 PM 3.97 39.146 0.043 6.55 3.57 12.7
12/26/2021 11:45:00 PM 3.96 39.128 0.043 6.54 3.56 12.71
12/27/2021 12:00:00 AM 3.95 39.11 0.043 6.54 3.65 12.71
12/27/2021 12:15:00 AM 3.93 39.074 0.043 6.54 3.45 12.72
12/27/2021 12:30:00 AM 3.92 39.056 0.043 6.54 3.52 12.72
12/27/2021 12:45:00 AM 3.91 39.038 0.043 6.54 3.5 12.72
12/27/2021 1:00:00 AM 3.9 39.02 0.043 6.54 3.51 12.73
12/27/2021 1:15:00 AM 3.89 39.002 0.043 6.54 3.4 12.73
12/27/2021 1:30:00 AM 3.86 38.948 0.043 6.55 3.45 12.73
12/27/2021 1:45:00 AM 3.83 38.894 0.043 6.54 3.43 12.74
12/27/2021 2:00:00 AM 3.81 38.858 0.043 6.54 3.55 12.74
12/27/2021 2:15:00 AM 3.78 38.804 0.043 6.54 3.39 12.75
12/27/2021 2:30:00 AM 3.75 38.75 0.043 6.54 3.44 12.76
12/27/2021 2:45:00 AM 3.72 38.696 0.043 6.54 3.53 12.77
12/27/2021 3:00:00 AM 3.71 38.678 0.043 6.54 3.58 12.77
12/27/2021 3:15:00 AM 3.69 38.642 0.043 6.54 3.49 12.78
12/27/2021 3:30:00 AM 3.67 38.606 0.043 6.54 3.49 12.78
12/27/2021 3:45:00 AM 3.66 38.588 0.043 6.54 3.43 12.79
12/27/2021 4:00:00 AM 3.66 38.588 0.043 6.54 3.47 12.79
12/27/2021 4:15:00 AM 3.65 38.57 0.043 6.54 3.43 12.8
12/27/2021 4:30:00 AM 3.64 38.552 0.043 6.55 3.41 12.8
12/27/2021 4:45:00 AM 3.64 38.552 0.043 6.54 3.45 12.81
12/27/2021 5:00:00 AM 3.62 38.516 0.043 6.54 3.44 12.81
12/27/2021 5:15:00 AM 3.61 38.498 0.043 6.54 3.41 12.81
12/27/2021 5:30:00 AM 3.6 38.48 0.043 6.55 3.44 12.81
12/27/2021 5:45:00 AM 3.6 38.48 0.043 6.55 3.41 12.81
12/27/2021 6:00:00 AM 3.6 38.48 0.043 6.55 3.56 12.81
12/27/2021 6:15:00 AM 3.59 38.462 0.043 6.52 3.52 12.81
12/27/2021 6:30:00 AM 3.59 38.462 0.043 6.54 3.44 12.81
12/27/2021 6:45:00 AM 3.58 38.444 0.043 6.53 3.42 12.81
12/27/2021 7:00:00 AM 3.58 38.444 0.043 6.55 3.4 12.81
12/27/2021 7:15:00 AM 3.58 38.444 0.043 6.54 3.49 12.81
12/27/2021 7:30:00 AM 3.58 38.444 0.043 6.55 3.44 12.81
12/27/2021 7:45:00 AM 3.58 38.444 0.043 6.56 3.02 12.82
12/27/2021 8:00:00 AM 3.58 38.444 0.043 6.53 3.04 12.82
12/27/2021 8:15:00 AM 3.58 38.444 0.043 6.57 3.02 12.83
12/27/2021 8:30:00 AM 3.57 38.426 0.043 6.56 2.99 12.83
12/27/2021 8:45:00 AM 3.56 38.408 0.043 6.56 3.04 12.84
12/27/2021 9:00:00 AM 3.53 38.354 0.043 6.57 2.99 12.86
12/27/2021 9:15:00 AM 3.53 38.354 0.043 6.57 3.01 12.9
12/27/2021 9:30:00 AM 3.55 38.39 0.042 6.53 4.35 12.94
12/27/2021 9:45:00 AM 3.57 38.426 0.043 6.6 3 12.97
12/27/2021 10:00:00 AM 3.59 38.462 0.043 6.61 3.01 12.99
12/27/2021 10:15:00 AM 3.61 38.498 0.043 6.62 2.85 13.01
12/27/2021 10:30:00 AM 3.61 38.498 0.043 6.54 2.97 13.02
12/27/2021 10:45:00 AM 3.63 38.534 0.043 6.63 2.83 13.03
12/27/2021 11:00:00 AM 3.64 38.552 0.043 6.6 2.81 13.02
12/27/2021 11:15:00 AM 3.64 38.552 0.043 6.64 2.86 13.02
12/27/2021 11:30:00 AM 3.65 38.57 0.043 6.6 2.85 13.02
12/27/2021 11:45:00 AM 3.66 38.588 0.043 6.57 2.78 13.01
12/27/2021 12:00:00 PM 3.64 38.552 0.043 6.57 2.8 12.99
12/27/2021 12:15:00 PM 3.64 38.552 0.042 6.6 4.08 12.98
12/27/2021 12:30:00 PM 3.63 38.534 0.043 6.63 2.84 12.99
12/27/2021 12:45:00 PM 3.64 38.552 0.042 6.66 2.8 12.99
12/27/2021 1:00:00 PM 3.66 38.588 0.042 6.63 2.82 12.98
12/27/2021 1:15:00 PM 3.68 38.624 0.042 6.54 2.8 12.96
12/27/2021 1:30:00 PM 3.69 38.642 0.042 6.65 2.77 12.95
12/27/2021 1:45:00 PM 3.69 38.642 0.042 6.62 2.81 12.95
12/27/2021 2:00:00 PM 3.7 38.66 0.042 6.63 2.83 12.94
12/27/2021 2:15:00 PM 3.7 38.66 0.042 6.59 2.94 12.91
12/27/2021 2:30:00 PM 3.71 38.678 0.042 6.6 2.8 12.9
12/27/2021 2:45:00 PM 3.71 38.678 0.042 6.63 2.79 12.88
12/27/2021 3:00:00 PM 3.72 38.696 0.042 6.59 2.81 12.86
12/27/2021 3:15:00 PM 3.72 38.696 0.042 6.6 2.79 12.84
12/27/2021 3:30:00 PM 3.72 38.696 0.042 6.6 2.77 12.81
12/27/2021 3:45:00 PM 3.72 38.696 0.043 6.6 2.98 12.8
12/27/2021 4:00:00 PM 3.72 38.696 0.043 6.61 2.81 12.78
12/27/2021 4:15:00 PM 3.72 38.696 0.043 6.58 2.88 12.77
12/27/2021 4:30:00 PM 3.72 38.696 0.043 6.58 2.78 12.75
12/27/2021 4:45:00 PM 3.72 38.696 0.043 6.58 2.74 12.74
12/27/2021 5:00:00 PM 3.72 38.696 0.043 6.57 2.85 12.72
12/27/2021 5:15:00 PM 3.72 38.696 0.043 6.56 2.85 12.71
12/27/2021 5:30:00 PM 3.72 38.696 0.043 6.57 2.83 12.69
12/27/2021 5:45:00 PM 3.72 38.696 0.043 6.57 2.84 12.69
12/27/2021 6:00:00 PM 3.72 38.696 0.043 6.56 2.9 12.68
12/27/2021 6:15:00 PM 3.72 38.696 0.043 6.56 2.85 12.67
12/27/2021 6:30:00 PM 3.72 38.696 0.043 6.56 2.91 12.67
12/27/2021 6:45:00 PM 3.72 38.696 0.043 6.51 3.07 12.68
12/27/2021 7:00:00 PM 3.72 38.696 0.043 6.56 2.97 12.68
12/27/2021 7:15:00 PM 3.72 38.696 0.043 6.56 2.98 12.68
12/27/2021 7:30:00 PM 3.72 38.696 0.043 6.56 3.07 12.67
12/27/2021 7:45:00 PM 3.72 38.696 0.043 6.55 3.09 12.66
12/27/2021 8:00:00 PM 3.73 38.714 0.043 6.55 3.09 12.66
12/27/2021 8:15:00 PM 3.74 38.732 0.043 6.56 3.01 12.66
12/27/2021 8:30:00 PM 3.74 38.732 0.043 6.55 2.96 12.66
12/27/2021 8:45:00 PM 3.75 38.75 0.043 6.43 2.91 12.65
12/27/2021 9:00:00 PM 3.76 38.768 0.043 6.53 3.02 12.65
12/27/2021 9:15:00 PM 3.76 38.768 0.043 6.5 3.05 12.64
12/27/2021 9:30:00 PM 3.77 38.786 0.043 6.54 3.03 12.63
12/27/2021 9:45:00 PM 3.78 38.804 0.043 6.53 3.09 12.64
12/27/2021 10:00:00 PM 3.78 38.804 0.043 6.56 3.15 12.63
12/27/2021 10:15:00 PM 3.79 38.822 0.043 6.47 3.04 12.63
12/27/2021 10:30:00 PM 3.79 38.822 0.043 6.54 3.05 12.62
12/27/2021 10:45:00 PM 3.8 38.84 0.043 6.54 3.01 12.62
12/27/2021 11:00:00 PM 3.81 38.858 0.043 6.54 3.08 12.62
12/27/2021 11:15:00 PM 3.82 38.876 0.043 6.55 3.09 12.61
12/27/2021 11:30:00 PM 3.82 38.876 0.043 6.54 3.16 12.61
12/27/2021 11:45:00 PM 3.83 38.894 0.043 6.45 2.99 12.61
12/28/2021 12:00:00 AM 3.84 38.912 0.043 6.53 3.08 12.61
12/28/2021 12:15:00 AM 3.85 38.93 0.043 6.52 3.02 12.61
12/28/2021 12:30:00 AM 3.86 38.948 0.043 6.55 2.98 12.61
12/28/2021 12:45:00 AM 3.87 38.966 0.043 6.54 2.98 12.6
12/28/2021 1:00:00 AM 3.88 38.984 0.043 6.51 3.02 12.6
12/28/2021 1:15:00 AM 3.89 39.002 0.043 6.54 3.02 12.6
12/28/2021 1:30:00 AM 3.9 39.02 0.043 6.53 3.02 12.59
12/28/2021 1:45:00 AM 3.91 39.038 0.043 6.54 3.08 12.59
12/28/2021 2:00:00 AM 3.92 39.056 0.043 6.45 3 12.59
12/28/2021 2:15:00 AM 3.92 39.056 0.043 6.52 3.05 12.59
12/28/2021 2:30:00 AM 3.93 39.074 0.043 6.53 3.01 12.59
12/28/2021 2:45:00 AM 3.93 39.074 0.043 6.54 2.98 12.59
12/28/2021 3:00:00 AM 3.93 39.074 0.043 6.52 3.02 12.59
12/28/2021 3:15:00 AM 3.93 39.074 0.043 6.55 3.11 12.59
12/28/2021 3:30:00 AM 3.92 39.056 0.043 6.55 3.04 12.59
12/28/2021 3:45:00 AM 3.91 39.038 0.043 6.55 2.99 12.6
12/28/2021 4:00:00 AM 3.88 38.984 0.043 6.54 2.9 12.6
12/28/2021 4:15:00 AM 3.86 38.948 0.043 6.54 3.06 12.61
12/28/2021 4:30:00 AM 3.84 38.912 0.043 6.53 2.95 12.62
12/28/2021 4:45:00 AM 3.82 38.876 0.043 6.53 3.02 12.62
12/28/2021 5:00:00 AM 3.8 38.84 0.043 6.42 3 12.63
12/28/2021 5:15:00 AM 3.78 38.804 0.043 6.55 3 12.63
12/28/2021 5:30:00 AM 3.76 38.768 0.043 6.54 3.01 12.65
12/28/2021 5:45:00 AM 3.73 38.714 0.043 6.53 3 12.65
12/28/2021 6:00:00 AM 3.7 38.66 0.043 6.53 3.05 12.66
12/28/2021 6:15:00 AM 3.67 38.606 0.043 6.52 3.09 12.67
12/28/2021 6:30:00 AM 3.64 38.552 0.043 6.53 2.99 12.69
12/28/2021 6:45:00 AM 3.62 38.516 0.043 6.48 3.24 12.7
12/28/2021 7:00:00 AM 3.59 38.462 0.043 6.53 2.93 12.71
12/28/2021 7:15:00 AM 3.56 38.408 0.043 6.53 3.22 12.72
12/28/2021 7:30:00 AM 3.53 38.354 0.043 6.43 3 12.74
12/28/2021 7:45:00 AM 3.5 38.3 0.043 6.54 2.99 12.76
12/28/2021 8:00:00 AM 3.48 38.264 0.043 6.54 3 12.78
12/28/2021 8:15:00 AM 3.46 38.228 0.043 6.52 3.01 12.81
12/28/2021 8:30:00 AM 3.44 38.192 0.043 6.45 2.93 12.85
12/28/2021 8:45:00 AM 3.43 38.174 0.043 6.57 3.01 12.88
12/28/2021 9:00:00 AM 3.42 38.156 0.043 6.57 2.95 12.91
12/28/2021 9:15:00 AM 3.41 38.138 0.043 6.57 3.71 12.93
12/28/2021 9:30:00 AM 3.42 38.156 0.043 6.59 3.01 12.97
12/28/2021 9:45:00 AM 3.42 38.156 0.043 6.59 3.01 12.98
12/28/2021 10:00:00 AM 3.45 38.21 0.043 6.6 3 13
12/28/2021 10:15:00 AM 3.48 38.264 0.043 6.61 2.96 13.01
12/28/2021 10:30:00 AM 3.54 38.372 0.043 6.62 3.16 13.03
12/28/2021 10:45:00 AM 3.61 38.498 0.043 6.63 3.58 13.02
12/28/2021 11:00:00 AM 3.73 38.714 0.043 6.64 3.03 13.01
12/28/2021 11:15:00 AM 3.84 38.912 0.043 6.66 3.09 13
12/28/2021 11:30:00 AM 3.92 39.056 0.043 6.66 4.47 12.99
12/28/2021 11:45:00 AM 3.98 39.164 0.043 6.66 3.32 12.97
12/28/2021 12:00:00 PM 4.06 39.308 0.042 6.63 5 12.95
12/28/2021 12:15:00 PM 4.13 39.434 0.042 6.67 3.02 12.92
12/28/2021 12:30:00 PM 4.23 39.614 0.042 6.55 4.82 12.87
12/28/2021 12:45:00 PM 4.3 39.74 0.042 6.67 6.39 12.84
12/28/2021 1:00:00 PM 4.32 39.776 0.042 6.66 5.81 12.82
12/28/2021 1:15:00 PM 4.32 39.776 0.042 6.65 5.29 12.79
12/28/2021 1:30:00 PM 4.32 39.776 0.042 6.6 2.66 12.78
12/28/2021 1:45:00 PM 4.34 39.812 0.042 6.62 2.59 12.76
12/28/2021 2:00:00 PM 4.36 39.848 0.042 6.64 2.59 12.75
12/28/2021 2:15:00 PM 4.39 39.902 0.042 6.63 2.65 12.74
12/28/2021 2:30:00 PM 4.41 39.938 0.042 6.63 2.71 12.72
12/28/2021 2:45:00 PM 4.42 39.956 0.042 6.61 2.58 12.69
12/28/2021 3:00:00 PM 4.42 39.956 0.042 6.63 2.68 12.65
12/28/2021 3:15:00 PM 4.42 39.956 0.042 6.61 2.59 12.63
12/28/2021 3:30:00 PM 4.42 39.956 0.042 6.6 2.65 12.61
12/28/2021 3:45:00 PM 4.42 39.956 0.042 6.59 2.6 12.59
12/28/2021 4:00:00 PM 4.42 39.956 0.042 6.58 2.66 12.57
12/28/2021 4:15:00 PM 4.42 39.956 0.043 6.58 2.65 12.55
12/28/2021 4:30:00 PM 4.41 39.938 0.043 6.57 2.63 12.54
12/28/2021 4:45:00 PM 4.41 39.938 0.043 6.56 2.67 12.52
12/28/2021 5:00:00 PM 4.41 39.938 0.042 6.54 4.06 12.5
12/28/2021 5:15:00 PM 4.4 39.92 0.043 6.55 2.68 12.5
12/28/2021 5:30:00 PM 4.35 39.83 0.043 6.54 2.7 12.49
12/28/2021 5:45:00 PM 4.29 39.722 0.043 6.53 2.93 12.49
12/28/2021 6:00:00 PM 4.19 39.542 0.043 6.53 2.93 12.49
12/28/2021 6:15:00 PM 4.06 39.308 0.043 6.52 3.01 12.5
12/28/2021 6:30:00 PM 3.93 39.074 0.042 6.51 2.88 12.52
12/28/2021 6:45:00 PM 3.81 38.858 0.042 6.5 2.91 12.55
12/28/2021 7:00:00 PM 3.7 38.66 0.042 6.48 2.93 12.58
12/28/2021 7:15:00 PM 3.63 38.534 0.042 6.51 2.95 12.62
12/28/2021 7:30:00 PM 3.54 38.372 0.042 6.49 2.99 12.65
12/28/2021 7:45:00 PM 3.46 38.228 0.042 6.5 3 12.68
12/28/2021 8:00:00 PM 3.4 38.12 0.042 6.51 3.12 12.71
12/28/2021 8:15:00 PM 3.29 37.922 0.042 6.48 3.01 12.74
12/28/2021 8:30:00 PM 3.19 37.742 0.042 6.5 3 12.77
12/28/2021 8:45:00 PM 3.18 37.724 0.042 6.51 2.93 12.79
12/28/2021 9:00:00 PM 3.19 37.742 0.042 6.52 3.04 12.81
12/28/2021 9:15:00 PM 3.23 37.814 0.042 6.52 3 12.82
12/28/2021 9:30:00 PM 3.28 37.904 0.042 6.52 2.94 12.82
12/28/2021 9:45:00 PM 3.3 37.94 0.042 6.52 2.94 12.82
12/28/2021 10:00:00 PM 3.31 37.958 0.042 6.5 2.99 12.81
12/28/2021 10:15:00 PM 3.33 37.994 0.042 6.52 2.96 12.81
12/28/2021 10:30:00 PM 3.35 38.03 0.042 6.53 2.92 12.8
12/28/2021 10:45:00 PM 3.37 38.066 0.042 6.54 2.96 12.79
12/28/2021 11:00:00 PM 3.4 38.12 0.042 6.52 2.93 12.78
12/28/2021 11:15:00 PM 3.42 38.156 0.042 6.42 2.94 12.77
12/28/2021 11:30:00 PM 3.44 38.192 0.042 6.54 2.97 12.76
12/28/2021 11:45:00 PM 3.45 38.21 0.042 6.54 2.95 12.76
12/29/2021 12:00:00 AM 3.46 38.228 0.042 6.54 2.94 12.75
12/29/2021 12:15:00 AM 3.48 38.264 0.042 6.53 3.08 12.75
12/29/2021 12:30:00 AM 3.49 38.282 0.042 6.47 3 12.73
12/29/2021 12:45:00 AM 3.51 38.318 0.042 6.54 2.97 12.72
12/29/2021 1:00:00 AM 3.53 38.354 0.042 6.52 3.01 12.72
12/29/2021 1:15:00 AM 3.54 38.372 0.042 6.54 2.95 12.71
12/29/2021 1:30:00 AM 3.56 38.408 0.042 6.54 2.94 12.71
12/29/2021 1:45:00 AM 3.57 38.426 0.04 6.51 4.22 12.7
12/29/2021 2:00:00 AM 3.58 38.444 0.042 6.54 3.03 12.7
12/29/2021 2:15:00 AM 3.59 38.462 0.042 6.53 2.99 12.69
12/29/2021 2:30:00 AM 3.6 38.48 0.042 6.53 3 12.68
12/29/2021 2:45:00 AM 3.61 38.498 0.042 6.53 2.99 12.69
12/29/2021 3:00:00 AM 3.62 38.516 0.042 6.53 3.03 12.68
12/29/2021 3:15:00 AM 3.64 38.552 0.042 6.53 3.05 12.68
12/29/2021 3:30:00 AM 3.65 38.57 0.042 6.54 2.97 12.67
12/29/2021 3:45:00 AM 3.66 38.588 0.042 6.52 2.97 12.67
12/29/2021 4:00:00 AM 3.67 38.606 0.042 6.52 3.11 12.66
12/29/2021 4:15:00 AM 3.68 38.624 0.042 6.54 3.05 12.66
12/29/2021 4:30:00 AM 3.69 38.642 0.042 6.53 2.96 12.66
12/29/2021 4:45:00 AM 3.71 38.678 0.042 6.53 2.98 12.65
12/29/2021 5:00:00 AM 3.72 38.696 0.042 6.52 2.99 12.64
12/29/2021 5:15:00 AM 3.73 38.714 0.042 6.52 2.95 12.64
12/29/2021 5:30:00 AM 3.75 38.75 0.042 6.52 3.14 12.64
12/29/2021 5:45:00 AM 3.76 38.768 0.043 6.53 3.03 12.63
12/29/2021 6:00:00 AM 3.77 38.786 0.043 6.53 2.94 12.63
12/29/2021 6:15:00 AM 3.79 38.822 0.043 6.52 3 12.63
12/29/2021 6:30:00 AM 3.8 38.84 0.043 6.52 3.01 12.62
12/29/2021 6:45:00 AM 3.81 38.858 0.043 6.35 3.02 12.62
12/29/2021 7:00:00 AM 3.82 38.876 0.043 6.54 2.97 12.62
12/29/2021 7:15:00 AM 3.84 38.912 0.043 6.49 3.07 12.62
12/29/2021 7:30:00 AM 3.85 38.93 0.043 6.51 2.98 12.62
12/29/2021 7:45:00 AM 3.87 38.966 0.043 6.52 3.05 12.62
12/29/2021 8:00:00 AM 3.88 38.984 0.043 6.52 2.96 12.62
12/29/2021 8:15:00 AM 3.9 39.02 0.043 6.53 3.07 12.62
12/29/2021 8:30:00 AM 3.91 39.038 0.043 6.53 5.13 12.63
12/29/2021 8:45:00 AM 3.93 39.074 0.043 6.54 3.11 12.66
12/29/2021 9:00:00 AM 3.95 39.11 0.043 6.55 3.12 12.69
12/29/2021 9:15:00 AM 3.98 39.164 0.043 6.56 3.09 12.7
12/29/2021 9:30:00 AM 4 39.2 0.043 6.55 3.26 12.73
12/29/2021 9:45:00 AM 4.03 39.254 0.043 6.49 3 12.74
12/29/2021 10:00:00 AM 4.06 39.308 0.043 6.58 3.85 12.76
12/29/2021 10:15:00 AM 4.09 39.362 0.043 6.59 3.17 12.77
12/29/2021 10:30:00 AM 4.13 39.434 0.042 6.59 2.97 12.77
12/29/2021 10:45:00 AM 4.17 39.506 0.042 6.59 3.09 12.78
12/29/2021 11:00:00 AM 4.21 39.578 0.042 6.6 3.31 12.79
12/29/2021 11:15:00 AM 4.25 39.65 0.042 6.57 3.06 12.78
12/29/2021 11:30:00 AM 4.29 39.722 0.042 6.55 4.36 12.78
12/29/2021 11:45:00 AM 4.32 39.776 0.041 6.46 4.75 12.76
12/29/2021 12:00:00 PM 4.35 39.83 0.043 6.62 2.94 12.75
12/29/2021 12:15:00 PM 4.39 39.902 0.043 6.58 2.99 12.75
12/29/2021 12:30:00 PM 4.44 39.992 0.043 6.62 3.07 12.74
12/29/2021 12:45:00 PM 4.48 40.064 0.043 6.6 2.93 12.73
12/29/2021 1:00:00 PM 4.52 40.136 0.043 6.61 5 12.72
12/29/2021 1:15:00 PM 4.55 40.19 0.043 6.61 4.24 12.71
12/29/2021 1:30:00 PM 4.59 40.262 0.043 6.6 3.01 12.7
12/29/2021 1:45:00 PM 4.63 40.334 0.043 6.6 3.07 12.69
12/29/2021 2:00:00 PM 4.67 40.406 0.043 6.61 2.97 12.67
12/29/2021 2:15:00 PM 4.71 40.478 0.042 6.6 4.32 12.66
12/29/2021 2:30:00 PM 4.74 40.532 0.041 6.57 4.07 12.64
12/29/2021 2:45:00 PM 4.76 40.568 0.043 6.63 2.88 12.63
12/29/2021 3:00:00 PM 4.78 40.604 0.043 6.61 2.91 12.61
12/29/2021 3:15:00 PM 4.8 40.64 0.042 6.57 4.24 12.6
12/29/2021 3:30:00 PM 4.81 40.658 0.041 6.47 4.48 12.58
12/29/2021 3:45:00 PM 4.82 40.676 0.043 6.61 3.63 12.55
12/29/2021 4:00:00 PM 4.83 40.694 0.043 6.59 4.98 12.52
12/29/2021 4:15:00 PM 4.83 40.694 0.044 6.56 5.74 12.49
12/29/2021 4:30:00 PM 4.83 40.694 0.043 6.45 6.92 12.45
12/29/2021 4:45:00 PM 4.82 40.676 0.044 6.48 3.15 12.43
12/29/2021 5:00:00 PM 4.82 40.676 0.043 6.46 4.4 12.41
12/29/2021 5:15:00 PM 4.81 40.658 0.044 6.47 3.08 12.39
12/29/2021 5:30:00 PM 4.81 40.658 0.043 6.48 4.26 12.37
12/29/2021 5:45:00 PM 4.8 40.64 0.044 6.53 3.19 12.36
12/29/2021 6:00:00 PM 4.8 40.64 0.044 6.53 3.23 12.36
12/29/2021 6:15:00 PM 4.79 40.622 0.044 6.52 3.1 12.36
12/29/2021 6:30:00 PM 4.79 40.622 0.044 6.48 3.11 12.36
12/29/2021 6:45:00 PM 4.79 40.622 0.044 6.51 3.18 12.35
12/29/2021 7:00:00 PM 4.79 40.622 0.044 6.41 10.17 12.36
12/29/2021 7:15:00 PM 4.79 40.622 0.044 6.46 5.94 12.35
12/29/2021 7:30:00 PM 4.79 40.622 0.045 6.49 3.18 12.35
12/29/2021 7:45:00 PM 4.79 40.622 0.044 6.39 4.38 12.35
12/29/2021 8:00:00 PM 4.8 40.64 0.044 6.49 4.58 12.35
12/29/2021 8:15:00 PM 4.8 40.64 0.044 6.46 4.24 12.35
12/29/2021 8:30:00 PM 4.8 40.64 0.045 6.48 3.06 12.35
12/29/2021 8:45:00 PM 4.8 40.64 0.045 6.52 3.08 12.34
12/29/2021 9:00:00 PM 4.81 40.658 0.045 6.51 2.94 12.34
12/29/2021 9:15:00 PM 4.81 40.658 0.045 6.51 3.02 12.34
12/29/2021 9:30:00 PM 4.81 40.658 0.043 6.42 4.27 12.34
12/29/2021 9:45:00 PM 4.81 40.658 0.045 6.51 3.01 12.34
12/29/2021 10:00:00 PM 4.82 40.676 0.045 6.51 2.99 12.34
12/29/2021 10:15:00 PM 4.82 40.676 0.045 6.51 2.93 12.34
12/29/2021 10:30:00 PM 4.82 40.676 0.045 6.52 2.96 12.34
12/29/2021 10:45:00 PM 4.82 40.676 0.045 6.43 2.96 12.34
12/29/2021 11:00:00 PM 4.82 40.676 0.044 6.47 5.03 12.34
12/29/2021 11:15:00 PM 4.82 40.676 0.045 6.44 3.02 12.34
12/29/2021 11:30:00 PM 4.83 40.694 0.044 6.48 4.38 12.33
12/29/2021 11:45:00 PM 4.83 40.694 0.043 6.43 4.24 12.33
12/30/2021 12:00:00 AM 4.83 40.694 0.045 6.5 2.93 12.33
12/30/2021 12:15:00 AM 4.83 40.694 0.045 6.51 2.98 12.33
12/30/2021 12:30:00 AM 4.83 40.694 0.045 6.42 2.91 12.33
12/30/2021 12:45:00 AM 4.84 40.712 0.045 6.51 2.93 12.34
12/30/2021 1:00:00 AM 4.84 40.712 0.045 6.51 2.89 12.32
12/30/2021 1:15:00 AM 4.84 40.712 0.045 6.52 2.9 12.32
12/30/2021 1:30:00 AM 4.84 40.712 0.045 6.47 2.92 12.33
12/30/2021 1:45:00 AM 4.85 40.73 0.045 6.5 2.93 12.33
12/30/2021 2:00:00 AM 4.85 40.73 0.045 6.52 3.3 12.33
12/30/2021 2:15:00 AM 4.85 40.73 0.045 6.41 3.02 12.32
12/30/2021 2:30:00 AM 4.85 40.73 0.045 6.48 2.96 12.32
12/30/2021 2:45:00 AM 4.86 40.748 0.045 6.51 2.87 12.32
12/30/2021 3:00:00 AM 4.86 40.748 0.045 6.51 2.96 12.32
12/30/2021 3:15:00 AM 4.87 40.766 0.044 6.51 2.93 12.31
12/30/2021 3:30:00 AM 4.87 40.766 0.044 6.51 2.92 12.31
12/30/2021 3:45:00 AM 4.87 40.766 0.042 6.41 4.26 12.31
12/30/2021 4:00:00 AM 4.87 40.766 0.044 6.52 3 12.31
12/30/2021 4:15:00 AM 4.88 40.784 0.043 6.43 4.38 12.3
12/30/2021 4:30:00 AM 4.88 40.784 0.043 6.49 4.48 12.31
12/30/2021 4:45:00 AM 4.88 40.784 0.044 6.39 3.21 12.31
12/30/2021 5:00:00 AM 4.89 40.802 0.043 6.5 4.75 12.3
12/30/2021 5:15:00 AM 4.89 40.802 0.044 6.52 3.12 12.31
12/30/2021 5:30:00 AM 4.9 40.82 0.044 6.43 3.25 12.3
12/30/2021 5:45:00 AM 4.9 40.82 0.042 6.43 4.49 12.3
12/30/2021 6:00:00 AM 4.9 40.82 0.044 6.47 3.13 12.3
12/30/2021 6:15:00 AM 4.91 40.838 0.042 6.47 4.45 12.3
12/30/2021 6:30:00 AM 4.91 40.838 0.044 6.43 3.21 12.31
12/30/2021 6:45:00 AM 4.91 40.838 0.044 6.51 3.13 12.31
12/30/2021 7:00:00 AM 4.92 40.856 0.044 6.51 3.13 12.3
12/30/2021 7:15:00 AM 4.92 40.856 0.044 6.47 3.28 12.3
12/30/2021 7:30:00 AM 4.93 40.874 0.044 6.46 3.16 12.3
12/30/2021 7:45:00 AM 4.93 40.874 0.043 6.45 4.33 12.3
12/30/2021 8:00:00 AM 4.94 40.892 0.044 6.42 3.19 12.31
12/30/2021 8:15:00 AM 4.94 40.892 0.044 6.51 3.19 12.3
12/30/2021 8:30:00 AM 4.95 40.91 0.044 6.47 3.18 12.33
12/30/2021 8:45:00 AM 4.96 40.928 0.044 6.51 3.39 12.33
12/30/2021 9:00:00 AM 4.97 40.946 0.044 6.5 3.09 12.34
12/30/2021 9:15:00 AM 4.98 40.964 0.044 6.53 3.09 12.37
12/30/2021 9:30:00 AM 5 41 0.044 6.55 3.08 12.4
12/30/2021 9:45:00 AM 5.03 41.054 0.044 6.48 3.05 12.43
12/30/2021 10:00:00 AM 5.06 41.108 0.044 6.58 3.16 12.45
12/30/2021 10:15:00 AM 5.11 41.198 0.044 6.58 3.3 12.46
12/30/2021 10:30:00 AM 5.15 41.27 0.044 6.56 2.9 12.48
12/30/2021 10:45:00 AM 5.2 41.36 0.044 6.59 4.02 12.48
12/30/2021 11:00:00 AM 5.25 41.45 0.044 6.61 3.02 12.49
12/30/2021 11:15:00 AM 5.3 41.54 0.044 6.61 2.89 12.48
12/30/2021 11:30:00 AM 5.36 41.648 0.044 6.61 2.95 12.48
12/30/2021 11:45:00 AM 5.4 41.72 0.044 6.63 2.84 12.47
12/30/2021 12:00:00 PM 5.45 41.81 0.044 6.63 2.83 12.45
12/30/2021 12:15:00 PM 5.5 41.9 0.044 6.63 2.89 12.44
12/30/2021 12:30:00 PM 5.55 41.99 0.043 6.58 4 12.42
12/30/2021 12:45:00 PM 5.6 42.08 0.043 6.63 2.91 12.4
12/30/2021 1:00:00 PM 5.65 42.17 0.043 6.54 2.88 12.38
12/30/2021 1:15:00 PM 5.7 42.26 0.043 6.64 2.85 12.37
12/30/2021 1:30:00 PM 5.77 42.386 0.043 6.64 2.99 12.35
12/30/2021 1:45:00 PM 5.8 42.44 0.043 6.63 2.82 12.32
12/30/2021 2:00:00 PM 5.85 42.53 0.043 6.61 2.89 12.31
12/30/2021 2:15:00 PM 5.9 42.62 0.043 6.63 2.87 12.29
12/30/2021 2:30:00 PM 5.93 42.674 0.043 6.55 3.05 12.27
12/30/2021 2:45:00 PM 5.96 42.728 0.043 6.63 2.93 12.25
12/30/2021 3:00:00 PM 5.99 42.782 0.043 6.62 2.93 12.25
12/30/2021 3:15:00 PM 6 42.8 0.043 6.62 2.82 12.21
12/30/2021 3:30:00 PM 6.01 42.818 0.043 6.58 2.95 12.17
12/30/2021 3:45:00 PM 6.02 42.836 0.042 6.57 4.1 12.13
12/30/2021 4:00:00 PM 6.02 42.836 0.043 6.54 2.93 12.09
12/30/2021 4:15:00 PM 6.03 42.854 0.043 6.56 2.93 12.06
12/30/2021 4:30:00 PM 6.03 42.854 0.041 6.47 4.2 12.04
12/30/2021 4:45:00 PM 6.03 42.854 0.044 6.47 2.95 12.02
12/30/2021 5:00:00 PM 6.03 42.854 0.044 6.54 3 12
12/30/2021 5:15:00 PM 6.03 42.854 0.044 6.52 2.96 11.97
12/30/2021 5:30:00 PM 6.03 42.854 0.044 6.49 2.99 11.97
12/30/2021 5:45:00 PM 6.03 42.854 0.044 6.42 3.01 11.95
12/30/2021 6:00:00 PM 6.03 42.854 0.044 6.52 2.94 11.95
12/30/2021 6:15:00 PM 6.03 42.854 0.044 6.42 3.07 11.95
12/30/2021 6:30:00 PM 6.03 42.854 0.044 6.4 3.02 11.94
12/30/2021 6:45:00 PM 6.03 42.854 0.044 6.5 3 11.94
12/30/2021 7:00:00 PM 6.03 42.854 0.044 6.46 3.07 11.94
12/30/2021 7:15:00 PM 6.02 42.836 0.044 6.48 2.97 11.93
12/30/2021 7:30:00 PM 6.02 42.836 0.043 6.41 4.42 11.93
12/30/2021 7:45:00 PM 6.01 42.818 0.044 6.45 3.2 11.93
12/30/2021 8:00:00 PM 6.01 42.818 0.044 6.48 3.18 11.94
12/30/2021 8:15:00 PM 6.01 42.818 0.044 6.48 3.04 11.93
12/30/2021 8:30:00 PM 6.01 42.818 0.044 6.46 3.18 11.94
12/30/2021 8:45:00 PM 6.01 42.818 0.044 6.48 3.14 11.94
12/30/2021 9:00:00 PM 6 42.8 0.044 6.47 3.09 11.94
12/30/2021 9:15:00 PM 6 42.8 0.044 6.45 3.13 11.93
12/30/2021 9:30:00 PM 6 42.8 0.044 6.46 3.15 11.94
12/30/2021 9:45:00 PM 5.99 42.782 0.044 6.47 3.07 11.94
12/30/2021 10:00:00 PM 5.99 42.782 0.044 6.38 3.28 11.94
12/30/2021 10:15:00 PM 5.98 42.764 0.044 6.48 3.2 11.95
12/30/2021 10:30:00 PM 5.97 42.746 0.044 6.45 3.26 11.95
12/30/2021 10:45:00 PM 5.96 42.728 0.044 6.46 3.31 11.96
12/30/2021 11:00:00 PM 5.95 42.71 0.044 6.47 3.17 11.96
12/30/2021 11:15:00 PM 5.95 42.71 0.044 6.47 3.16 11.96
12/30/2021 11:30:00 PM 5.94 42.692 0.044 6.49 3.07 11.97
12/30/2021 11:45:00 PM 5.93 42.674 0.044 6.46 3.2 11.96
12/31/2021 12:00:00 AM 5.92 42.656 0.044 6.47 3.29 11.97
12/31/2021 12:15:00 AM 5.91 42.638 0.044 6.47 3.28 11.97
12/31/2021 12:30:00 AM 5.9 42.62 0.044 6.48 3.24 11.98
12/31/2021 12:45:00 AM 5.9 42.62 0.044 6.47 3.2 11.98
12/31/2021 1:00:00 AM 5.89 42.602 0.044 6.47 3.18 11.98
12/31/2021 1:15:00 AM 5.88 42.584 0.044 6.48 3.35 11.99
12/31/2021 1:30:00 AM 5.88 42.584 0.044 6.47 3.41 11.99
12/31/2021 1:45:00 AM 5.87 42.566 0.044 6.48 3.41 11.99
12/31/2021 2:00:00 AM 5.87 42.566 0.044 6.46 3.32 11.99
12/31/2021 2:15:00 AM 5.86 42.548 0.044 6.48 3.34 11.99
12/31/2021 2:30:00 AM 5.86 42.548 0.044 6.48 3.41 11.99
12/31/2021 2:45:00 AM 5.85 42.53 0.044 6.48 3.32 12
12/31/2021 3:00:00 AM 5.85 42.53 0.044 6.42 3.86 12
12/31/2021 3:15:00 AM 5.85 42.53 0.044 6.48 3.4 12
12/31/2021 3:30:00 AM 5.84 42.512 0.044 6.43 3.38 12
12/31/2021 3:45:00 AM 5.84 42.512 0.044 6.48 3.43 12
12/31/2021 4:00:00 AM 5.83 42.494 0.044 6.47 3.41 12
12/31/2021 4:15:00 AM 5.83 42.494 0.044 6.38 3.28 12
12/31/2021 4:30:00 AM 5.83 42.494 0.044 6.48 3.26 11.99
12/31/2021 4:45:00 AM 5.82 42.476 0.044 6.47 3.38 11.99
12/31/2021 5:00:00 AM 5.82 42.476 0.044 6.47 3.28 11.99
12/31/2021 5:15:00 AM 5.82 42.476 0.044 6.47 3.24 11.99
12/31/2021 5:30:00 AM 5.81 42.458 0.044 6.37 3.33 12
12/31/2021 5:45:00 AM 5.81 42.458 0.044 6.47 3.64 11.99
12/31/2021 6:00:00 AM 5.81 42.458 0.044 6.43 3.43 12
12/31/2021 6:15:00 AM 5.8 42.44 0.044 6.48 3.42 12
12/31/2021 6:30:00 AM 5.8 42.44 0.044 6.47 3.34 12
12/31/2021 6:45:00 AM 5.8 42.44 0.044 6.48 3.41 12.01
12/31/2021 7:00:00 AM 5.8 42.44 0.044 6.46 3.36 12
12/31/2021 7:15:00 AM 5.81 42.458 0.044 6.46 3.27 12
12/31/2021 7:30:00 AM 5.81 42.458 0.044 6.37 3.42 12
12/31/2021 7:45:00 AM 5.81 42.458 0.044 6.4 3.25 12.01
12/31/2021 8:00:00 AM 5.81 42.458 0.044 6.47 3.36 12.01
12/31/2021 8:15:00 AM 5.82 42.476 0.044 6.49 3.41 12.01
12/31/2021 8:30:00 AM 5.83 42.494 0.044 6.48 3.37 12.03
12/31/2021 8:45:00 AM 5.84 42.512 0.044 6.42 3.52 12.05
12/31/2021 9:00:00 AM 5.86 42.548 0.044 6.51 3.29 12.09
12/31/2021 9:15:00 AM 5.87 42.566 0.043 6.5 3.33 12.12
12/31/2021 9:30:00 AM 5.89 42.602 0.043 6.51 3.27 12.16
12/31/2021 9:45:00 AM 5.93 42.674 0.043 6.5 3.26 12.18
12/31/2021 10:00:00 AM 5.97 42.746 0.043 6.5 3.29 12.2
12/31/2021 10:15:00 AM 6.01 42.818 0.043 6.51 3.37 12.2
12/31/2021 10:30:00 AM 6.07 42.926 0.042 6.53 4.53 12.19
12/31/2021 10:45:00 AM 6.1 42.98 0.043 6.58 3.27 12.2
12/31/2021 11:00:00 AM 6.14 43.052 0.043 6.56 3.26 12.2
12/31/2021 11:15:00 AM 6.17 43.106 0.043 6.57 3.29 12.18
12/31/2021 11:30:00 AM 6.22 43.196 0.043 6.58 3.26 12.16
12/31/2021 11:45:00 AM 6.28 43.304 0.043 6.59 3.36 12.15
12/31/2021 12:00:00 PM 6.33 43.394 0.043 6.59 3.46 12.14
12/31/2021 12:15:00 PM 6.38 43.484 0.043 6.61 3.41 12.13
12/31/2021 12:30:00 PM 6.46 43.628 0.043 6.62 3.32 12.13
12/31/2021 12:45:00 PM 6.56 43.808 0.043 6.62 3.32 12.11
12/31/2021 1:00:00 PM 6.64 43.952 0.043 6.54 3.34 12.1
12/31/2021 1:15:00 PM 6.78 44.204 0.043 6.64 3.2 12.08
12/31/2021 1:30:00 PM 6.88 44.384 0.043 6.55 3.28 12.05
12/31/2021 1:45:00 PM 6.96 44.528 0.043 6.65 3.23 12.01
12/31/2021 2:00:00 PM 7.06 44.708 0.042 6.63 3.26 11.99
12/31/2021 2:15:00 PM 7.09 44.762 0.042 6.62 3.12 11.98
12/31/2021 2:30:00 PM 7.13 44.834 0.042 6.64 3.14 11.95
12/31/2021 2:45:00 PM 7.15 44.87 0.042 6.63 3.33 11.93
12/31/2021 3:00:00 PM 7.15 44.87 0.042 6.62 3.3 11.91
12/31/2021 3:15:00 PM 7.15 44.87 0.042 6.6 3.26 11.89
12/31/2021 3:30:00 PM 7.14 44.852 0.042 6.47 3.32 11.86
12/31/2021 3:45:00 PM 7.13 44.834 0.042 6.59 3.42 11.84
12/31/2021 4:00:00 PM 7.12 44.816 0.042 6.57 3.45 11.82
12/31/2021 4:15:00 PM 7.1 44.78 0.042 6.56 3.34 11.78
12/31/2021 4:30:00 PM 7.08 44.744 0.042 6.55 3.32 11.75
12/31/2021 4:45:00 PM 7.05 44.69 0.043 6.53 3.28 11.72
12/31/2021 5:00:00 PM 7.02 44.636 0.043 6.52 3.39 11.7
12/31/2021 5:15:00 PM 6.99 44.582 0.043 6.5 3.35 11.69
12/31/2021 5:30:00 PM 6.96 44.528 0.043 6.48 3.34 11.67
12/31/2021 5:45:00 PM 6.93 44.474 0.043 6.48 3.64 11.67
12/31/2021 6:00:00 PM 6.91 44.438 0.043 6.44 3.41 11.66
12/31/2021 6:15:00 PM 6.88 44.384 0.043 6.48 3.38 11.67
12/31/2021 6:30:00 PM 6.86 44.348 0.041 6.39 4.77 11.67
12/31/2021 6:45:00 PM 6.83 44.294 0.043 6.41 3.44 11.68
12/31/2021 7:00:00 PM 6.8 44.24 0.043 6.48 3.48 11.69
12/31/2021 7:15:00 PM 6.78 44.204 0.043 6.48 3.55 11.69
12/31/2021 7:30:00 PM 6.76 44.168 0.043 6.46 3.6 11.7
12/31/2021 7:45:00 PM 6.73 44.114 0.041 6.31 4.86 11.7
12/31/2021 8:00:00 PM 6.7 44.06 0.041 6.39 4.84 11.71
12/31/2021 8:15:00 PM 6.67 44.006 0.042 6.36 4.73 11.71
12/31/2021 8:30:00 PM 6.63 43.934 0.043 6.39 3.43 11.72
12/31/2021 8:45:00 PM 6.6 43.88 0.043 6.47 3.43 11.73
12/31/2021 9:00:00 PM 6.57 43.826 0.043 6.45 3.51 11.74
12/31/2021 9:15:00 PM 6.55 43.79 0.043 6.46 3.57 11.74
12/31/2021 9:30:00 PM 6.54 43.772 0.043 6.36 3.51 11.75
12/31/2021 9:45:00 PM 6.52 43.736 0.043 6.47 3.61 11.76
12/31/2021 10:00:00 PM 6.52 43.736 0.043 6.46 3.55 11.76
12/31/2021 10:15:00 PM 6.51 43.718 0.043 6.46 3.54 11.77
12/31/2021 10:30:00 PM 6.5 43.7 0.043 6.41 3.52 11.77
12/31/2021 10:45:00 PM 6.49 43.682 0.043 6.45 3.57 11.77
12/31/2021 11:00:00 PM 6.48 43.664 0.043 6.45 3.6 11.78
12/31/2021 11:15:00 PM 6.47 43.646 0.043 6.36 3.69 11.78
12/31/2021 11:30:00 PM 6.46 43.628 0.043 6.47 3.58 11.78
12/31/2021 11:45:00 PM 6.45 43.61 0.043 6.46 3.47 11.78
1/1/2022 12:00:00 AM 6.45 43.61 0.043 6.47 3.32 11.78
1/1/2022 12:15:00 AM 6.44 43.592 0.043 6.39 3.54 11.78
1/1/2022 12:30:00 AM 6.43 43.574 0.043 6.47 3.62 11.78
1/1/2022 12:45:00 AM 6.42 43.556 0.043 6.39 3.61 11.79
1/1/2022 1:00:00 AM 6.42 43.556 0.043 6.47 3.69 11.77
1/1/2022 1:15:00 AM 6.41 43.538 0.043 6.4 3.63 11.78
1/1/2022 1:30:00 AM 6.41 43.538 0.043 6.47 3.61 11.78
1/1/2022 1:45:00 AM 6.41 43.538 0.043 6.39 3.56 11.78
1/1/2022 2:00:00 AM 6.41 43.538 0.043 6.41 3.6 11.78
1/1/2022 2:15:00 AM 6.41 43.538 0.043 6.42 3.56 11.78
1/1/2022 2:30:00 AM 6.42 43.556 0.043 6.48 3.68 11.77
1/1/2022 2:45:00 AM 6.43 43.574 0.043 6.47 3.55 11.77
1/1/2022 3:00:00 AM 6.44 43.592 0.043 6.43 3.73 11.77
1/1/2022 3:15:00 AM 6.45 43.61 0.043 6.38 3.71 11.76
1/1/2022 3:30:00 AM 6.46 43.628 0.043 6.42 3.69 11.76
1/1/2022 3:45:00 AM 6.47 43.646 0.043 6.47 3.89 11.75
1/1/2022 4:00:00 AM 6.48 43.664 0.043 6.49 3.54 11.76
1/1/2022 4:15:00 AM 6.49 43.682 0.043 6.47 3.57 11.75
1/1/2022 4:30:00 AM 6.5 43.7 0.043 6.46 3.87 11.74
1/1/2022 4:45:00 AM 6.51 43.718 0.043 6.4 3.53 11.74
1/1/2022 5:00:00 AM 6.52 43.736 0.043 6.49 3.72 11.74
1/1/2022 5:15:00 AM 6.53 43.754 0.043 6.46 4.11 11.74
1/1/2022 5:30:00 AM 6.53 43.754 0.043 6.43 3.83 11.74
1/1/2022 5:45:00 AM 6.53 43.754 0.043 6.46 3.73 11.74
1/1/2022 6:00:00 AM 6.52 43.736 0.043 6.46 3.59 11.74
1/1/2022 6:15:00 AM 6.52 43.736 0.043 6.47 3.61 11.73
1/1/2022 6:30:00 AM 6.53 43.754 0.043 6.47 3.68 11.73
1/1/2022 6:45:00 AM 6.54 43.772 0.043 6.41 3.67 11.73
1/1/2022 7:00:00 AM 6.54 43.772 0.043 6.47 3.56 11.73
1/1/2022 7:15:00 AM 6.54 43.772 0.043 6.46 3.76 11.73
1/1/2022 7:30:00 AM 6.53 43.754 0.043 6.47 3.73 11.73
1/1/2022 7:45:00 AM 6.53 43.754 0.043 6.44 3.51 11.74
1/1/2022 8:00:00 AM 6.53 43.754 0.043 6.47 3.55 11.74
1/1/2022 8:15:00 AM 6.53 43.754 0.043 6.46 3.61 11.75
1/1/2022 8:30:00 AM 6.54 43.772 0.043 6.47 3.6 11.75
1/1/2022 8:45:00 AM 6.55 43.79 0.043 6.49 3.55 11.77
1/1/2022 9:00:00 AM 6.56 43.808 0.043 6.48 3.57 11.79
1/1/2022 9:15:00 AM 6.57 43.826 0.043 6.42 3.63 11.82
1/1/2022 9:30:00 AM 6.6 43.88 0.043 6.5 4.28 11.83
1/1/2022 9:45:00 AM 6.62 43.916 0.043 6.47 3.52 11.84
1/1/2022 10:00:00 AM 6.64 43.952 0.043 6.52 3.55 11.85
1/1/2022 10:15:00 AM 6.66 43.988 0.042 6.52 3.47 11.86
1/1/2022 10:30:00 AM 6.69 44.042 0.041 6.48 4.72 11.86
1/1/2022 10:45:00 AM 6.72 44.096 0.042 6.54 3.39 11.87
1/1/2022 11:00:00 AM 6.74 44.132 0.042 6.54 5.01 11.86
1/1/2022 11:15:00 AM 6.77 44.186 0.041 6.5 6.55 11.85
1/1/2022 11:30:00 AM 6.8 44.24 0.042 6.55 4.73 11.87
1/1/2022 11:45:00 AM 6.84 44.312 0.041 6.54 6.45 11.87
1/1/2022 12:00:00 PM 6.87 44.366 0.042 6.56 4.43 11.88
1/1/2022 12:15:00 PM 6.91 44.438 0.042 6.56 3.28 11.88
1/1/2022 12:30:00 PM 6.95 44.51 0.042 6.53 3.14 11.88
1/1/2022 12:45:00 PM 7 44.6 0.042 6.59 3.21 11.88
1/1/2022 1:00:00 PM 7.05 44.69 0.042 6.58 3.37 11.87
1/1/2022 1:15:00 PM 7.09 44.762 0.042 6.59 3.14 11.86
1/1/2022 1:30:00 PM 7.13 44.834 0.042 6.59 3.06 11.84
1/1/2022 1:45:00 PM 7.17 44.906 0.042 6.58 3.51 11.82
1/1/2022 2:00:00 PM 7.2 44.96 0.042 6.52 3.23 11.79
1/1/2022 2:15:00 PM 7.22 44.996 0.042 6.59 3.72 11.76
1/1/2022 2:30:00 PM 7.24 45.032 0.042 6.58 4.44 11.74
1/1/2022 2:45:00 PM 7.27 45.086 0.042 6.55 4.61 11.7
1/1/2022 3:00:00 PM 7.28 45.104 0.042 6.55 3.61 11.68
1/1/2022 3:15:00 PM 7.3 45.14 0.041 6.44 4.55 11.66
1/1/2022 3:30:00 PM 7.31 45.158 0.042 6.47 3.68 11.64
1/1/2022 3:45:00 PM 7.32 45.176 0.042 6.47 3.19 11.62
1/1/2022 4:00:00 PM 7.33 45.194 0.042 6.54 3.41 11.59
1/1/2022 4:15:00 PM 7.34 45.212 0.042 6.52 3.54 11.57
1/1/2022 4:30:00 PM 7.34 45.212 0.042 6.52 3.35 11.55
1/1/2022 4:45:00 PM 7.34 45.212 0.042 6.51 3.82 11.53
1/1/2022 5:00:00 PM 7.35 45.23 0.04 6.46 4.75 11.51
1/1/2022 5:15:00 PM 7.36 45.248 0.042 6.49 3.35 11.5
1/1/2022 5:30:00 PM 7.36 45.248 0.042 6.48 3.69 11.49
1/1/2022 5:45:00 PM 7.36 45.248 0.042 6.46 3.46 11.47
1/1/2022 6:00:00 PM 7.37 45.266 0.042 6.47 3.51 11.48
1/1/2022 6:15:00 PM 7.37 45.266 0.042 6.47 3.49 11.47
1/1/2022 6:30:00 PM 7.37 45.266 0.042 6.45 3.43 11.46
1/1/2022 6:45:00 PM 7.37 45.266 0.042 6.45 3.61 11.46
1/1/2022 7:00:00 PM 7.38 45.284 0.042 6.44 4.06 11.45
1/1/2022 7:15:00 PM 7.38 45.284 0.042 6.45 3.56 11.45
1/1/2022 7:30:00 PM 7.38 45.284 0.042 6.45 3.74 11.45
1/1/2022 7:45:00 PM 7.38 45.284 0.042 6.43 3.7 11.44
1/1/2022 8:00:00 PM 7.38 45.284 0.042 6.42 3.65 11.44
1/1/2022 8:15:00 PM 7.39 45.302 0.042 6.38 3.6 11.45
1/1/2022 8:30:00 PM 7.39 45.302 0.042 6.43 3.75 11.44
1/1/2022 8:45:00 PM 7.39 45.302 0.042 6.42 3.56 11.43
1/1/2022 9:00:00 PM 7.39 45.302 0.042 6.4 3.8 11.44
1/1/2022 9:15:00 PM 7.39 45.302 0.042 6.43 4.09 11.43
1/1/2022 9:30:00 PM 7.39 45.302 0.042 6.43 3.7 11.43
1/1/2022 9:45:00 PM 7.39 45.302 0.042 6.42 3.76 11.42
1/1/2022 10:00:00 PM 7.39 45.302 0.041 6.38 4.85 11.43
1/1/2022 10:15:00 PM 7.39 45.302 0.042 6.33 3.57 11.43
1/1/2022 10:30:00 PM 7.39 45.302 0.042 6.41 2.96 11.42
1/1/2022 10:45:00 PM 7.39 45.302 0.042 6.43 3.28 11.41
1/1/2022 11:00:00 PM 7.39 45.302 0.041 6.38 4.67 11.41
1/1/2022 11:15:00 PM 7.39 45.302 0.042 6.44 3.08 11.42
1/1/2022 11:30:00 PM 7.39 45.302 0.042 6.41 3.11 11.42
1/1/2022 11:45:00 PM 7.39 45.302 0.042 6.45 3.11 11.43
1/2/2022 12:00:00 AM 7.39 45.302 0.042 6.42 3.33 11.42
1/2/2022 12:15:00 AM 7.37 45.266 0.042 6.45 3.37 11.43
1/2/2022 12:30:00 AM 7.36 45.248 0.041 6.4 4.65 11.44
1/2/2022 12:45:00 AM 7.33 45.194 0.042 6.35 3.31 11.44
1/2/2022 1:00:00 AM 7.3 45.14 0.042 6.45 3.31 11.44
1/2/2022 1:15:00 AM 7.28 45.104 0.042 6.35 3.43 11.45
1/2/2022 1:30:00 AM 7.25 45.05 0.042 6.39 3.57 11.46
1/2/2022 1:45:00 AM 7.23 45.014 0.042 6.45 3.52 11.46
1/2/2022 2:00:00 AM 7.2 44.96 0.042 6.44 4 11.47
1/2/2022 2:15:00 AM 7.17 44.906 0.042 6.4 3.73 11.48
1/2/2022 2:30:00 AM 7.14 44.852 0.042 6.36 3.74 11.49
1/2/2022 2:45:00 AM 7.11 44.798 0.042 6.44 3.87 11.5
1/2/2022 3:00:00 AM 7.08 44.744 0.042 6.45 3.73 11.51
1/2/2022 3:15:00 AM 7.05 44.69 0.042 6.35 3.81 11.52
1/2/2022 3:30:00 AM 7.02 44.636 0.042 6.45 3.86 11.53
1/2/2022 3:45:00 AM 7 44.6 0.042 6.4 3.7 11.54
1/2/2022 4:00:00 AM 6.97 44.546 0.042 6.43 3.91 11.55
1/2/2022 4:15:00 AM 6.94 44.492 0.042 6.45 3.81 11.55
1/2/2022 4:30:00 AM 6.91 44.438 0.041 6.37 5.05 11.56
1/2/2022 4:45:00 AM 6.88 44.384 0.042 6.46 3.63 11.57
1/2/2022 5:00:00 AM 6.85 44.33 0.042 6.37 3.65 11.57
1/2/2022 5:15:00 AM 6.82 44.276 0.042 6.44 3.49 11.59
1/2/2022 5:30:00 AM 6.8 44.24 0.042 6.47 3.64 11.59
1/2/2022 5:45:00 AM 6.77 44.186 0.041 6.37 5 11.6
1/2/2022 6:00:00 AM 6.75 44.15 0.043 6.47 3.35 11.61
1/2/2022 6:15:00 AM 6.72 44.096 0.043 6.46 3.83 11.61
1/2/2022 6:30:00 AM 6.7 44.06 0.043 6.46 3.46 11.63
1/2/2022 6:45:00 AM 6.68 44.024 0.042 6.45 5 11.63
1/2/2022 7:00:00 AM 6.65 43.97 0.043 6.47 3.66 11.64
1/2/2022 7:15:00 AM 6.63 43.934 0.043 6.47 3.41 11.65
1/2/2022 7:30:00 AM 6.6 43.88 0.043 6.42 3.48 11.66
1/2/2022 7:45:00 AM 6.58 43.844 0.043 6.47 3.51 11.67
1/2/2022 8:00:00 AM 6.55 43.79 0.043 6.41 3.45 11.68
1/2/2022 8:15:00 AM 6.53 43.754 0.043 6.41 3.35 11.7
1/2/2022 8:30:00 AM 6.51 43.718 0.043 6.49 3.25 11.72
1/2/2022 8:45:00 AM 6.5 43.7 0.043 6.49 3.26 11.74
1/2/2022 9:00:00 AM 6.48 43.664 0.043 6.49 3.3 11.77
1/2/2022 9:15:00 AM 6.46 43.628 0.043 6.42 3.61 11.8
1/2/2022 9:30:00 AM 6.45 43.61 0.043 6.45 2.99 11.82
1/2/2022 9:45:00 AM 6.44 43.592 0.043 6.48 2.89 11.85
1/2/2022 10:00:00 AM 6.43 43.574 0.042 6.51 2.97 11.88
1/2/2022 10:15:00 AM 6.43 43.574 0.042 6.55 2.92 11.91
1/2/2022 10:30:00 AM 6.42 43.556 0.042 6.47 5.07 11.92
1/2/2022 10:45:00 AM 6.41 43.538 0.042 6.54 5.48 11.95
1/2/2022 11:00:00 AM 6.4 43.52 0.042 6.57 5.09 11.98
1/2/2022 11:15:00 AM 6.4 43.52 0.042 6.5 7.55 12
1/2/2022 11:30:00 AM 6.39 43.502 0.042 6.58 7.57 12
1/2/2022 11:45:00 AM 6.39 43.502 0.042 6.57 6.92 12.01
1/2/2022 12:00:00 PM 6.38 43.484 0.042 6.52 6.57 12.03
1/2/2022 12:15:00 PM 6.38 43.484 0.042 6.57 6.6 12.04
1/2/2022 12:30:00 PM 6.37 43.466 0.042 6.52 5.61 12.03
1/2/2022 12:45:00 PM 6.37 43.466 0.042 6.58 5.67 12.04
1/2/2022 1:00:00 PM 6.36 43.448 0.042 6.59 5.3 12.03
1/2/2022 1:15:00 PM 6.34 43.412 0.042 6.59 5.28 12.04
1/2/2022 1:30:00 PM 6.32 43.376 0.042 6.58 5.23 12.04
1/2/2022 1:45:00 PM 6.29 43.322 0.042 6.59 5.53 12.04
1/2/2022 2:00:00 PM 6.27 43.286 0.042 6.49 8.09 12.04
1/2/2022 2:15:00 PM 6.24 43.232 0.042 6.57 7.87 12.05
1/2/2022 2:30:00 PM 6.21 43.178 0.042 6.53 4.08 12.05
1/2/2022 2:45:00 PM 6.18 43.124 0.042 6.58 4.21 12.06
1/2/2022 3:00:00 PM 6.15 43.07 0.041 6.51 5.38 12.06
1/2/2022 3:15:00 PM 6.11 42.998 0.041 6.52 6.45 12.06
1/2/2022 3:30:00 PM 6.05 42.89 0.042 6.56 5.19 12.06
1/2/2022 3:45:00 PM 5.99 42.782 0.042 6.47 5.51 12.05
1/2/2022 4:00:00 PM 5.96 42.728 0.042 6.5 5.4 12.06
1/2/2022 4:15:00 PM 5.93 42.674 0.042 6.48 5.09 12.04
1/2/2022 4:30:00 PM 5.88 42.584 0.042 6.51 7.07 12.05
1/2/2022 4:45:00 PM 5.83 42.494 0.042 6.52 6.28 12.05
1/2/2022 5:00:00 PM 5.78 42.404 0.042 6.49 2.93 12.06
1/2/2022 5:15:00 PM 5.75 42.35 0.042 6.5 2.78 12.07
1/2/2022 5:30:00 PM 5.71 42.278 0.042 6.51 2.81 12.08
1/2/2022 5:45:00 PM 5.66 42.188 0.042 6.49 2.9 12.09
1/2/2022 6:00:00 PM 5.61 42.098 0.042 6.4 2.78 12.1
1/2/2022 6:15:00 PM 5.56 42.008 0.042 6.48 2.9 12.12
1/2/2022 6:30:00 PM 5.52 41.936 0.042 6.45 2.81 12.13
1/2/2022 6:45:00 PM 5.49 41.882 0.042 6.51 2.96 12.15
1/2/2022 7:00:00 PM 5.45 41.81 0.043 6.48 3.11 12.16
1/2/2022 7:15:00 PM 5.41 41.738 0.042 6.45 4.49 12.18
1/2/2022 7:30:00 PM 5.37 41.666 0.043 6.45 2.86 12.19
1/2/2022 7:45:00 PM 5.33 41.594 0.043 6.47 2.84 12.21
1/2/2022 8:00:00 PM 5.29 41.522 0.043 6.46 2.83 12.22
1/2/2022 8:15:00 PM 5.25 41.45 0.043 6.51 2.86 12.23
1/2/2022 8:30:00 PM 5.21 41.378 0.043 6.49 2.77 12.25
1/2/2022 8:45:00 PM 5.16 41.288 0.043 6.49 2.86 12.27
1/2/2022 9:00:00 PM 5.11 41.198 0.043 6.49 2.84 12.28
1/2/2022 9:15:00 PM 5.06 41.108 0.043 6.48 2.9 12.3
1/2/2022 9:30:00 PM 5.02 41.036 0.043 6.49 2.89 12.32
1/2/2022 9:45:00 PM 4.98 40.964 0.043 6.43 2.87 12.33
1/2/2022 10:00:00 PM 4.95 40.91 0.043 6.49 3.09 12.35
1/2/2022 10:15:00 PM 4.9 40.82 0.043 6.46 2.89 12.36
1/2/2022 10:30:00 PM 4.85 40.73 0.043 6.51 2.86 12.39
1/2/2022 10:45:00 PM 4.82 40.676 0.043 6.46 2.96 12.4
1/2/2022 11:00:00 PM 4.77 40.586 0.043 6.51 2.86 12.41
1/2/2022 11:15:00 PM 4.72 40.496 0.043 6.41 3.11 12.43
1/2/2022 11:30:00 PM 4.69 40.442 0.043 6.5 2.88 12.44
1/2/2022 11:45:00 PM 4.65 40.37 0.043 6.48 3.2 12.46
1/3/2022 12:00:00 AM 4.61 40.298 0.043 6.51 3.27 12.48
1/3/2022 12:15:00 AM 4.57 40.226 0.043 6.51 3.05 12.49
1/3/2022 12:30:00 AM 4.55 40.19 0.043 6.48 3.59 12.51
1/3/2022 12:45:00 AM 4.52 40.136 0.043 6.49 3.34 12.52
1/3/2022 1:00:00 AM 4.48 40.064 0.043 6.5 3.09 12.53
1/3/2022 1:15:00 AM 4.44 39.992 0.043 6.48 3.08 12.54
1/3/2022 1:30:00 AM 4.41 39.938 0.043 6.51 3.06 12.55
1/3/2022 1:45:00 AM 4.38 39.884 0.043 6.52 3.02 12.57
1/3/2022 2:00:00 AM 4.35 39.83 0.043 6.5 3.05 12.58
1/3/2022 2:15:00 AM 4.32 39.776 0.043 6.41 3.13 12.58
1/3/2022 2:30:00 AM 4.29 39.722 0.041 6.42 4.31 12.6
1/3/2022 2:45:00 AM 4.25 39.65 0.042 6.44 4.82 12.61
1/3/2022 3:00:00 AM 4.21 39.578 0.043 6.5 3.1 12.63
1/3/2022 3:15:00 AM 4.17 39.506 0.043 6.49 3.22 12.65
1/3/2022 3:30:00 AM 4.11 39.398 0.043 6.49 3.26 12.67
1/3/2022 3:45:00 AM 4.06 39.308 0.043 6.47 3 12.68
1/3/2022 4:00:00 AM 4.02 39.236 0.043 6.47 3.01 12.7
1/3/2022 4:15:00 AM 3.99 39.182 0.043 6.5 3.09 12.71
1/3/2022 4:30:00 AM 3.94 39.092 0.043 6.45 3.15 12.73
1/3/2022 4:45:00 AM 3.9 39.02 0.043 6.51 3.2 12.74
1/3/2022 5:00:00 AM 3.86 38.948 0.042 6.5 3.11 12.75
1/3/2022 5:15:00 AM 3.83 38.894 0.042 6.43 2.99 12.77
1/3/2022 5:30:00 AM 3.79 38.822 0.042 6.51 3.02 12.78
1/3/2022 5:45:00 AM 3.75 38.75 0.042 6.48 3.15 12.8
1/3/2022 6:00:00 AM 3.72 38.696 0.042 6.43 3.06 12.8
1/3/2022 6:15:00 AM 3.69 38.642 0.042 6.51 3.01 12.82
1/3/2022 6:30:00 AM 3.65 38.57 0.042 6.52 2.99 12.83
1/3/2022 6:45:00 AM 3.61 38.498 0.042 6.51 3.01 12.85
1/3/2022 7:00:00 AM 3.57 38.426 0.042 6.45 3.06 12.86
1/3/2022 7:15:00 AM 3.53 38.354 0.042 6.46 2.96 12.87
1/3/2022 7:30:00 AM 3.49 38.282 0.042 6.53 2.99 12.89
1/3/2022 7:45:00 AM 3.44 38.192 0.042 6.52 2.93 12.91
1/3/2022 8:00:00 AM 3.39 38.102 0.042 6.43 3.01 12.93
1/3/2022 8:15:00 AM 3.35 38.03 0.042 6.53 3.06 12.97
1/3/2022 8:30:00 AM 3.32 37.976 0.042 6.48 2.94 13
1/3/2022 8:45:00 AM 3.29 37.922 0.042 6.54 3.02 13.05
1/3/2022 9:00:00 AM 3.27 37.886 0.042 6.53 3.02 13.08
1/3/2022 9:15:00 AM 3.25 37.85 0.042 6.54 2.94 13.13
1/3/2022 9:30:00 AM 3.23 37.814 0.042 6.57 3.07 13.16
1/3/2022 9:45:00 AM 3.23 37.814 0.042 6.57 2.96 13.19
1/3/2022 10:00:00 AM 3.21 37.778 0.042 6.58 2.91 13.22
1/3/2022 10:15:00 AM 3.21 37.778 0.042 6.58 2.93 13.24
1/3/2022 10:30:00 AM 3.21 37.778 0.042 6.59 2.83 13.25
1/3/2022 10:45:00 AM 3.19 37.742 0.042 6.54 2.81 13.25
1/3/2022 11:00:00 AM 3.2 37.76 0.042 6.61 2.85 13.26
1/3/2022 11:15:00 AM 3.21 37.778 0.042 6.55 2.87 13.26
1/3/2022 11:30:00 AM 3.22 37.796 0.042 6.62 2.8 13.26
1/3/2022 11:45:00 AM 3.24 37.832 0.042 6.6 2.9 13.25
1/3/2022 12:00:00 PM 3.26 37.868 0.042 6.56 2.8 13.24
1/3/2022 12:15:00 PM 3.26 37.868 0.042 6.59 2.82 13.24
1/3/2022 12:30:00 PM 3.24 37.832 0.042 6.62 2.78 13.24
1/3/2022 12:45:00 PM 3.24 37.832 0.042 6.61 2.75 13.24
1/3/2022 1:00:00 PM 3.26 37.868 0.042 6.62 2.87 13.22
1/3/2022 1:15:00 PM 3.34 38.012 0.042 6.62 2.71 13.2
1/3/2022 1:30:00 PM 3.39 38.102 0.042 6.6 2.87 13.19
1/3/2022 1:45:00 PM 3.41 38.138 0.042 6.62 2.84 13.17
1/3/2022 2:00:00 PM 3.42 38.156 0.042 6.61 2.81 13.17
1/3/2022 2:15:00 PM 3.43 38.174 0.042 6.59 2.75 13.16
1/3/2022 2:30:00 PM 3.43 38.174 0.042 6.6 2.74 13.15
1/3/2022 2:45:00 PM 3.43 38.174 0.042 6.6 2.78 13.15
1/3/2022 3:00:00 PM 3.4 38.12 0.042 6.55 2.87 13.14
1/3/2022 3:15:00 PM 3.36 38.048 0.042 6.61 2.82 13.15
1/3/2022 3:30:00 PM 3.31 37.958 0.042 6.56 2.9 13.16
1/3/2022 3:45:00 PM 3.25 37.85 0.042 6.49 2.81 13.16
1/3/2022 4:00:00 PM 3.2 37.76 0.042 6.5 2.81 13.17
1/3/2022 4:15:00 PM 3.13 37.634 0.042 6.49 2.83 13.17
1/3/2022 4:30:00 PM 3.09 37.562 0.042 6.56 2.88 13.18
1/3/2022 4:45:00 PM 3.04 37.472 0.042 6.47 2.79 13.18
1/3/2022 5:00:00 PM 2.99 37.382 0.042 6.54 2.91 13.18
1/3/2022 5:15:00 PM 2.94 37.292 0.042 6.52 3.04 13.18
1/3/2022 5:30:00 PM 2.89 37.202 0.042 6.5 2.97 13.18
1/3/2022 5:45:00 PM 2.86 37.148 0.041 6.45 4.37 13.18
1/3/2022 6:00:00 PM 2.83 37.094 0.042 6.54 2.89 13.18
1/3/2022 6:15:00 PM 2.8 37.04 0.042 6.5 2.89 13.18
1/3/2022 6:30:00 PM 2.77 36.986 0.042 6.43 2.9 13.19
1/3/2022 6:45:00 PM 2.74 36.932 0.042 6.52 3.02 13.2
1/3/2022 7:00:00 PM 2.71 36.878 0.042 6.42 2.92 13.21
1/3/2022 7:15:00 PM 2.68 36.824 0.042 6.46 2.95 13.23
1/3/2022 7:30:00 PM 2.65 36.77 0.042 6.48 2.98 13.23
1/3/2022 7:45:00 PM 2.62 36.716 0.042 6.45 2.91 13.25
1/3/2022 8:00:00 PM 2.6 36.68 0.042 6.51 2.96 13.26
1/3/2022 8:15:00 PM 2.58 36.644 0.042 6.51 2.91 13.26
1/3/2022 8:30:00 PM 2.55 36.59 0.042 6.52 2.95 13.27
1/3/2022 8:45:00 PM 2.52 36.536 0.042 6.49 3.65 13.3
1/3/2022 9:00:00 PM 2.49 36.482 0.042 6.47 3.01 13.31
1/3/2022 9:15:00 PM 2.45 36.41 0.042 6.52 3.06 13.32
1/3/2022 9:30:00 PM 2.42 36.356 0.042 6.46 2.96 13.33
1/3/2022 9:45:00 PM 2.39 36.302 0.042 6.52 2.93 13.35
1/3/2022 10:00:00 PM 2.35 36.23 0.042 6.51 2.96 13.37
1/3/2022 10:15:00 PM 2.33 36.194 0.042 6.49 2.95 13.37
1/3/2022 10:30:00 PM 2.3 36.14 0.042 6.52 3.04 13.39
1/3/2022 10:45:00 PM 2.26 36.068 0.042 6.51 3.05 13.41
1/3/2022 11:00:00 PM 2.23 36.014 0.042 6.5 3.01 13.41
1/3/2022 11:15:00 PM 2.21 35.978 0.042 6.51 2.96 13.44
1/3/2022 11:30:00 PM 2.18 35.924 0.042 6.44 2.94 13.44
1/3/2022 11:45:00 PM 2.15 35.87 0.042 6.53 3.02 13.45
1/4/2022 12:00:00 AM 2.11 35.798 0.042 6.49 3.02 13.46
1/4/2022 12:15:00 AM 2.09 35.762 0.042 6.51 3.03 13.47
1/4/2022 12:30:00 AM 2.06 35.708 0.042 6.51 3.05 13.49
1/4/2022 12:45:00 AM 2.03 35.654 0.042 6.52 2.95 13.5
1/4/2022 1:00:00 AM 2 35.6 0.042 6.47 2.93 13.52
1/4/2022 1:15:00 AM 1.97 35.546 0.04 6.42 4.34 13.53
1/4/2022 1:30:00 AM 1.95 35.51 0.042 6.51 2.98 13.53
1/4/2022 1:45:00 AM 1.94 35.492 0.041 6.45 4.31 13.54
1/4/2022 2:00:00 AM 1.93 35.474 0.04 6.46 4.34 13.55
1/4/2022 2:15:00 AM 1.91 35.438 0.041 6.5 4.28 13.56
1/4/2022 2:30:00 AM 1.91 35.438 0.042 6.51 2.88 13.56
1/4/2022 2:45:00 AM 1.89 35.402 0.042 6.49 3.05 13.56
1/4/2022 3:00:00 AM 1.87 35.366 0.042 6.51 3.02 13.58
1/4/2022 3:15:00 AM 1.84 35.312 0.042 6.52 3 13.58
1/4/2022 3:30:00 AM 1.83 35.294 0.042 6.53 2.98 13.58
1/4/2022 3:45:00 AM 1.82 35.276 0.04 6.39 4.4 13.59
1/4/2022 4:00:00 AM 1.81 35.258 0.04 6.44 4.27 13.6
1/4/2022 4:15:00 AM 1.79 35.222 0.042 6.53 2.98 13.6
1/4/2022 4:30:00 AM 1.77 35.186 0.042 6.53 3.12 13.6
1/4/2022 4:45:00 AM 1.76 35.168 0.041 6.39 4.25 13.61
1/4/2022 5:00:00 AM 1.74 35.132 0.042 6.46 3.09 13.62
1/4/2022 5:15:00 AM 1.71 35.078 0.042 6.53 3.58 13.62
1/4/2022 5:30:00 AM 1.69 35.042 0.041 6.47 4.41 13.63
1/4/2022 5:45:00 AM 1.67 35.006 0.042 6.5 3.05 13.64
1/4/2022 6:00:00 AM 1.65 34.97 0.041 6.46 4.6 13.65
1/4/2022 6:15:00 AM 1.63 34.934 0.041 6.46 4.41 13.66
1/4/2022 6:30:00 AM 1.62 34.916 0.042 6.44 2.87 13.66
1/4/2022 6:45:00 AM 1.61 34.898 0.041 6.47 4.27 13.67
1/4/2022 7:00:00 AM 1.59 34.862 0.042 6.44 2.92 13.68
1/4/2022 7:15:00 AM 1.57 34.826 0.042 6.5 3.42 13.68
1/4/2022 7:30:00 AM 1.55 34.79 0.041 6.48 4.27 13.69
1/4/2022 7:45:00 AM 1.54 34.772 0.04 6.5 4.34 13.7
1/4/2022 8:00:00 AM 1.53 34.754 0.041 6.49 4.39 13.72
1/4/2022 8:15:00 AM 1.52 34.736 0.04 6.51 4.42 13.75
1/4/2022 8:30:00 AM 1.52 34.736 0.041 6.53 4.22 13.78
1/4/2022 8:45:00 AM 1.52 34.736 0.041 6.44 4.35 13.8
1/4/2022 9:00:00 AM 1.52 34.736 0.042 6.54 2.87 13.82
1/4/2022 9:15:00 AM 1.53 34.754 0.041 6.52 4.08 13.84
1/4/2022 9:30:00 AM 1.54 34.772 0.041 6.52 4.26 13.84